PWSweather.com
Personal Weather Stations
Station Observations
GHWX1
Golden Heights, Sturgeon County, AB T0A1N5

Golden HeightsSturgeon County, AB T0A1N5

Lat: 53.919, Lon: -113.37

Elevation: 2159

Station Type:

http://www.ghwx.ca

High Low Average
Temperature 44.2°F6.8°C 25.1°F-3.8°C 33.7°F0.9°C
Dew Point 29.2°F-1.6°C 18.7°F-7.4°C 24.2°F-4.3°C
Winds 17.0 mph 27.4 kmh 2.0 mph 3.2 kmh 7.0 mph W11.3 kmh W
Wind Gusts -- -- --
Humidity 83% 53% 69%
Pressure 29.79 in1008.8 mb 29.45 in997.3 mb -
Precipitation 0.00 in0.0 mm - -
Hour Temp Dew Point Humidity Winds Wind Gusts Pressure Precip Precip Rate Daily Precip Total
12:00 AM 32.6°F0.3°C 20.4°F-6.4°C 61% 8.0 mph SW12.9 kmh SW -- 29.45 in997.3 mb 0.00 in0.0 mm 0.00 in0.0 mm 0.00 in0.0 mm
12:01 AM 32.9°F0.5°C 20.8°F-6.2°C 61% 7.0 mph SW11.3 kmh SW -- 29.45 in997.3 mb 0.00 in0.0 mm 0.00 in0.0 mm 0.00 in0.0 mm
12:02 AM 32.9°F0.5°C 20.8°F-6.2°C 61% 7.0 mph WSW11.3 kmh WSW -- 29.45 in997.3 mb 0.00 in0.0 mm 0.00 in0.0 mm 0.00 in0.0 mm
12:03 AM 33.0°F0.6°C 20.5°F-6.4°C 60% 10.0 mph SW16.1 kmh SW -- 29.45 in997.3 mb 0.00 in0.0 mm 0.00 in0.0 mm 0.00 in0.0 mm
12:04 AM 33.0°F0.6°C 20.5°F-6.4°C 60% 6.0 mph SW9.7 kmh SW -- 29.45 in997.3 mb 0.00 in0.0 mm 0.00 in0.0 mm 0.00 in0.0 mm
12:05 AM 33.0°F0.6°C 20.5°F-6.4°C 60% 6.0 mph WSW9.7 kmh WSW -- 29.45 in997.3 mb 0.00 in0.0 mm 0.00 in0.0 mm 0.00 in0.0 mm
12:06 AM 33.0°F0.6°C 20.5°F-6.4°C 60% 9.0 mph WSW14.5 kmh WSW -- 29.45 in997.3 mb 0.00 in0.0 mm 0.00 in0.0 mm 0.00 in0.0 mm
12:07 AM 33.0°F0.6°C 20.5°F-6.4°C 60% 7.0 mph SSW11.3 kmh SSW -- 29.45 in997.3 mb 0.00 in0.0 mm 0.00 in0.0 mm 0.00 in0.0 mm
12:08 AM 33.0°F0.6°C 20.5°F-6.4°C 60% 12.0 mph SW19.3 kmh SW -- 29.45 in997.3 mb 0.00 in0.0 mm 0.00 in0.0 mm 0.00 in0.0 mm
12:09 AM 33.2°F0.7°C 20.7°F-6.3°C 60% 12.0 mph W19.3 kmh W -- 29.45 in997.3 mb 0.00 in0.0 mm 0.00 in0.0 mm 0.00 in0.0 mm
12:10 AM 33.2°F0.7°C 20.7°F-6.3°C 60% 12.0 mph WSW19.3 kmh WSW -- 29.45 in997.3 mb 0.00 in0.0 mm 0.00 in0.0 mm 0.00 in0.0 mm
12:11 AM 33.4°F0.8°C 20.5°F-6.4°C 59% 10.0 mph SW16.1 kmh SW -- 29.45 in997.3 mb 0.00 in0.0 mm 0.00 in0.0 mm 0.00 in0.0 mm
12:12 AM 33.4°F0.8°C 20.5°F-6.4°C 59% 7.0 mph WSW11.3 kmh WSW -- 29.45 in997.3 mb 0.00 in0.0 mm 0.00 in0.0 mm 0.00 in0.0 mm
12:13 AM 33.4°F0.8°C 20.5°F-6.4°C 59% 9.0 mph W14.5 kmh W -- 29.45 in997.3 mb 0.00 in0.0 mm 0.00 in0.0 mm 0.00 in0.0 mm
12:14 AM 33.4°F0.8°C 20.5°F-6.4°C 59% 9.0 mph SW14.5 kmh SW -- 29.45 in997.3 mb 0.00 in0.0 mm 0.00 in0.0 mm 0.00 in0.0 mm
12:15 AM 33.4°F0.8°C 20.5°F-6.4°C 59% 11.0 mph SW17.7 kmh SW -- 29.45 in997.3 mb 0.00 in0.0 mm 0.00 in0.0 mm 0.00 in0.0 mm
12:16 AM 33.4°F0.8°C 20.5°F-6.4°C 59% 13.0 mph W20.9 kmh W -- 29.45 in997.3 mb 0.00 in0.0 mm 0.00 in0.0 mm 0.00 in0.0 mm
12:17 AM 33.8°F1.0°C 20.8°F-6.2°C 59% 13.0 mph SSW20.9 kmh SSW -- 29.45 in997.3 mb 0.00 in0.0 mm 0.00 in0.0 mm 0.00 in0.0 mm
12:18 AM 33.8°F1.0°C 20.8°F-6.2°C 59% 12.0 mph SW19.3 kmh SW -- 29.45 in997.3 mb 0.00 in0.0 mm 0.00 in0.0 mm 0.00 in0.0 mm
12:19 AM 33.8°F1.0°C 20.8°F-6.2°C 59% 9.0 mph SW14.5 kmh SW -- 29.45 in997.3 mb 0.00 in0.0 mm 0.00 in0.0 mm 0.00 in0.0 mm
12:20 AM 33.8°F1.0°C 20.8°F-6.2°C 59% 7.0 mph WSW11.3 kmh WSW -- 29.45 in997.3 mb 0.00 in0.0 mm 0.00 in0.0 mm 0.00 in0.0 mm
12:21 AM 34.0°F1.1°C 21.0°F-6.1°C 59% 7.0 mph WSW11.3 kmh WSW -- 29.45 in997.3 mb 0.00 in0.0 mm 0.00 in0.0 mm 0.00 in0.0 mm
12:22 AM 34.0°F1.1°C 21.0°F-6.1°C 59% 6.0 mph WSW9.7 kmh WSW -- 29.45 in997.3 mb 0.00 in0.0 mm 0.00 in0.0 mm 0.00 in0.0 mm
12:23 AM 34.0°F1.1°C 21.0°F-6.1°C 59% 10.0 mph WSW16.1 kmh WSW -- 29.45 in997.3 mb 0.00 in0.0 mm 0.00 in0.0 mm 0.00 in0.0 mm
12:24 AM 34.0°F1.1°C 21.0°F-6.1°C 59% 8.0 mph SW12.9 kmh SW -- 29.45 in997.3 mb 0.00 in0.0 mm 0.00 in0.0 mm 0.00 in0.0 mm
12:25 AM 34.0°F1.1°C 21.0°F-6.1°C 59% 12.0 mph W19.3 kmh W -- 29.45 in997.3 mb 0.00 in0.0 mm 0.00 in0.0 mm 0.00 in0.0 mm
12:26 AM 34.0°F1.1°C 21.0°F-6.1°C 59% 10.0 mph WSW16.1 kmh WSW -- 29.45 in997.3 mb 0.00 in0.0 mm 0.00 in0.0 mm 0.00 in0.0 mm
12:27 AM 34.0°F1.1°C 21.0°F-6.1°C 59% 12.0 mph SW19.3 kmh SW -- 29.45 in997.3 mb 0.00 in0.0 mm 0.00 in0.0 mm 0.00 in0.0 mm
12:28 AM 34.0°F1.1°C 21.0°F-6.1°C 59% 9.0 mph WSW14.5 kmh WSW -- 29.45 in997.3 mb 0.00 in0.0 mm 0.00 in0.0 mm 0.00 in0.0 mm
12:30 AM 34.0°F1.1°C 21.0°F-6.1°C 59% 8.0 mph SW12.9 kmh SW -- 29.45 in997.3 mb 0.00 in0.0 mm 0.00 in0.0 mm 0.00 in0.0 mm
12:31 AM 34.2°F1.2°C 21.2°F-6.0°C 59% 12.0 mph SW19.3 kmh SW -- 29.45 in997.3 mb 0.00 in0.0 mm 0.00 in0.0 mm 0.00 in0.0 mm
12:32 AM 34.2°F1.2°C 21.2°F-6.0°C 59% 10.0 mph SW16.1 kmh SW -- 29.45 in997.3 mb 0.00 in0.0 mm 0.00 in0.0 mm 0.00 in0.0 mm
12:33 AM 34.2°F1.2°C 21.2°F-6.0°C 59% 8.0 mph SW12.9 kmh SW -- 29.45 in997.3 mb 0.00 in0.0 mm 0.00 in0.0 mm 0.00 in0.0 mm
12:34 AM 34.2°F1.2°C 21.2°F-6.0°C 59% 9.0 mph WSW14.5 kmh WSW -- 29.45 in997.3 mb 0.00 in0.0 mm 0.00 in0.0 mm 0.00 in0.0 mm
12:35 AM 34.2°F1.2°C 21.2°F-6.0°C 59% 13.0 mph WSW20.9 kmh WSW -- 29.45 in997.3 mb 0.00 in0.0 mm 0.00 in0.0 mm 0.00 in0.0 mm
12:36 AM 34.2°F1.2°C 21.2°F-6.0°C 59% 6.0 mph WSW9.7 kmh WSW -- 29.45 in997.3 mb 0.00 in0.0 mm 0.00 in0.0 mm 0.00 in0.0 mm
12:37 AM 34.2°F1.2°C 21.2°F-6.0°C 59% 9.0 mph SW14.5 kmh SW -- 29.45 in997.3 mb 0.00 in0.0 mm 0.00 in0.0 mm 0.00 in0.0 mm
12:38 AM 34.2°F1.2°C 21.2°F-6.0°C 59% 8.0 mph SW12.9 kmh SW -- 29.45 in997.3 mb 0.00 in0.0 mm 0.00 in0.0 mm 0.00 in0.0 mm
12:39 AM 34.2°F1.2°C 21.2°F-6.0°C 59% 9.0 mph WSW14.5 kmh WSW -- 29.45 in997.3 mb 0.00 in0.0 mm 0.00 in0.0 mm 0.00 in0.0 mm
12:40 AM 34.2°F1.2°C 21.2°F-6.0°C 59% 11.0 mph W17.7 kmh W -- 29.45 in997.3 mb 0.00 in0.0 mm 0.00 in0.0 mm 0.00 in0.0 mm
12:41 AM 34.2°F1.2°C 21.2°F-6.0°C 59% 10.0 mph WSW16.1 kmh WSW -- 29.45 in997.3 mb 0.00 in0.0 mm 0.00 in0.0 mm 0.00 in0.0 mm
12:42 AM 34.2°F1.2°C 21.2°F-6.0°C 59% 10.0 mph SW16.1 kmh SW -- 29.45 in997.3 mb 0.00 in0.0 mm 0.00 in0.0 mm 0.00 in0.0 mm
12:43 AM 34.2°F1.2°C 21.2°F-6.0°C 59% 8.0 mph SW12.9 kmh SW -- 29.45 in997.3 mb 0.00 in0.0 mm 0.00 in0.0 mm 0.00 in0.0 mm
12:44 AM 34.2°F1.2°C 21.2°F-6.0°C 59% 7.0 mph SW11.3 kmh SW -- 29.45 in997.3 mb 0.00 in0.0 mm 0.00 in0.0 mm 0.00 in0.0 mm
12:45 AM 34.2°F1.2°C 21.2°F-6.0°C 59% 10.0 mph W16.1 kmh W -- 29.45 in997.3 mb 0.00 in0.0 mm 0.00 in0.0 mm 0.00 in0.0 mm
12:46 AM 34.2°F1.2°C 21.2°F-6.0°C 59% 8.0 mph W12.9 kmh W -- 29.45 in997.3 mb 0.00 in0.0 mm 0.00 in0.0 mm 0.00 in0.0 mm
12:47 AM 34.2°F1.2°C 21.2°F-6.0°C 59% 11.0 mph W17.7 kmh W -- 29.45 in997.3 mb 0.00 in0.0 mm 0.00 in0.0 mm 0.00 in0.0 mm
12:48 AM 34.2°F1.2°C 21.2°F-6.0°C 59% 8.0 mph SW12.9 kmh SW -- 29.45 in997.3 mb 0.00 in0.0 mm 0.00 in0.0 mm 0.00 in0.0 mm
12:49 AM 34.2°F1.2°C 21.2°F-6.0°C 59% 7.0 mph WSW11.3 kmh WSW -- 29.45 in997.3 mb 0.00 in0.0 mm 0.00 in0.0 mm 0.00 in0.0 mm
12:50 AM 34.2°F1.2°C 21.2°F-6.0°C 59% 7.0 mph SW11.3 kmh SW -- 29.45 in997.3 mb 0.00 in0.0 mm 0.00 in0.0 mm 0.00 in0.0 mm
12:52 AM 34.2°F1.2°C 21.2°F-6.0°C 59% 9.0 mph W14.5 kmh W -- 29.45 in997.3 mb 0.00 in0.0 mm 0.00 in0.0 mm 0.00 in0.0 mm
12:53 AM 34.2°F1.2°C 21.2°F-6.0°C 59% 9.0 mph SW14.5 kmh SW -- 29.45 in997.3 mb 0.00 in0.0 mm 0.00 in0.0 mm 0.00 in0.0 mm
12:54 AM 34.2°F1.2°C 21.2°F-6.0°C 59% 8.0 mph W12.9 kmh W -- 29.45 in997.3 mb 0.00 in0.0 mm 0.00 in0.0 mm 0.00 in0.0 mm
12:55 AM 34.2°F1.2°C 21.2°F-6.0°C 59% 9.0 mph WSW14.5 kmh WSW -- 29.45 in997.3 mb 0.00 in0.0 mm 0.00 in0.0 mm 0.00 in0.0 mm
12:56 AM 34.2°F1.2°C 21.2°F-6.0°C 59% 13.0 mph W20.9 kmh W -- 29.45 in997.3 mb 0.00 in0.0 mm 0.00 in0.0 mm 0.00 in0.0 mm
12:57 AM 34.2°F1.2°C 21.2°F-6.0°C 59% 9.0 mph SW14.5 kmh SW -- 29.45 in997.3 mb 0.00 in0.0 mm 0.00 in0.0 mm 0.00 in0.0 mm
12:58 AM 34.2°F1.2°C 21.2°F-6.0°C 59% 11.0 mph WSW17.7 kmh WSW -- 29.45 in997.3 mb 0.00 in0.0 mm 0.00 in0.0 mm 0.00 in0.0 mm
12:59 AM 34.2°F1.2°C 21.2°F-6.0°C 59% 10.0 mph WSW16.1 kmh WSW -- 29.46 in997.6 mb 0.00 in0.0 mm 0.00 in0.0 mm 0.00 in0.0 mm
01:00 AM 34.2°F1.2°C 21.2°F-6.0°C 59% 7.0 mph WSW11.3 kmh WSW -- 29.46 in997.6 mb 0.00 in0.0 mm 0.00 in0.0 mm 0.00 in0.0 mm
01:01 AM 34.2°F1.2°C 21.6°F-5.8°C 60% 12.0 mph WSW19.3 kmh WSW -- 29.46 in997.6 mb 0.00 in0.0 mm 0.00 in0.0 mm 0.00 in0.0 mm
01:02 AM 34.5°F1.4°C 21.9°F-5.6°C 60% 12.0 mph W19.3 kmh W -- 29.45 in997.3 mb 0.00 in0.0 mm 0.00 in0.0 mm 0.00 in0.0 mm
01:03 AM 34.5°F1.4°C 21.9°F-5.6°C 60% 9.0 mph SW14.5 kmh SW -- 29.46 in997.6 mb 0.00 in0.0 mm 0.00 in0.0 mm 0.00 in0.0 mm
01:04 AM 34.5°F1.4°C 21.9°F-5.6°C 60% 11.0 mph WSW17.7 kmh WSW -- 29.45 in997.3 mb 0.00 in0.0 mm 0.00 in0.0 mm 0.00 in0.0 mm
01:05 AM 34.5°F1.4°C 21.9°F-5.6°C 60% 12.0 mph W19.3 kmh W -- 29.45 in997.3 mb 0.00 in0.0 mm 0.00 in0.0 mm 0.00 in0.0 mm
01:06 AM 34.5°F1.4°C 21.9°F-5.6°C 60% 9.0 mph SW14.5 kmh SW -- 29.46 in997.6 mb 0.00 in0.0 mm 0.00 in0.0 mm 0.00 in0.0 mm
01:07 AM 34.5°F1.4°C 21.9°F-5.6°C 60% 8.0 mph WSW12.9 kmh WSW -- 29.46 in997.6 mb 0.00 in0.0 mm 0.00 in0.0 mm 0.00 in0.0 mm
01:08 AM 34.5°F1.4°C 21.9°F-5.6°C 60% 10.0 mph WSW16.1 kmh WSW -- 29.46 in997.6 mb 0.00 in0.0 mm 0.00 in0.0 mm 0.00 in0.0 mm
01:09 AM 34.5°F1.4°C 21.9°F-5.6°C 60% 10.0 mph SW16.1 kmh SW -- 29.46 in997.6 mb 0.00 in0.0 mm 0.00 in0.0 mm 0.00 in0.0 mm
01:11 AM 34.5°F1.4°C 21.9°F-5.6°C 60% 11.0 mph W17.7 kmh W -- 29.46 in997.6 mb 0.00 in0.0 mm 0.00 in0.0 mm 0.00 in0.0 mm
01:12 AM 34.7°F1.5°C 22.1°F-5.5°C 60% 9.0 mph W14.5 kmh W -- 29.46 in997.6 mb 0.00 in0.0 mm 0.00 in0.0 mm 0.00 in0.0 mm
01:13 AM 34.7°F1.5°C 22.1°F-5.5°C 60% 11.0 mph SW17.7 kmh SW -- 29.46 in997.6 mb 0.00 in0.0 mm 0.00 in0.0 mm 0.00 in0.0 mm
01:14 AM 34.7°F1.5°C 22.1°F-5.5°C 60% 8.0 mph W12.9 kmh W -- 29.46 in997.6 mb 0.00 in0.0 mm 0.00 in0.0 mm 0.00 in0.0 mm
01:15 AM 34.5°F1.4°C 21.9°F-5.6°C 60% 8.0 mph SW12.9 kmh SW -- 29.46 in997.6 mb 0.00 in0.0 mm 0.00 in0.0 mm 0.00 in0.0 mm
01:16 AM 34.5°F1.4°C 21.9°F-5.6°C 60% 9.0 mph W14.5 kmh W -- 29.46 in997.6 mb 0.00 in0.0 mm 0.00 in0.0 mm 0.00 in0.0 mm
01:17 AM 34.5°F1.4°C 21.9°F-5.6°C 60% 10.0 mph SW16.1 kmh SW -- 29.45 in997.3 mb 0.00 in0.0 mm 0.00 in0.0 mm 0.00 in0.0 mm
01:18 AM 34.5°F1.4°C 21.9°F-5.6°C 60% 9.0 mph WSW14.5 kmh WSW -- 29.45 in997.3 mb 0.00 in0.0 mm 0.00 in0.0 mm 0.00 in0.0 mm
01:19 AM 34.2°F1.2°C 21.6°F-5.8°C 60% 8.0 mph W12.9 kmh W -- 29.46 in997.6 mb 0.00 in0.0 mm 0.00 in0.0 mm 0.00 in0.0 mm
01:20 AM 34.2°F1.2°C 21.6°F-5.8°C 60% 11.0 mph SW17.7 kmh SW -- 29.46 in997.6 mb 0.00 in0.0 mm 0.00 in0.0 mm 0.00 in0.0 mm
01:21 AM 34.2°F1.2°C 21.6°F-5.8°C 60% 6.0 mph SW9.7 kmh SW -- 29.46 in997.6 mb 0.00 in0.0 mm 0.00 in0.0 mm 0.00 in0.0 mm
01:22 AM 34.2°F1.2°C 21.6°F-5.8°C 60% 7.0 mph WSW11.3 kmh WSW -- 29.46 in997.6 mb 0.00 in0.0 mm 0.00 in0.0 mm 0.00 in0.0 mm
01:23 AM 34.2°F1.2°C 22.0°F-5.6°C 61% 8.0 mph WSW12.9 kmh WSW -- 29.45 in997.3 mb 0.00 in0.0 mm 0.00 in0.0 mm 0.00 in0.0 mm
01:24 AM 34.2°F1.2°C 22.0°F-5.6°C 61% 11.0 mph WSW17.7 kmh WSW -- 29.45 in997.3 mb 0.00 in0.0 mm 0.00 in0.0 mm 0.00 in0.0 mm
01:25 AM 34.2°F1.2°C 22.0°F-5.6°C 61% 11.0 mph WSW17.7 kmh WSW -- 29.46 in997.6 mb 0.00 in0.0 mm 0.00 in0.0 mm 0.00 in0.0 mm
01:26 AM 34.2°F1.2°C 22.0°F-5.6°C 61% 8.0 mph WSW12.9 kmh WSW -- 29.46 in997.6 mb 0.00 in0.0 mm 0.00 in0.0 mm 0.00 in0.0 mm
01:27 AM 34.2°F1.2°C 22.0°F-5.6°C 61% 10.0 mph WSW16.1 kmh WSW -- 29.46 in997.6 mb 0.00 in0.0 mm 0.00 in0.0 mm 0.00 in0.0 mm
01:28 AM 34.2°F1.2°C 22.0°F-5.6°C 61% 10.0 mph WSW16.1 kmh WSW -- 29.45 in997.3 mb 0.00 in0.0 mm 0.00 in0.0 mm 0.00 in0.0 mm
01:29 AM 34.2°F1.2°C 22.0°F-5.6°C 61% 7.0 mph W11.3 kmh W -- 29.46 in997.6 mb 0.00 in0.0 mm 0.00 in0.0 mm 0.00 in0.0 mm
01:30 AM 34.2°F1.2°C 22.0°F-5.6°C 61% 8.0 mph WSW12.9 kmh WSW -- 29.46 in997.6 mb 0.00 in0.0 mm 0.00 in0.0 mm 0.00 in0.0 mm
01:31 AM 34.2°F1.2°C 22.0°F-5.6°C 61% 9.0 mph W14.5 kmh W -- 29.46 in997.6 mb 0.00 in0.0 mm 0.00 in0.0 mm 0.00 in0.0 mm
01:32 AM 34.2°F1.2°C 22.0°F-5.6°C 61% 8.0 mph W12.9 kmh W -- 29.46 in997.6 mb 0.00 in0.0 mm 0.00 in0.0 mm 0.00 in0.0 mm
01:33 AM 34.2°F1.2°C 22.0°F-5.6°C 61% 9.0 mph SW14.5 kmh SW -- 29.46 in997.6 mb 0.00 in0.0 mm 0.00 in0.0 mm 0.00 in0.0 mm
01:34 AM 34.2°F1.2°C 22.0°F-5.6°C 61% 8.0 mph W12.9 kmh W -- 29.46 in997.6 mb 0.00 in0.0 mm 0.00 in0.0 mm 0.00 in0.0 mm
01:35 AM 34.2°F1.2°C 22.0°F-5.6°C 61% 9.0 mph WSW14.5 kmh WSW -- 29.46 in997.6 mb 0.00 in0.0 mm 0.00 in0.0 mm 0.00 in0.0 mm
01:36 AM 34.2°F1.2°C 22.0°F-5.6°C 61% 6.0 mph W9.7 kmh W -- 29.46 in997.6 mb 0.00 in0.0 mm 0.00 in0.0 mm 0.00 in0.0 mm
01:37 AM 34.2°F1.2°C 22.0°F-5.6°C 61% 5.0 mph W8.0 kmh W -- 29.47 in998.0 mb 0.00 in0.0 mm 0.00 in0.0 mm 0.00 in0.0 mm
01:38 AM 34.0°F1.1°C 22.6°F-5.2°C 63% 5.0 mph W8.0 kmh W -- 29.46 in997.6 mb 0.00 in0.0 mm 0.00 in0.0 mm 0.00 in0.0 mm
01:39 AM 33.8°F1.0°C 22.4°F-5.3°C 63% 5.0 mph W8.0 kmh W -- 29.46 in997.6 mb 0.00 in0.0 mm 0.00 in0.0 mm 0.00 in0.0 mm
01:40 AM 33.4°F0.8°C 22.1°F-5.5°C 63% 5.0 mph W8.0 kmh W -- 29.46 in997.6 mb 0.00 in0.0 mm 0.00 in0.0 mm 0.00 in0.0 mm
01:41 AM 33.0°F0.6°C 22.5°F-5.3°C 65% 4.0 mph W6.4 kmh W -- 29.46 in997.6 mb 0.00 in0.0 mm 0.00 in0.0 mm 0.00 in0.0 mm
01:42 AM 32.9°F0.5°C 22.3°F-5.4°C 65% 5.0 mph W8.0 kmh W -- 29.46 in997.6 mb 0.00 in0.0 mm 0.00 in0.0 mm 0.00 in0.0 mm
01:43 AM 32.6°F0.3°C 21.9°F-5.6°C 65% 5.0 mph W8.0 kmh W -- 29.47 in998.0 mb 0.00 in0.0 mm 0.00 in0.0 mm 0.00 in0.0 mm
01:44 AM 32.6°F0.3°C 21.9°F-5.6°C 65% 6.0 mph W9.7 kmh W -- 29.47 in998.0 mb 0.00 in0.0 mm 0.00 in0.0 mm 0.00 in0.0 mm
01:45 AM 32.5°F0.3°C 21.9°F-5.6°C 65% 5.0 mph W8.0 kmh W -- 29.47 in998.0 mb 0.00 in0.0 mm 0.00 in0.0 mm 0.00 in0.0 mm
01:47 AM 32.4°F0.2°C 21.8°F-5.7°C 65% 4.0 mph W6.4 kmh W -- 29.47 in998.0 mb 0.00 in0.0 mm 0.00 in0.0 mm 0.00 in0.0 mm
01:48 AM 32.4°F0.2°C 22.1°F-5.5°C 66% 5.0 mph WSW8.0 kmh WSW -- 29.47 in998.0 mb 0.00 in0.0 mm 0.00 in0.0 mm 0.00 in0.0 mm
01:49 AM 32.4°F0.2°C 22.1°F-5.5°C 66% 7.0 mph W11.3 kmh W -- 29.47 in998.0 mb 0.00 in0.0 mm 0.00 in0.0 mm 0.00 in0.0 mm
01:50 AM 32.5°F0.3°C 22.3°F-5.4°C 66% 5.0 mph W8.0 kmh W -- 29.47 in998.0 mb 0.00 in0.0 mm 0.00 in0.0 mm 0.00 in0.0 mm
01:52 AM 32.5°F0.3°C 22.3°F-5.4°C 66% 6.0 mph W9.7 kmh W -- 29.47 in998.0 mb 0.00 in0.0 mm 0.00 in0.0 mm 0.00 in0.0 mm
01:53 AM 32.5°F0.3°C 22.3°F-5.4°C 66% 7.0 mph WSW11.3 kmh WSW -- 29.47 in998.0 mb 0.00 in0.0 mm 0.00 in0.0 mm 0.00 in0.0 mm
01:54 AM 32.5°F0.3°C 22.3°F-5.4°C 66% 7.0 mph W11.3 kmh W -- 29.47 in998.0 mb 0.00 in0.0 mm 0.00 in0.0 mm 0.00 in0.0 mm
01:55 AM 32.9°F0.5°C 22.3°F-5.4°C 65% 8.0 mph WSW12.9 kmh WSW -- 29.47 in998.0 mb 0.00 in0.0 mm 0.00 in0.0 mm 0.00 in0.0 mm
01:56 AM 33.0°F0.6°C 22.5°F-5.3°C 65% 10.0 mph W16.1 kmh W -- 29.47 in998.0 mb 0.00 in0.0 mm 0.00 in0.0 mm 0.00 in0.0 mm
01:57 AM 33.0°F0.6°C 22.5°F-5.3°C 65% 7.0 mph SW11.3 kmh SW -- 29.47 in998.0 mb 0.00 in0.0 mm 0.00 in0.0 mm 0.00 in0.0 mm
01:58 AM 33.0°F0.6°C 22.5°F-5.3°C 65% 5.0 mph W8.0 kmh W -- 29.47 in998.0 mb 0.00 in0.0 mm 0.00 in0.0 mm 0.00 in0.0 mm
01:59 AM 33.0°F0.6°C 22.5°F-5.3°C 65% 6.0 mph W9.7 kmh W -- 29.47 in998.0 mb 0.00 in0.0 mm 0.00 in0.0 mm 0.00 in0.0 mm
02:00 AM 32.9°F0.5°C 22.3°F-5.4°C 65% 4.0 mph W6.4 kmh W -- 29.47 in998.0 mb 0.00 in0.0 mm 0.00 in0.0 mm 0.00 in0.0 mm
02:01 AM 32.5°F0.3°C 22.3°F-5.4°C 66% 6.0 mph W9.7 kmh W -- 29.47 in998.0 mb 0.00 in0.0 mm 0.00 in0.0 mm 0.00 in0.0 mm
02:02 AM 32.5°F0.3°C 21.9°F-5.6°C 65% 6.0 mph W9.7 kmh W -- 29.47 in998.0 mb 0.00 in0.0 mm 0.00 in0.0 mm 0.00 in0.0 mm
02:03 AM 32.4°F0.2°C 21.8°F-5.7°C 65% 5.0 mph W8.0 kmh W -- 29.47 in998.0 mb 0.00 in0.0 mm 0.00 in0.0 mm 0.00 in0.0 mm
02:04 AM 32.2°F0.1°C 21.6°F-5.8°C 65% 6.0 mph W9.7 kmh W -- 29.47 in998.0 mb 0.00 in0.0 mm 0.00 in0.0 mm 0.00 in0.0 mm
02:05 AM 31.9°F-0.1°C 21.6°F-5.8°C 66% 6.0 mph W9.7 kmh W -- 29.47 in998.0 mb 0.00 in0.0 mm 0.00 in0.0 mm 0.00 in0.0 mm
02:06 AM 31.6°F-0.2°C 21.5°F-5.8°C 66% 6.0 mph W9.7 kmh W -- 29.47 in998.0 mb 0.00 in0.0 mm 0.00 in0.0 mm 0.00 in0.0 mm
02:07 AM 31.5°F-0.3°C 21.3°F-5.9°C 66% 5.0 mph W8.0 kmh W -- 29.47 in998.0 mb 0.00 in0.0 mm 0.00 in0.0 mm 0.00 in0.0 mm
02:08 AM 31.1°F-0.5°C 21.6°F-5.8°C 68% 5.0 mph W8.0 kmh W -- 29.47 in998.0 mb 0.00 in0.0 mm 0.00 in0.0 mm 0.00 in0.0 mm
02:09 AM 30.7°F-0.7°C 21.7°F-5.7°C 69% 6.0 mph W9.7 kmh W -- 29.47 in998.0 mb 0.00 in0.0 mm 0.00 in0.0 mm 0.00 in0.0 mm
02:10 AM 30.5°F-0.8°C 21.5°F-5.8°C 69% 5.0 mph W8.0 kmh W -- 29.47 in998.0 mb 0.00 in0.0 mm 0.00 in0.0 mm 0.00 in0.0 mm
02:11 AM 30.3°F-0.9°C 21.3°F-5.9°C 69% 5.0 mph W8.0 kmh W -- 29.47 in998.0 mb 0.00 in0.0 mm 0.00 in0.0 mm 0.00 in0.0 mm
02:12 AM 30.1°F-1.1°C 21.3°F-5.9°C 70% 6.0 mph W9.7 kmh W -- 29.47 in998.0 mb 0.00 in0.0 mm 0.00 in0.0 mm 0.00 in0.0 mm
02:13 AM 30.0°F-1.1°C 21.3°F-5.9°C 70% 5.0 mph W8.0 kmh W -- 29.47 in998.0 mb 0.00 in0.0 mm 0.00 in0.0 mm 0.00 in0.0 mm
02:14 AM 29.8°F-1.2°C 21.1°F-6.1°C 70% 5.0 mph W8.0 kmh W -- 29.47 in998.0 mb 0.00 in0.0 mm 0.00 in0.0 mm 0.00 in0.0 mm
02:15 AM 29.6°F-1.3°C 21.0°F-6.1°C 70% 5.0 mph W8.0 kmh W -- 29.47 in998.0 mb 0.00 in0.0 mm 0.00 in0.0 mm 0.00 in0.0 mm
02:16 AM 29.5°F-1.4°C 20.8°F-6.2°C 70% 6.0 mph W9.7 kmh W -- 29.47 in998.0 mb 0.00 in0.0 mm 0.00 in0.0 mm 0.00 in0.0 mm
02:17 AM 29.2°F-1.6°C 20.4°F-6.4°C 70% 5.0 mph W8.0 kmh W -- 29.47 in998.0 mb 0.00 in0.0 mm 0.00 in0.0 mm 0.00 in0.0 mm
02:20 AM 29.1°F-1.6°C 20.4°F-6.4°C 70% 6.0 mph W9.7 kmh W -- 29.47 in998.0 mb 0.00 in0.0 mm 0.00 in0.0 mm 0.00 in0.0 mm
02:21 AM 29.1°F-1.6°C 20.8°F-6.2°C 71% 5.0 mph W8.0 kmh W -- 29.47 in998.0 mb 0.00 in0.0 mm 0.00 in0.0 mm 0.00 in0.0 mm
02:22 AM 28.8°F-1.8°C 20.4°F-6.4°C 71% 6.0 mph W9.7 kmh W -- 29.47 in998.0 mb 0.00 in0.0 mm 0.00 in0.0 mm 0.00 in0.0 mm
02:23 AM 28.7°F-1.8°C 20.4°F-6.4°C 71% 6.0 mph W9.7 kmh W -- 29.47 in998.0 mb 0.00 in0.0 mm 0.00 in0.0 mm 0.00 in0.0 mm
02:24 AM 28.6°F-1.9°C 20.3°F-6.5°C 71% 6.0 mph W9.7 kmh W -- 29.47 in998.0 mb 0.00 in0.0 mm 0.00 in0.0 mm 0.00 in0.0 mm
02:25 AM 28.3°F-2.1°C 20.6°F-6.3°C 73% 5.0 mph W8.0 kmh W -- 29.47 in998.0 mb 0.00 in0.0 mm 0.00 in0.0 mm 0.00 in0.0 mm
02:26 AM 28.3°F-2.1°C 20.6°F-6.3°C 73% 6.0 mph W9.7 kmh W -- 29.47 in998.0 mb 0.00 in0.0 mm 0.00 in0.0 mm 0.00 in0.0 mm
02:35 AM 28.3°F-2.1°C 20.6°F-6.3°C 73% 5.0 mph W8.0 kmh W -- 29.47 in998.0 mb 0.00 in0.0 mm 0.00 in0.0 mm 0.00 in0.0 mm
02:37 AM 28.2°F-2.1°C 20.6°F-6.3°C 73% 5.0 mph W8.0 kmh W -- 29.47 in998.0 mb 0.00 in0.0 mm 0.00 in0.0 mm 0.00 in0.0 mm
02:38 AM 28.2°F-2.1°C 20.6°F-6.3°C 73% 6.0 mph W9.7 kmh W -- 29.47 in998.0 mb 0.00 in0.0 mm 0.00 in0.0 mm 0.00 in0.0 mm
02:40 AM 28.2°F-2.1°C 20.6°F-6.3°C 73% 5.0 mph W8.0 kmh W -- 29.47 in998.0 mb 0.00 in0.0 mm 0.00 in0.0 mm 0.00 in0.0 mm
02:41 AM 27.9°F-2.3°C 20.2°F-6.6°C 73% 5.0 mph W8.0 kmh W -- 29.47 in998.0 mb 0.00 in0.0 mm 0.00 in0.0 mm 0.00 in0.0 mm
02:42 AM 27.6°F-2.4°C 20.1°F-6.6°C 73% 6.0 mph W9.7 kmh W -- 29.48 in998.3 mb 0.00 in0.0 mm 0.00 in0.0 mm 0.00 in0.0 mm
02:43 AM 27.6°F-2.4°C 20.4°F-6.4°C 74% 5.0 mph W8.0 kmh W -- 29.48 in998.3 mb 0.00 in0.0 mm 0.00 in0.0 mm 0.00 in0.0 mm
02:44 AM 27.6°F-2.4°C 20.4°F-6.4°C 74% 6.0 mph W9.7 kmh W -- 29.47 in998.0 mb 0.00 in0.0 mm 0.00 in0.0 mm 0.00 in0.0 mm
02:51 AM 27.6°F-2.4°C 20.4°F-6.4°C 74% 6.0 mph W9.7 kmh W -- 29.48 in998.3 mb 0.00 in0.0 mm 0.00 in0.0 mm 0.00 in0.0 mm
02:53 AM 27.6°F-2.4°C 20.4°F-6.4°C 74% 6.0 mph W9.7 kmh W -- 29.47 in998.0 mb 0.00 in0.0 mm 0.00 in0.0 mm 0.00 in0.0 mm
02:56 AM 27.5°F-2.5°C 20.2°F-6.6°C 74% 6.0 mph W9.7 kmh W -- 29.47 in998.0 mb 0.00 in0.0 mm 0.00 in0.0 mm 0.00 in0.0 mm
02:57 AM 27.5°F-2.5°C 20.5°F-6.4°C 75% 6.0 mph W9.7 kmh W -- 29.47 in998.0 mb 0.00 in0.0 mm 0.00 in0.0 mm 0.00 in0.0 mm
02:58 AM 27.3°F-2.6°C 20.3°F-6.5°C 75% 6.0 mph W9.7 kmh W -- 29.47 in998.0 mb 0.00 in0.0 mm 0.00 in0.0 mm 0.00 in0.0 mm
03:00 AM 27.1°F-2.7°C 20.2°F-6.6°C 75% 6.0 mph W9.7 kmh W -- 29.48 in998.3 mb 0.00 in0.0 mm 0.00 in0.0 mm 0.00 in0.0 mm
03:01 AM 27.1°F-2.7°C 20.2°F-6.6°C 75% 6.0 mph W9.7 kmh W -- 29.47 in998.0 mb 0.00 in0.0 mm 0.00 in0.0 mm 0.00 in0.0 mm
03:03 AM 27.3°F-2.6°C 20.3°F-6.5°C 75% 6.0 mph W9.7 kmh W -- 29.47 in998.0 mb 0.00 in0.0 mm 0.00 in0.0 mm 0.00 in0.0 mm
03:04 AM 27.3°F-2.6°C 20.3°F-6.5°C 75% 7.0 mph W11.3 kmh W -- 29.48 in998.3 mb 0.00 in0.0 mm 0.00 in0.0 mm 0.00 in0.0 mm
03:05 AM 27.3°F-2.6°C 20.3°F-6.5°C 75% 5.0 mph W8.0 kmh W -- 29.47 in998.0 mb 0.00 in0.0 mm 0.00 in0.0 mm 0.00 in0.0 mm
03:09 AM 27.1°F-2.7°C 20.2°F-6.6°C 75% 5.0 mph W8.0 kmh W -- 29.47 in998.0 mb 0.00 in0.0 mm 0.00 in0.0 mm 0.00 in0.0 mm
03:11 AM 27.1°F-2.7°C 20.2°F-6.6°C 75% 5.0 mph W8.0 kmh W -- 29.48 in998.3 mb 0.00 in0.0 mm 0.00 in0.0 mm 0.00 in0.0 mm
03:13 AM 27.1°F-2.7°C 20.2°F-6.6°C 75% 5.0 mph W8.0 kmh W -- 29.47 in998.0 mb 0.00 in0.0 mm 0.00 in0.0 mm 0.00 in0.0 mm
03:14 AM 27.1°F-2.7°C 20.2°F-6.6°C 75% 5.0 mph W8.0 kmh W -- 29.48 in998.3 mb 0.00 in0.0 mm 0.00 in0.0 mm 0.00 in0.0 mm
03:16 AM 27.3°F-2.6°C 20.3°F-6.5°C 75% 4.0 mph W6.4 kmh W -- 29.47 in998.0 mb 0.00 in0.0 mm 0.00 in0.0 mm 0.00 in0.0 mm
03:17 AM 27.5°F-2.5°C 20.5°F-6.4°C 75% 6.0 mph W9.7 kmh W -- 29.47 in998.0 mb 0.00 in0.0 mm 0.00 in0.0 mm 0.00 in0.0 mm
03:18 AM 27.5°F-2.5°C 20.5°F-6.4°C 75% 4.0 mph W6.4 kmh W -- 29.48 in998.3 mb 0.00 in0.0 mm 0.00 in0.0 mm 0.00 in0.0 mm
03:19 AM 27.5°F-2.5°C 20.5°F-6.4°C 75% 5.0 mph W8.0 kmh W -- 29.48 in998.3 mb 0.00 in0.0 mm 0.00 in0.0 mm 0.00 in0.0 mm
03:20 AM 27.5°F-2.5°C 20.2°F-6.6°C 74% 4.0 mph W6.4 kmh W -- 29.48 in998.3 mb 0.00 in0.0 mm 0.00 in0.0 mm 0.00 in0.0 mm
03:22 AM 27.6°F-2.4°C 20.4°F-6.4°C 74% 5.0 mph W8.0 kmh W -- 29.48 in998.3 mb 0.00 in0.0 mm 0.00 in0.0 mm 0.00 in0.0 mm
03:23 AM 27.9°F-2.3°C 20.6°F-6.3°C 74% 4.0 mph W6.4 kmh W -- 29.48 in998.3 mb 0.00 in0.0 mm 0.00 in0.0 mm 0.00 in0.0 mm
03:24 AM 27.9°F-2.3°C 20.6°F-6.3°C 74% 4.0 mph W6.4 kmh W -- 29.47 in998.0 mb 0.00 in0.0 mm 0.00 in0.0 mm 0.00 in0.0 mm
03:26 AM 28.2°F-2.1°C 20.6°F-6.3°C 73% 4.0 mph W6.4 kmh W -- 29.47 in998.0 mb 0.00 in0.0 mm 0.00 in0.0 mm 0.00 in0.0 mm
03:27 AM 28.3°F-2.1°C 20.6°F-6.3°C 73% 4.0 mph W6.4 kmh W -- 29.48 in998.3 mb 0.00 in0.0 mm 0.00 in0.0 mm 0.00 in0.0 mm
03:28 AM 28.6°F-1.9°C 20.9°F-6.2°C 73% 6.0 mph W9.7 kmh W -- 29.48 in998.3 mb 0.00 in0.0 mm 0.00 in0.0 mm 0.00 in0.0 mm
03:29 AM 28.7°F-1.8°C 20.4°F-6.4°C 71% 7.0 mph W11.3 kmh W -- 29.48 in998.3 mb 0.00 in0.0 mm 0.00 in0.0 mm 0.00 in0.0 mm
03:30 AM 28.8°F-1.8°C 20.4°F-6.4°C 71% 5.0 mph WSW8.0 kmh WSW -- 29.47 in998.0 mb 0.00 in0.0 mm 0.00 in0.0 mm 0.00 in0.0 mm
03:31 AM 29.2°F-1.6°C 20.4°F-6.4°C 70% 8.0 mph W12.9 kmh W -- 29.47 in998.0 mb 0.00 in0.0 mm 0.00 in0.0 mm 0.00 in0.0 mm
03:32 AM 29.2°F-1.6°C 20.4°F-6.4°C 70% 4.0 mph W6.4 kmh W -- 29.48 in998.3 mb 0.00 in0.0 mm 0.00 in0.0 mm 0.00 in0.0 mm
03:35 AM 29.2°F-1.6°C 20.4°F-6.4°C 70% 5.0 mph WSW8.0 kmh WSW -- 29.48 in998.3 mb 0.00 in0.0 mm 0.00 in0.0 mm 0.00 in0.0 mm
03:36 AM 29.2°F-1.6°C 20.4°F-6.4°C 70% 7.0 mph W11.3 kmh W -- 29.48 in998.3 mb 0.00 in0.0 mm 0.00 in0.0 mm 0.00 in0.0 mm
03:37 AM 29.6°F-1.3°C 21.0°F-6.1°C 70% 5.0 mph W8.0 kmh W -- 29.48 in998.3 mb 0.00 in0.0 mm 0.00 in0.0 mm 0.00 in0.0 mm
03:38 AM 29.6°F-1.3°C 21.0°F-6.1°C 70% 5.0 mph WSW8.0 kmh WSW -- 29.47 in998.0 mb 0.00 in0.0 mm 0.00 in0.0 mm 0.00 in0.0 mm
03:39 AM 29.6°F-1.3°C 21.0°F-6.1°C 70% 5.0 mph W8.0 kmh W -- 29.48 in998.3 mb 0.00 in0.0 mm 0.00 in0.0 mm 0.00 in0.0 mm
03:40 AM 29.6°F-1.3°C 21.0°F-6.1°C 70% 5.0 mph SW8.0 kmh SW -- 29.47 in998.0 mb 0.00 in0.0 mm 0.00 in0.0 mm 0.00 in0.0 mm
03:41 AM 29.6°F-1.3°C 21.0°F-6.1°C 70% 4.0 mph W6.4 kmh W -- 29.48 in998.3 mb 0.00 in0.0 mm 0.00 in0.0 mm 0.00 in0.0 mm
03:42 AM 29.8°F-1.2°C 21.1°F-6.1°C 70% 6.0 mph SW9.7 kmh SW -- 29.48 in998.3 mb 0.00 in0.0 mm 0.00 in0.0 mm 0.00 in0.0 mm
03:43 AM 29.8°F-1.2°C 21.1°F-6.1°C 70% 5.0 mph W8.0 kmh W -- 29.48 in998.3 mb 0.00 in0.0 mm 0.00 in0.0 mm 0.00 in0.0 mm
03:45 AM 29.8°F-1.2°C 21.1°F-6.1°C 70% 6.0 mph W9.7 kmh W -- 29.48 in998.3 mb 0.00 in0.0 mm 0.00 in0.0 mm 0.00 in0.0 mm
03:46 AM 29.8°F-1.2°C 21.1°F-6.1°C 70% 5.0 mph W8.0 kmh W -- 29.48 in998.3 mb 0.00 in0.0 mm 0.00 in0.0 mm 0.00 in0.0 mm
03:47 AM 29.6°F-1.3°C 21.0°F-6.1°C 70% 6.0 mph W9.7 kmh W -- 29.48 in998.3 mb 0.00 in0.0 mm 0.00 in0.0 mm 0.00 in0.0 mm
03:49 AM 29.6°F-1.3°C 21.0°F-6.1°C 70% 7.0 mph WSW11.3 kmh WSW -- 29.48 in998.3 mb 0.00 in0.0 mm 0.00 in0.0 mm 0.00 in0.0 mm
03:50 AM 29.6°F-1.3°C 21.0°F-6.1°C 70% 6.0 mph W9.7 kmh W -- 29.48 in998.3 mb 0.00 in0.0 mm 0.00 in0.0 mm 0.00 in0.0 mm
03:51 AM 29.6°F-1.3°C 21.0°F-6.1°C 70% 7.0 mph W11.3 kmh W -- 29.48 in998.3 mb 0.00 in0.0 mm 0.00 in0.0 mm 0.00 in0.0 mm
03:52 AM 29.6°F-1.3°C 21.0°F-6.1°C 70% 5.0 mph W8.0 kmh W -- 29.48 in998.3 mb 0.00 in0.0 mm 0.00 in0.0 mm 0.00 in0.0 mm
03:53 AM 29.6°F-1.3°C 21.0°F-6.1°C 70% 6.0 mph W9.7 kmh W -- 29.48 in998.3 mb 0.00 in0.0 mm 0.00 in0.0 mm 0.00 in0.0 mm
03:54 AM 29.8°F-1.2°C 21.1°F-6.1°C 70% 7.0 mph WSW11.3 kmh WSW -- 29.48 in998.3 mb 0.00 in0.0 mm 0.00 in0.0 mm 0.00 in0.0 mm
03:55 AM 30.0°F-1.1°C 21.3°F-5.9°C 70% 6.0 mph W9.7 kmh W -- 29.48 in998.3 mb 0.00 in0.0 mm 0.00 in0.0 mm 0.00 in0.0 mm
03:56 AM 30.1°F-1.1°C 21.3°F-5.9°C 70% 6.0 mph W9.7 kmh W -- 29.48 in998.3 mb 0.00 in0.0 mm 0.00 in0.0 mm 0.00 in0.0 mm
03:57 AM 30.3°F-0.9°C 21.3°F-5.9°C 69% 6.0 mph W9.7 kmh W -- 29.48 in998.3 mb 0.00 in0.0 mm 0.00 in0.0 mm 0.00 in0.0 mm
04:00 AM 30.3°F-0.9°C 21.3°F-5.9°C 69% 5.0 mph W8.0 kmh W -- 29.48 in998.3 mb 0.00 in0.0 mm 0.00 in0.0 mm 0.00 in0.0 mm
04:01 AM 30.5°F-0.8°C 21.5°F-5.8°C 69% 7.0 mph W11.3 kmh W -- 29.48 in998.3 mb 0.00 in0.0 mm 0.00 in0.0 mm 0.00 in0.0 mm
04:02 AM 30.5°F-0.8°C 21.5°F-5.8°C 69% 6.0 mph W9.7 kmh W -- 29.48 in998.3 mb 0.00 in0.0 mm 0.00 in0.0 mm 0.00 in0.0 mm
04:04 AM 30.5°F-0.8°C 21.5°F-5.8°C 69% 8.0 mph W12.9 kmh W -- 29.48 in998.3 mb 0.00 in0.0 mm 0.00 in0.0 mm 0.00 in0.0 mm
04:05 AM 30.7°F-0.7°C 21.7°F-5.7°C 69% 8.0 mph WSW12.9 kmh WSW -- 29.48 in998.3 mb 0.00 in0.0 mm 0.00 in0.0 mm 0.00 in0.0 mm
04:06 AM 31.1°F-0.5°C 21.6°F-5.8°C 68% 8.0 mph SW12.9 kmh SW -- 29.48 in998.3 mb 0.00 in0.0 mm 0.00 in0.0 mm 0.00 in0.0 mm
04:07 AM 31.2°F-0.4°C 21.8°F-5.7°C 68% 6.0 mph SW9.7 kmh SW -- 29.48 in998.3 mb 0.00 in0.0 mm 0.00 in0.0 mm 0.00 in0.0 mm
04:08 AM 31.6°F-0.2°C 21.5°F-5.8°C 66% 6.0 mph W9.7 kmh W -- 29.48 in998.3 mb 0.00 in0.0 mm 0.00 in0.0 mm 0.00 in0.0 mm
04:09 AM 31.6°F-0.2°C 21.5°F-5.8°C 66% 8.0 mph W12.9 kmh W -- 29.48 in998.3 mb 0.00 in0.0 mm 0.00 in0.0 mm 0.00 in0.0 mm
04:10 AM 31.7°F-0.2°C 21.5°F-5.8°C 66% 7.0 mph W11.3 kmh W -- 29.48 in998.3 mb 0.00 in0.0 mm 0.00 in0.0 mm 0.00 in0.0 mm
04:12 AM 32.2°F0.1°C 21.6°F-5.8°C 65% 8.0 mph SW12.9 kmh SW -- 29.48 in998.3 mb 0.00 in0.0 mm 0.00 in0.0 mm 0.00 in0.0 mm
04:13 AM 32.2°F0.1°C 21.6°F-5.8°C 65% 8.0 mph WSW12.9 kmh WSW -- 29.48 in998.3 mb 0.00 in0.0 mm 0.00 in0.0 mm 0.00 in0.0 mm
04:14 AM 32.4°F0.2°C 21.8°F-5.7°C 65% 5.0 mph WSW8.0 kmh WSW -- 29.48 in998.3 mb 0.00 in0.0 mm 0.00 in0.0 mm 0.00 in0.0 mm
04:15 AM 32.4°F0.2°C 21.8°F-5.7°C 65% 5.0 mph W8.0 kmh W -- 29.48 in998.3 mb 0.00 in0.0 mm 0.00 in0.0 mm 0.00 in0.0 mm
04:16 AM 32.4°F0.2°C 21.8°F-5.7°C 65% 7.0 mph WSW11.3 kmh WSW -- 29.48 in998.3 mb 0.00 in0.0 mm 0.00 in0.0 mm 0.00 in0.0 mm
04:18 AM 32.4°F0.2°C 21.8°F-5.7°C 65% 8.0 mph WSW12.9 kmh WSW -- 29.48 in998.3 mb 0.00 in0.0 mm 0.00 in0.0 mm 0.00 in0.0 mm
04:19 AM 32.5°F0.3°C 21.9°F-5.6°C 65% 8.0 mph W12.9 kmh W -- 29.48 in998.3 mb 0.00 in0.0 mm 0.00 in0.0 mm 0.00 in0.0 mm
04:20 AM 32.5°F0.3°C 21.9°F-5.6°C 65% 6.0 mph SW9.7 kmh SW -- 29.48 in998.3 mb 0.00 in0.0 mm 0.00 in0.0 mm 0.00 in0.0 mm
04:21 AM 32.5°F0.3°C 21.9°F-5.6°C 65% 7.0 mph WSW11.3 kmh WSW -- 29.48 in998.3 mb 0.00 in0.0 mm 0.00 in0.0 mm 0.00 in0.0 mm
04:22 AM 32.5°F0.3°C 21.9°F-5.6°C 65% 7.0 mph SW11.3 kmh SW -- 29.48 in998.3 mb 0.00 in0.0 mm 0.00 in0.0 mm 0.00 in0.0 mm
04:23 AM 32.4°F0.2°C 21.8°F-5.7°C 65% 6.0 mph WSW9.7 kmh WSW -- 29.48 in998.3 mb 0.00 in0.0 mm 0.00 in0.0 mm 0.00 in0.0 mm
04:24 AM 32.4°F0.2°C 21.8°F-5.7°C 65% 8.0 mph WSW12.9 kmh WSW -- 29.48 in998.3 mb 0.00 in0.0 mm 0.00 in0.0 mm 0.00 in0.0 mm
04:26 AM 32.4°F0.2°C 21.8°F-5.7°C 65% 7.0 mph W11.3 kmh W -- 29.48 in998.3 mb 0.00 in0.0 mm 0.00 in0.0 mm 0.00 in0.0 mm
04:27 AM 32.4°F0.2°C 21.8°F-5.7°C 65% 7.0 mph SW11.3 kmh SW -- 29.49 in998.6 mb 0.00 in0.0 mm 0.00 in0.0 mm 0.00 in0.0 mm
04:28 AM 32.2°F0.1°C 21.6°F-5.8°C 65% 8.0 mph W12.9 kmh W -- 29.49 in998.6 mb 0.00 in0.0 mm 0.00 in0.0 mm 0.00 in0.0 mm
04:29 AM 32.2°F0.1°C 21.6°F-5.8°C 65% 8.0 mph WSW12.9 kmh WSW -- 29.49 in998.6 mb 0.00 in0.0 mm 0.00 in0.0 mm 0.00 in0.0 mm
04:30 AM 32.2°F0.1°C 21.6°F-5.8°C 65% 9.0 mph WSW14.5 kmh WSW -- 29.48 in998.3 mb 0.00 in0.0 mm 0.00 in0.0 mm 0.00 in0.0 mm
04:31 AM 32.2°F0.1°C 21.6°F-5.8°C 65% 8.0 mph W12.9 kmh W -- 29.48 in998.3 mb 0.00 in0.0 mm 0.00 in0.0 mm 0.00 in0.0 mm
04:33 AM 32.2°F0.1°C 21.6°F-5.8°C 65% 8.0 mph SW12.9 kmh SW -- 29.48 in998.3 mb 0.00 in0.0 mm 0.00 in0.0 mm 0.00 in0.0 mm
04:34 AM 32.2°F0.1°C 21.6°F-5.8°C 65% 9.0 mph WSW14.5 kmh WSW -- 29.49 in998.6 mb 0.00 in0.0 mm 0.00 in0.0 mm 0.00 in0.0 mm
04:35 AM 32.2°F0.1°C 21.6°F-5.8°C 65% 7.0 mph WSW11.3 kmh WSW -- 29.49 in998.6 mb 0.00 in0.0 mm 0.00 in0.0 mm 0.00 in0.0 mm
04:36 AM 32.2°F0.1°C 21.6°F-5.8°C 65% 9.0 mph WSW14.5 kmh WSW -- 29.48 in998.3 mb 0.00 in0.0 mm 0.00 in0.0 mm 0.00 in0.0 mm
04:38 AM 32.2°F0.1°C 21.6°F-5.8°C 65% 7.0 mph SW11.3 kmh SW -- 29.48 in998.3 mb 0.00 in0.0 mm 0.00 in0.0 mm 0.00 in0.0 mm
04:39 AM 32.2°F0.1°C 21.6°F-5.8°C 65% 10.0 mph W16.1 kmh W -- 29.48 in998.3 mb 0.00 in0.0 mm 0.00 in0.0 mm 0.00 in0.0 mm
04:40 AM 32.4°F0.2°C 21.8°F-5.7°C 65% 10.0 mph SW16.1 kmh SW -- 29.48 in998.3 mb 0.00 in0.0 mm 0.00 in0.0 mm 0.00 in0.0 mm
04:41 AM 32.4°F0.2°C 21.8°F-5.7°C 65% 7.0 mph W11.3 kmh W -- 29.48 in998.3 mb 0.00 in0.0 mm 0.00 in0.0 mm 0.00 in0.0 mm
04:42 AM 32.4°F0.2°C 21.8°F-5.7°C 65% 8.0 mph W12.9 kmh W -- 29.49 in998.6 mb 0.00 in0.0 mm 0.00 in0.0 mm 0.00 in0.0 mm
04:43 AM 32.4°F0.2°C 21.8°F-5.7°C 65% 8.0 mph SSW12.9 kmh SSW -- 29.49 in998.6 mb 0.00 in0.0 mm 0.00 in0.0 mm 0.00 in0.0 mm
04:44 AM 32.4°F0.2°C 21.8°F-5.7°C 65% 8.0 mph W12.9 kmh W -- 29.48 in998.3 mb 0.00 in0.0 mm 0.00 in0.0 mm 0.00 in0.0 mm
04:45 AM 32.4°F0.2°C 21.8°F-5.7°C 65% 10.0 mph WSW16.1 kmh WSW -- 29.48 in998.3 mb 0.00 in0.0 mm 0.00 in0.0 mm 0.00 in0.0 mm
04:46 AM 32.5°F0.3°C 21.9°F-5.6°C 65% 6.0 mph W9.7 kmh W -- 29.49 in998.6 mb 0.00 in0.0 mm 0.00 in0.0 mm 0.00 in0.0 mm
04:47 AM 32.5°F0.3°C 21.9°F-5.6°C 65% 10.0 mph WSW16.1 kmh WSW -- 29.48 in998.3 mb 0.00 in0.0 mm 0.00 in0.0 mm 0.00 in0.0 mm
04:48 AM 32.4°F0.2°C 21.8°F-5.7°C 65% 7.0 mph SW11.3 kmh SW -- 29.48 in998.3 mb 0.00 in0.0 mm 0.00 in0.0 mm 0.00 in0.0 mm
04:49 AM 32.4°F0.2°C 21.8°F-5.7°C 65% 8.0 mph WSW12.9 kmh WSW -- 29.48 in998.3 mb 0.00 in0.0 mm 0.00 in0.0 mm 0.00 in0.0 mm
04:50 AM 32.2°F0.1°C 21.6°F-5.8°C 65% 6.0 mph SW9.7 kmh SW -- 29.48 in998.3 mb 0.00 in0.0 mm 0.00 in0.0 mm 0.00 in0.0 mm
04:51 AM 31.9°F-0.1°C 21.3°F-5.9°C 65% 7.0 mph SSW11.3 kmh SSW -- 29.49 in998.6 mb 0.00 in0.0 mm 0.00 in0.0 mm 0.00 in0.0 mm
04:52 AM 31.9°F-0.1°C 21.3°F-5.9°C 65% 8.0 mph S12.9 kmh S -- 29.49 in998.6 mb 0.00 in0.0 mm 0.00 in0.0 mm 0.00 in0.0 mm
04:53 AM 31.7°F-0.2°C 21.5°F-5.8°C 66% 6.0 mph WSW9.7 kmh WSW -- 29.49 in998.6 mb 0.00 in0.0 mm 0.00 in0.0 mm 0.00 in0.0 mm
04:54 AM 31.6°F-0.2°C 21.5°F-5.8°C 66% 8.0 mph SSW12.9 kmh SSW -- 29.49 in998.6 mb 0.00 in0.0 mm 0.00 in0.0 mm 0.00 in0.0 mm
04:55 AM 31.6°F-0.2°C 21.5°F-5.8°C 66% 5.0 mph SW8.0 kmh SW -- 29.49 in998.6 mb 0.00 in0.0 mm 0.00 in0.0 mm 0.00 in0.0 mm
04:56 AM 31.6°F-0.2°C 21.5°F-5.8°C 66% 8.0 mph SSW12.9 kmh SSW -- 29.49 in998.6 mb 0.00 in0.0 mm 0.00 in0.0 mm 0.00 in0.0 mm
04:57 AM 31.5°F-0.3°C 22.0°F-5.6°C 68% 6.0 mph SW9.7 kmh SW -- 29.49 in998.6 mb 0.00 in0.0 mm 0.00 in0.0 mm 0.00 in0.0 mm
04:58 AM 31.5°F-0.3°C 22.0°F-5.6°C 68% 8.0 mph SSW12.9 kmh SSW -- 29.49 in998.6 mb 0.00 in0.0 mm 0.00 in0.0 mm 0.00 in0.0 mm
04:59 AM 31.5°F-0.3°C 22.0°F-5.6°C 68% 6.0 mph SW9.7 kmh SW -- 29.49 in998.6 mb 0.00 in0.0 mm 0.00 in0.0 mm 0.00 in0.0 mm
05:00 AM 31.2°F-0.4°C 21.8°F-5.7°C 68% 6.0 mph WSW9.7 kmh WSW -- 29.49 in998.6 mb 0.00 in0.0 mm 0.00 in0.0 mm 0.00 in0.0 mm
05:01 AM 31.2°F-0.4°C 21.8°F-5.7°C 68% 5.0 mph SSW8.0 kmh SSW -- 29.49 in998.6 mb 0.00 in0.0 mm 0.00 in0.0 mm 0.00 in0.0 mm
05:02 AM 31.2°F-0.4°C 21.8°F-5.7°C 68% 6.0 mph SSW9.7 kmh SSW -- 29.48 in998.3 mb 0.00 in0.0 mm 0.00 in0.0 mm 0.00 in0.0 mm
05:03 AM 31.2°F-0.4°C 21.8°F-5.7°C 68% 5.0 mph SW8.0 kmh SW -- 29.48 in998.3 mb 0.00 in0.0 mm 0.00 in0.0 mm 0.00 in0.0 mm
05:04 AM 31.1°F-0.5°C 21.6°F-5.8°C 68% 7.0 mph SW11.3 kmh SW -- 29.49 in998.6 mb 0.00 in0.0 mm 0.00 in0.0 mm 0.00 in0.0 mm
05:07 AM 31.1°F-0.5°C 21.6°F-5.8°C 68% 7.0 mph SSW11.3 kmh SSW -- 29.49 in998.6 mb 0.00 in0.0 mm 0.00 in0.0 mm 0.00 in0.0 mm
05:08 AM 31.1°F-0.5°C 22.0°F-5.6°C 69% 6.0 mph SSW9.7 kmh SSW -- 29.49 in998.6 mb 0.00 in0.0 mm 0.00 in0.0 mm 0.00 in0.0 mm
05:09 AM 31.1°F-0.5°C 22.0°F-5.6°C 69% 5.0 mph SW8.0 kmh SW -- 29.49 in998.6 mb 0.00 in0.0 mm 0.00 in0.0 mm 0.00 in0.0 mm
05:10 AM 31.1°F-0.5°C 22.0°F-5.6°C 69% 5.0 mph WSW8.0 kmh WSW -- 29.49 in998.6 mb 0.00 in0.0 mm 0.00 in0.0 mm 0.00 in0.0 mm
05:11 AM 31.1°F-0.5°C 22.0°F-5.6°C 69% 6.0 mph W9.7 kmh W -- 29.48 in998.3 mb 0.00 in0.0 mm 0.00 in0.0 mm 0.00 in0.0 mm
05:12 AM 31.1°F-0.5°C 22.0°F-5.6°C 69% 7.0 mph WSW11.3 kmh WSW -- 29.49 in998.6 mb 0.00 in0.0 mm 0.00 in0.0 mm 0.00 in0.0 mm
05:13 AM 31.1°F-0.5°C 22.0°F-5.6°C 69% 9.0 mph SW14.5 kmh SW -- 29.49 in998.6 mb 0.00 in0.0 mm 0.00 in0.0 mm 0.00 in0.0 mm
05:14 AM 31.1°F-0.5°C 22.0°F-5.6°C 69% 5.0 mph W8.0 kmh W -- 29.48 in998.3 mb 0.00 in0.0 mm 0.00 in0.0 mm 0.00 in0.0 mm
05:15 AM 31.1°F-0.5°C 22.0°F-5.6°C 69% 8.0 mph SW12.9 kmh SW -- 29.49 in998.6 mb 0.00 in0.0 mm 0.00 in0.0 mm 0.00 in0.0 mm
05:16 AM 31.1°F-0.5°C 22.0°F-5.6°C 69% 6.0 mph SW9.7 kmh SW -- 29.49 in998.6 mb 0.00 in0.0 mm 0.00 in0.0 mm 0.00 in0.0 mm
05:17 AM 31.1°F-0.5°C 22.0°F-5.6°C 69% 6.0 mph WSW9.7 kmh WSW -- 29.49 in998.6 mb 0.00 in0.0 mm 0.00 in0.0 mm 0.00 in0.0 mm
05:18 AM 31.1°F-0.5°C 22.0°F-5.6°C 69% 5.0 mph WSW8.0 kmh WSW -- 29.49 in998.6 mb 0.00 in0.0 mm 0.00 in0.0 mm 0.00 in0.0 mm
05:19 AM 31.1°F-0.5°C 22.0°F-5.6°C 69% 6.0 mph SW9.7 kmh SW -- 29.49 in998.6 mb 0.00 in0.0 mm 0.00 in0.0 mm 0.00 in0.0 mm
05:20 AM 31.1°F-0.5°C 22.0°F-5.6°C 69% 5.0 mph SW8.0 kmh SW -- 29.49 in998.6 mb 0.00 in0.0 mm 0.00 in0.0 mm 0.00 in0.0 mm
05:22 AM 31.1°F-0.5°C 22.0°F-5.6°C 69% 6.0 mph SW9.7 kmh SW -- 29.49 in998.6 mb 0.00 in0.0 mm 0.00 in0.0 mm 0.00 in0.0 mm
05:23 AM 31.1°F-0.5°C 22.0°F-5.6°C 69% 5.0 mph SSW8.0 kmh SSW -- 29.49 in998.6 mb 0.00 in0.0 mm 0.00 in0.0 mm 0.00 in0.0 mm
05:24 AM 31.1°F-0.5°C 22.0°F-5.6°C 69% 6.0 mph SW9.7 kmh SW -- 29.49 in998.6 mb 0.00 in0.0 mm 0.00 in0.0 mm 0.00 in0.0 mm
05:25 AM 31.1°F-0.5°C 22.0°F-5.6°C 69% 5.0 mph SW8.0 kmh SW -- 29.49 in998.6 mb 0.00 in0.0 mm 0.00 in0.0 mm 0.00 in0.0 mm
05:26 AM 31.1°F-0.5°C 22.0°F-5.6°C 69% 4.0 mph SW6.4 kmh SW -- 29.49 in998.6 mb 0.00 in0.0 mm 0.00 in0.0 mm 0.00 in0.0 mm
05:27 AM 31.1°F-0.5°C 22.0°F-5.6°C 69% 8.0 mph SW12.9 kmh SW -- 29.49 in998.6 mb 0.00 in0.0 mm 0.00 in0.0 mm 0.00 in0.0 mm
05:28 AM 31.1°F-0.5°C 22.0°F-5.6°C 69% 5.0 mph WSW8.0 kmh WSW -- 29.49 in998.6 mb 0.00 in0.0 mm 0.00 in0.0 mm 0.00 in0.0 mm
05:29 AM 31.1°F-0.5°C 22.0°F-5.6°C 69% 5.0 mph SSW8.0 kmh SSW -- 29.49 in998.6 mb 0.00 in0.0 mm 0.00 in0.0 mm 0.00 in0.0 mm
05:30 AM 31.1°F-0.5°C 22.0°F-5.6°C 69% 5.0 mph SW8.0 kmh SW -- 29.49 in998.6 mb 0.00 in0.0 mm 0.00 in0.0 mm 0.00 in0.0 mm
05:31 AM 31.1°F-0.5°C 22.0°F-5.6°C 69% 4.0 mph WSW6.4 kmh WSW -- 29.49 in998.6 mb 0.00 in0.0 mm 0.00 in0.0 mm 0.00 in0.0 mm
05:32 AM 31.1°F-0.5°C 22.0°F-5.6°C 69% 4.0 mph SSW6.4 kmh SSW -- 29.49 in998.6 mb 0.00 in0.0 mm 0.00 in0.0 mm 0.00 in0.0 mm
05:33 AM 31.1°F-0.5°C 22.0°F-5.6°C 69% 6.0 mph WSW9.7 kmh WSW -- 29.49 in998.6 mb 0.00 in0.0 mm 0.00 in0.0 mm 0.00 in0.0 mm
05:35 AM 31.1°F-0.5°C 22.0°F-5.6°C 69% 5.0 mph WSW8.0 kmh WSW -- 29.49 in998.6 mb 0.00 in0.0 mm 0.00 in0.0 mm 0.00 in0.0 mm
05:36 AM 31.1°F-0.5°C 22.0°F-5.6°C 69% 6.0 mph SSW9.7 kmh SSW -- 29.49 in998.6 mb 0.00 in0.0 mm 0.00 in0.0 mm 0.00 in0.0 mm
05:37 AM 31.1°F-0.5°C 22.0°F-5.6°C 69% 5.0 mph SW8.0 kmh SW -- 29.49 in998.6 mb 0.00 in0.0 mm 0.00 in0.0 mm 0.00 in0.0 mm
05:38 AM 31.1°F-0.5°C 22.0°F-5.6°C 69% 4.0 mph SW6.4 kmh SW -- 29.49 in998.6 mb 0.00 in0.0 mm 0.00 in0.0 mm 0.00 in0.0 mm
05:39 AM 31.1°F-0.5°C 22.0°F-5.6°C 69% 4.0 mph SSW6.4 kmh SSW -- 29.49 in998.6 mb 0.00 in0.0 mm 0.00 in0.0 mm 0.00 in0.0 mm
05:40 AM 31.1°F-0.5°C 22.0°F-5.6°C 69% 6.0 mph SW9.7 kmh SW -- 29.49 in998.6 mb 0.00 in0.0 mm 0.00 in0.0 mm 0.00 in0.0 mm
05:41 AM 31.1°F-0.5°C 22.0°F-5.6°C 69% 5.0 mph SW8.0 kmh SW -- 29.49 in998.6 mb 0.00 in0.0 mm 0.00 in0.0 mm 0.00 in0.0 mm
05:42 AM 31.1°F-0.5°C 22.0°F-5.6°C 69% 5.0 mph WSW8.0 kmh WSW -- 29.49 in998.6 mb 0.00 in0.0 mm 0.00 in0.0 mm 0.00 in0.0 mm
05:43 AM 31.1°F-0.5°C 22.0°F-5.6°C 69% 4.0 mph WSW6.4 kmh WSW -- 29.49 in998.6 mb 0.00 in0.0 mm 0.00 in0.0 mm 0.00 in0.0 mm
05:44 AM 30.8°F-0.7°C 21.7°F-5.7°C 69% 4.0 mph WSW6.4 kmh WSW -- 29.49 in998.6 mb 0.00 in0.0 mm 0.00 in0.0 mm 0.00 in0.0 mm
05:46 AM 30.7°F-0.7°C 21.7°F-5.7°C 69% 4.0 mph SSW6.4 kmh SSW -- 29.49 in998.6 mb 0.00 in0.0 mm 0.00 in0.0 mm 0.00 in0.0 mm
05:47 AM 30.7°F-0.7°C 21.7°F-5.7°C 69% 4.0 mph WSW6.4 kmh WSW -- 29.49 in998.6 mb 0.00 in0.0 mm 0.00 in0.0 mm 0.00 in0.0 mm
05:49 AM 30.7°F-0.7°C 21.7°F-5.7°C 69% 4.0 mph SW6.4 kmh SW -- 29.49 in998.6 mb 0.00 in0.0 mm 0.00 in0.0 mm 0.00 in0.0 mm
05:50 AM 30.5°F-0.8°C 21.5°F-5.8°C 69% 4.0 mph SW6.4 kmh SW -- 29.49 in998.6 mb 0.00 in0.0 mm 0.00 in0.0 mm 0.00 in0.0 mm
05:52 AM 30.5°F-0.8°C 21.5°F-5.8°C 69% 6.0 mph SSW9.7 kmh SSW -- 29.49 in998.6 mb 0.00 in0.0 mm 0.00 in0.0 mm 0.00 in0.0 mm
05:53 AM 30.5°F-0.8°C 21.5°F-5.8°C 69% 5.0 mph SW8.0 kmh SW -- 29.49 in998.6 mb 0.00 in0.0 mm 0.00 in0.0 mm 0.00 in0.0 mm
05:54 AM 30.3°F-0.9°C 21.3°F-5.9°C 69% 6.0 mph WSW9.7 kmh WSW -- 29.49 in998.6 mb 0.00 in0.0 mm 0.00 in0.0 mm 0.00 in0.0 mm
05:55 AM 30.3°F-0.9°C 21.3°F-5.9°C 69% 6.0 mph SW9.7 kmh SW -- 29.49 in998.6 mb 0.00 in0.0 mm 0.00 in0.0 mm 0.00 in0.0 mm
05:56 AM 30.3°F-0.9°C 21.3°F-5.9°C 69% 3.0 mph WSW4.8 kmh WSW -- 29.49 in998.6 mb 0.00 in0.0 mm 0.00 in0.0 mm 0.00 in0.0 mm
05:57 AM 30.3°F-0.9°C 21.3°F-5.9°C 69% 7.0 mph SSW11.3 kmh SSW -- 29.49 in998.6 mb 0.00 in0.0 mm 0.00 in0.0 mm 0.00 in0.0 mm
05:58 AM 30.3°F-0.9°C 21.3°F-5.9°C 69% 5.0 mph W8.0 kmh W -- 29.49 in998.6 mb 0.00 in0.0 mm 0.00 in0.0 mm 0.00 in0.0 mm
05:59 AM 30.3°F-0.9°C 21.3°F-5.9°C 69% 4.0 mph SSW6.4 kmh SSW -- 29.49 in998.6 mb 0.00 in0.0 mm 0.00 in0.0 mm 0.00 in0.0 mm
06:00 AM 30.3°F-0.9°C 21.3°F-5.9°C 69% 5.0 mph SW8.0 kmh SW -- 29.49 in998.6 mb 0.00 in0.0 mm 0.00 in0.0 mm 0.00 in0.0 mm
06:01 AM 30.3°F-0.9°C 21.3°F-5.9°C 69% 4.0 mph WSW6.4 kmh WSW -- 29.49 in998.6 mb 0.00 in0.0 mm 0.00 in0.0 mm 0.00 in0.0 mm
06:02 AM 30.3°F-0.9°C 21.3°F-5.9°C 69% 5.0 mph SSW8.0 kmh SSW -- 29.49 in998.6 mb 0.00 in0.0 mm 0.00 in0.0 mm 0.00 in0.0 mm
06:03 AM 30.3°F-0.9°C 21.3°F-5.9°C 69% 4.0 mph SW6.4 kmh SW -- 29.49 in998.6 mb 0.00 in0.0 mm 0.00 in0.0 mm 0.00 in0.0 mm
06:04 AM 30.3°F-0.9°C 21.3°F-5.9°C 69% 4.0 mph SSW6.4 kmh SSW -- 29.49 in998.6 mb 0.00 in0.0 mm 0.00 in0.0 mm 0.00 in0.0 mm
06:05 AM 30.3°F-0.9°C 21.3°F-5.9°C 69% 5.0 mph SSW8.0 kmh SSW -- 29.49 in998.6 mb 0.00 in0.0 mm 0.00 in0.0 mm 0.00 in0.0 mm
06:06 AM 30.3°F-0.9°C 21.3°F-5.9°C 69% 3.0 mph SW4.8 kmh SW -- 29.49 in998.6 mb 0.00 in0.0 mm 0.00 in0.0 mm 0.00 in0.0 mm
06:07 AM 30.1°F-1.1°C 21.0°F-6.1°C 69% 4.0 mph WSW6.4 kmh WSW -- 29.49 in998.6 mb 0.00 in0.0 mm 0.00 in0.0 mm 0.00 in0.0 mm
06:08 AM 30.1°F-1.1°C 21.0°F-6.1°C 69% 4.0 mph WSW6.4 kmh WSW -- 29.50 in999.0 mb 0.00 in0.0 mm 0.00 in0.0 mm 0.00 in0.0 mm
06:09 AM 30.1°F-1.1°C 21.0°F-6.1°C 69% 4.0 mph SW6.4 kmh SW -- 29.50 in999.0 mb 0.00 in0.0 mm 0.00 in0.0 mm 0.00 in0.0 mm
06:10 AM 30.1°F-1.1°C 21.0°F-6.1°C 69% 5.0 mph W8.0 kmh W -- 29.49 in998.6 mb 0.00 in0.0 mm 0.00 in0.0 mm 0.00 in0.0 mm
06:11 AM 30.1°F-1.1°C 21.0°F-6.1°C 69% 5.0 mph WSW8.0 kmh WSW -- 29.50 in999.0 mb 0.00 in0.0 mm 0.00 in0.0 mm 0.00 in0.0 mm
06:12 AM 30.1°F-1.1°C 21.0°F-6.1°C 69% 4.0 mph SW6.4 kmh SW -- 29.50 in999.0 mb 0.00 in0.0 mm 0.00 in0.0 mm 0.00 in0.0 mm
06:13 AM 30.1°F-1.1°C 21.0°F-6.1°C 69% 4.0 mph WSW6.4 kmh WSW -- 29.49 in998.6 mb 0.00 in0.0 mm 0.00 in0.0 mm 0.00 in0.0 mm
06:14 AM 30.0°F-1.1°C 21.0°F-6.1°C 69% 6.0 mph SW9.7 kmh SW -- 29.49 in998.6 mb 0.00 in0.0 mm 0.00 in0.0 mm 0.00 in0.0 mm
06:15 AM 30.0°F-1.1°C 21.0°F-6.1°C 69% 6.0 mph SW9.7 kmh SW -- 29.50 in999.0 mb 0.00 in0.0 mm 0.00 in0.0 mm 0.00 in0.0 mm
06:16 AM 30.0°F-1.1°C 21.0°F-6.1°C 69% 3.0 mph WSW4.8 kmh WSW -- 29.49 in998.6 mb 0.00 in0.0 mm 0.00 in0.0 mm 0.00 in0.0 mm
06:17 AM 29.8°F-1.2°C 20.8°F-6.2°C 69% 4.0 mph SW6.4 kmh SW -- 29.49 in998.6 mb 0.00 in0.0 mm 0.00 in0.0 mm 0.00 in0.0 mm
06:18 AM 29.8°F-1.2°C 20.8°F-6.2°C 69% 4.0 mph S6.4 kmh S -- 29.49 in998.6 mb 0.00 in0.0 mm 0.00 in0.0 mm 0.00 in0.0 mm
06:19 AM 29.8°F-1.2°C 20.8°F-6.2°C 69% 4.0 mph SW6.4 kmh SW -- 29.50 in999.0 mb 0.00 in0.0 mm 0.00 in0.0 mm 0.00 in0.0 mm
06:20 AM 29.6°F-1.3°C 20.6°F-6.3°C 69% 4.0 mph WSW6.4 kmh WSW -- 29.49 in998.6 mb 0.00 in0.0 mm 0.00 in0.0 mm 0.00 in0.0 mm
06:21 AM 29.6°F-1.3°C 20.6°F-6.3°C 69% 4.0 mph W6.4 kmh W -- 29.50 in999.0 mb 0.00 in0.0 mm 0.00 in0.0 mm 0.00 in0.0 mm
06:22 AM 29.6°F-1.3°C 20.6°F-6.3°C 69% 4.0 mph SSW6.4 kmh SSW -- 29.50 in999.0 mb 0.00 in0.0 mm 0.00 in0.0 mm 0.00 in0.0 mm
06:23 AM 29.6°F-1.3°C 20.6°F-6.3°C 69% 5.0 mph WSW8.0 kmh WSW -- 29.50 in999.0 mb 0.00 in0.0 mm 0.00 in0.0 mm 0.00 in0.0 mm
06:24 AM 29.6°F-1.3°C 20.6°F-6.3°C 69% 5.0 mph W8.0 kmh W -- 29.50 in999.0 mb 0.00 in0.0 mm 0.00 in0.0 mm 0.00 in0.0 mm
06:25 AM 29.6°F-1.3°C 20.6°F-6.3°C 69% 6.0 mph SW9.7 kmh SW -- 29.50 in999.0 mb 0.00 in0.0 mm 0.00 in0.0 mm 0.00 in0.0 mm
06:26 AM 29.6°F-1.3°C 20.6°F-6.3°C 69% 4.0 mph SW6.4 kmh SW -- 29.50 in999.0 mb 0.00 in0.0 mm 0.00 in0.0 mm 0.00 in0.0 mm
06:27 AM 29.6°F-1.3°C 20.6°F-6.3°C 69% 7.0 mph W11.3 kmh W -- 29.50 in999.0 mb 0.00 in0.0 mm 0.00 in0.0 mm 0.00 in0.0 mm
06:28 AM 29.6°F-1.3°C 20.6°F-6.3°C 69% 6.0 mph SW9.7 kmh SW -- 29.50 in999.0 mb 0.00 in0.0 mm 0.00 in0.0 mm 0.00 in0.0 mm
06:29 AM 29.6°F-1.3°C 20.6°F-6.3°C 69% 9.0 mph W14.5 kmh W -- 29.50 in999.0 mb 0.00 in0.0 mm 0.00 in0.0 mm 0.00 in0.0 mm
06:31 AM 30.0°F-1.1°C 21.0°F-6.1°C 69% 5.0 mph WSW8.0 kmh WSW -- 29.50 in999.0 mb 0.00 in0.0 mm 0.00 in0.0 mm 0.00 in0.0 mm
06:32 AM 30.0°F-1.1°C 21.0°F-6.1°C 69% 5.0 mph SW8.0 kmh SW -- 29.51 in999.3 mb 0.00 in0.0 mm 0.00 in0.0 mm 0.00 in0.0 mm
06:33 AM 30.0°F-1.1°C 21.0°F-6.1°C 69% 6.0 mph SW9.7 kmh SW -- 29.51 in999.3 mb 0.00 in0.0 mm 0.00 in0.0 mm 0.00 in0.0 mm
06:34 AM 30.0°F-1.1°C 21.0°F-6.1°C 69% 6.0 mph SW9.7 kmh SW -- 29.50 in999.0 mb 0.00 in0.0 mm 0.00 in0.0 mm 0.00 in0.0 mm
06:35 AM 30.0°F-1.1°C 21.0°F-6.1°C 69% 6.0 mph W9.7 kmh W -- 29.50 in999.0 mb 0.00 in0.0 mm 0.00 in0.0 mm 0.00 in0.0 mm
06:36 AM 30.0°F-1.1°C 21.0°F-6.1°C 69% 7.0 mph W11.3 kmh W -- 29.51 in999.3 mb 0.00 in0.0 mm 0.00 in0.0 mm 0.00 in0.0 mm
06:37 AM 30.0°F-1.1°C 21.0°F-6.1°C 69% 6.0 mph W9.7 kmh W -- 29.51 in999.3 mb 0.00 in0.0 mm 0.00 in0.0 mm 0.00 in0.0 mm
06:38 AM 29.8°F-1.2°C 20.8°F-6.2°C 69% 4.0 mph W6.4 kmh W -- 29.50 in999.0 mb 0.00 in0.0 mm 0.00 in0.0 mm 0.00 in0.0 mm
06:39 AM 29.6°F-1.3°C 20.6°F-6.3°C 69% 5.0 mph W8.0 kmh W -- 29.50 in999.0 mb 0.00 in0.0 mm 0.00 in0.0 mm 0.00 in0.0 mm
06:40 AM 29.6°F-1.3°C 20.6°F-6.3°C 69% 6.0 mph W9.7 kmh W -- 29.50 in999.0 mb 0.00 in0.0 mm 0.00 in0.0 mm 0.00 in0.0 mm
06:41 AM 29.2°F-1.6°C 20.1°F-6.6°C 69% 6.0 mph WSW9.7 kmh WSW -- 29.51 in999.3 mb 0.00 in0.0 mm 0.00 in0.0 mm 0.00 in0.0 mm
06:42 AM 29.1°F-1.6°C 20.1°F-6.6°C 69% 5.0 mph W8.0 kmh W -- 29.50 in999.0 mb 0.00 in0.0 mm 0.00 in0.0 mm 0.00 in0.0 mm
06:43 AM 28.7°F-1.8°C 20.1°F-6.6°C 70% 5.0 mph W8.0 kmh W -- 29.50 in999.0 mb 0.00 in0.0 mm 0.00 in0.0 mm 0.00 in0.0 mm
06:44 AM 28.7°F-1.8°C 20.1°F-6.6°C 70% 4.0 mph W6.4 kmh W -- 29.51 in999.3 mb 0.00 in0.0 mm 0.00 in0.0 mm 0.00 in0.0 mm
06:45 AM 28.6°F-1.9°C 19.9°F-6.7°C 70% 4.0 mph W6.4 kmh W -- 29.51 in999.3 mb 0.00 in0.0 mm 0.00 in0.0 mm 0.00 in0.0 mm
06:46 AM 28.6°F-1.9°C 19.9°F-6.7°C 70% 5.0 mph W8.0 kmh W -- 29.51 in999.3 mb 0.00 in0.0 mm 0.00 in0.0 mm 0.00 in0.0 mm
06:47 AM 28.4°F-2.0°C 20.1°F-6.6°C 71% 5.0 mph W8.0 kmh W -- 29.51 in999.3 mb 0.00 in0.0 mm 0.00 in0.0 mm 0.00 in0.0 mm
06:48 AM 28.2°F-2.1°C 19.6°F-6.9°C 70% 5.0 mph W8.0 kmh W -- 29.50 in999.0 mb 0.00 in0.0 mm 0.00 in0.0 mm 0.00 in0.0 mm
06:49 AM 28.2°F-2.1°C 19.6°F-6.9°C 70% 6.0 mph W9.7 kmh W -- 29.50 in999.0 mb 0.00 in0.0 mm 0.00 in0.0 mm 0.00 in0.0 mm
06:50 AM 28.2°F-2.1°C 19.6°F-6.9°C 70% 5.0 mph W8.0 kmh W -- 29.51 in999.3 mb 0.00 in0.0 mm 0.00 in0.0 mm 0.00 in0.0 mm
06:51 AM 27.9°F-2.3°C 19.2°F-7.1°C 70% 5.0 mph WNW8.0 kmh WNW -- 29.51 in999.3 mb 0.00 in0.0 mm 0.00 in0.0 mm 0.00 in0.0 mm
06:52 AM 27.9°F-2.3°C 19.2°F-7.1°C 70% 6.0 mph W9.7 kmh W -- 29.50 in999.0 mb 0.00 in0.0 mm 0.00 in0.0 mm 0.00 in0.0 mm
06:53 AM 27.8°F-2.3°C 19.2°F-7.1°C 70% 5.0 mph W8.0 kmh W -- 29.50 in999.0 mb 0.00 in0.0 mm 0.00 in0.0 mm 0.00 in0.0 mm
06:54 AM 27.6°F-2.4°C 19.1°F-7.2°C 70% 6.0 mph W9.7 kmh W -- 29.50 in999.0 mb 0.00 in0.0 mm 0.00 in0.0 mm 0.00 in0.0 mm
06:56 AM 27.5°F-2.5°C 18.9°F-7.3°C 70% 6.0 mph W9.7 kmh W -- 29.51 in999.3 mb 0.00 in0.0 mm 0.00 in0.0 mm 0.00 in0.0 mm
06:57 AM 27.5°F-2.5°C 18.9°F-7.3°C 70% 5.0 mph W8.0 kmh W -- 29.51 in999.3 mb 0.00 in0.0 mm 0.00 in0.0 mm 0.00 in0.0 mm
06:58 AM 27.3°F-2.6°C 19.0°F-7.2°C 71% 6.0 mph W9.7 kmh W -- 29.51 in999.3 mb 0.00 in0.0 mm 0.00 in0.0 mm 0.00 in0.0 mm
06:59 AM 27.1°F-2.7°C 18.9°F-7.3°C 71% 6.0 mph W9.7 kmh W -- 29.51 in999.3 mb 0.00 in0.0 mm 0.00 in0.0 mm 0.00 in0.0 mm
07:01 AM 27.0°F-2.8°C 18.7°F-7.4°C 71% 6.0 mph W9.7 kmh W -- 29.51 in999.3 mb 0.00 in0.0 mm 0.00 in0.0 mm 0.00 in0.0 mm
07:02 AM 27.0°F-2.8°C 19.4°F-7.0°C 73% 7.0 mph W11.3 kmh W -- 29.51 in999.3 mb 0.00 in0.0 mm 0.00 in0.0 mm 0.00 in0.0 mm
07:03 AM 26.7°F-2.9°C 19.2°F-7.1°C 73% 6.0 mph W9.7 kmh W -- 29.51 in999.3 mb 0.00 in0.0 mm 0.00 in0.0 mm 0.00 in0.0 mm
07:04 AM 26.7°F-2.9°C 19.2°F-7.1°C 73% 6.0 mph W9.7 kmh W -- 29.50 in999.0 mb 0.00 in0.0 mm 0.00 in0.0 mm 0.00 in0.0 mm
07:06 AM 26.7°F-2.9°C 19.2°F-7.1°C 73% 6.0 mph W9.7 kmh W -- 29.51 in999.3 mb 0.00 in0.0 mm 0.00 in0.0 mm 0.00 in0.0 mm
07:08 AM 26.6°F-3.0°C 19.0°F-7.2°C 73% 6.0 mph W9.7 kmh W -- 29.51 in999.3 mb 0.00 in0.0 mm 0.00 in0.0 mm 0.00 in0.0 mm
07:09 AM 26.6°F-3.0°C 19.0°F-7.2°C 73% 5.0 mph W8.0 kmh W -- 29.51 in999.3 mb 0.00 in0.0 mm 0.00 in0.0 mm 0.00 in0.0 mm
07:10 AM 26.6°F-3.0°C 19.3°F-7.1°C 74% 6.0 mph W9.7 kmh W -- 29.51 in999.3 mb 0.00 in0.0 mm 0.00 in0.0 mm 0.00 in0.0 mm
07:11 AM 26.6°F-3.0°C 19.3°F-7.1°C 74% 5.0 mph W8.0 kmh W -- 29.51 in999.3 mb 0.00 in0.0 mm 0.00 in0.0 mm 0.00 in0.0 mm
07:14 AM 26.6°F-3.0°C 19.3°F-7.1°C 74% 6.0 mph W9.7 kmh W -- 29.51 in999.3 mb 0.00 in0.0 mm 0.00 in0.0 mm 0.00 in0.0 mm
07:15 AM 26.6°F-3.0°C 19.3°F-7.1°C 74% 5.0 mph W8.0 kmh W -- 29.51 in999.3 mb 0.00 in0.0 mm 0.00 in0.0 mm 0.00 in0.0 mm
07:21 AM 26.3°F-3.2°C 19.0°F-7.2°C 74% 5.0 mph W8.0 kmh W -- 29.51 in999.3 mb 0.00 in0.0 mm 0.00 in0.0 mm 0.00 in0.0 mm
07:24 AM 26.3°F-3.2°C 19.0°F-7.2°C 74% 4.0 mph W6.4 kmh W -- 29.51 in999.3 mb 0.00 in0.0 mm 0.00 in0.0 mm 0.00 in0.0 mm
07:26 AM 26.6°F-3.0°C 19.3°F-7.1°C 74% 6.0 mph W9.7 kmh W -- 29.51 in999.3 mb 0.00 in0.0 mm 0.00 in0.0 mm 0.00 in0.0 mm
07:27 AM 26.6°F-3.0°C 19.3°F-7.1°C 74% 5.0 mph W8.0 kmh W -- 29.51 in999.3 mb 0.00 in0.0 mm 0.00 in0.0 mm 0.00 in0.0 mm
07:29 AM 26.6°F-3.0°C 19.3°F-7.1°C 74% 4.0 mph W6.4 kmh W -- 29.51 in999.3 mb 0.00 in0.0 mm 0.00 in0.0 mm 0.00 in0.0 mm
07:30 AM 26.7°F-2.9°C 19.5°F-6.9°C 74% 5.0 mph W8.0 kmh W -- 29.51 in999.3 mb 0.00 in0.0 mm 0.00 in0.0 mm 0.00 in0.0 mm
07:31 AM 26.7°F-2.9°C 19.5°F-6.9°C 74% 7.0 mph W11.3 kmh W -- 29.51 in999.3 mb 0.00 in0.0 mm 0.00 in0.0 mm 0.00 in0.0 mm
07:32 AM 26.8°F-2.9°C 19.5°F-6.9°C 74% 4.0 mph W6.4 kmh W -- 29.51 in999.3 mb 0.00 in0.0 mm 0.00 in0.0 mm 0.00 in0.0 mm
07:33 AM 27.3°F-2.6°C 19.7°F-6.8°C 73% 4.0 mph W6.4 kmh W -- 29.51 in999.3 mb 0.00 in0.0 mm 0.00 in0.0 mm 0.00 in0.0 mm
07:34 AM 27.5°F-2.5°C 19.9°F-6.7°C 73% 6.0 mph WSW9.7 kmh WSW -- 29.51 in999.3 mb 0.00 in0.0 mm 0.00 in0.0 mm 0.00 in0.0 mm
07:35 AM 27.5°F-2.5°C 19.2°F-7.1°C 71% 5.0 mph WSW8.0 kmh WSW -- 29.51 in999.3 mb 0.00 in0.0 mm 0.00 in0.0 mm 0.00 in0.0 mm
07:36 AM 27.6°F-2.4°C 19.4°F-7.0°C 71% 8.0 mph WSW12.9 kmh WSW -- 29.51 in999.3 mb 0.00 in0.0 mm 0.00 in0.0 mm 0.00 in0.0 mm
07:37 AM 27.9°F-2.3°C 19.6°F-6.9°C 71% 5.0 mph WSW8.0 kmh WSW -- 29.51 in999.3 mb 0.00 in0.0 mm 0.00 in0.0 mm 0.00 in0.0 mm
07:38 AM 28.2°F-2.1°C 19.6°F-6.9°C 70% 6.0 mph W9.7 kmh W -- 29.51 in999.3 mb 0.00 in0.0 mm 0.00 in0.0 mm 0.00 in0.0 mm
07:39 AM 28.3°F-2.1°C 19.6°F-6.9°C 70% 6.0 mph W9.7 kmh W -- 29.51 in999.3 mb 0.00 in0.0 mm 0.00 in0.0 mm 0.00 in0.0 mm
07:40 AM 28.3°F-2.1°C 19.6°F-6.9°C 70% 6.0 mph WSW9.7 kmh WSW -- 29.51 in999.3 mb 0.00 in0.0 mm 0.00 in0.0 mm 0.00 in0.0 mm
07:41 AM 28.6°F-1.9°C 19.9°F-6.7°C 70% 6.0 mph WSW9.7 kmh WSW -- 29.52 in999.7 mb 0.00 in0.0 mm 0.00 in0.0 mm 0.00 in0.0 mm
07:42 AM 28.6°F-1.9°C 19.9°F-6.7°C 70% 6.0 mph W9.7 kmh W -- 29.52 in999.7 mb 0.00 in0.0 mm 0.00 in0.0 mm 0.00 in0.0 mm
07:43 AM 28.7°F-1.8°C 20.1°F-6.6°C 70% 6.0 mph W9.7 kmh W -- 29.51 in999.3 mb 0.00 in0.0 mm 0.00 in0.0 mm 0.00 in0.0 mm
07:44 AM 28.7°F-1.8°C 20.1°F-6.6°C 70% 8.0 mph WSW12.9 kmh WSW -- 29.52 in999.7 mb 0.00 in0.0 mm 0.00 in0.0 mm 0.00 in0.0 mm
07:45 AM 28.8°F-1.8°C 20.1°F-6.6°C 70% 8.0 mph WSW12.9 kmh WSW -- 29.52 in999.7 mb 0.00 in0.0 mm 0.00 in0.0 mm 0.00 in0.0 mm
07:46 AM 28.8°F-1.8°C 20.1°F-6.6°C 70% 6.0 mph W9.7 kmh W -- 29.51 in999.3 mb 0.00 in0.0 mm 0.00 in0.0 mm 0.00 in0.0 mm
07:47 AM 28.8°F-1.8°C 20.1°F-6.6°C 70% 9.0 mph WSW14.5 kmh WSW -- 29.51 in999.3 mb 0.00 in0.0 mm 0.00 in0.0 mm 0.00 in0.0 mm
07:48 AM 28.8°F-1.8°C 20.1°F-6.6°C 70% 8.0 mph W12.9 kmh W -- 29.52 in999.7 mb 0.00 in0.0 mm 0.00 in0.0 mm 0.00 in0.0 mm
07:49 AM 28.8°F-1.8°C 20.1°F-6.6°C 70% 6.0 mph W9.7 kmh W -- 29.52 in999.7 mb 0.00 in0.0 mm 0.00 in0.0 mm 0.00 in0.0 mm
07:50 AM 29.1°F-1.6°C 20.1°F-6.6°C 69% 7.0 mph W11.3 kmh W -- 29.52 in999.7 mb 0.00 in0.0 mm 0.00 in0.0 mm 0.00 in0.0 mm
07:51 AM 29.1°F-1.6°C 20.1°F-6.6°C 69% 8.0 mph W12.9 kmh W -- 29.52 in999.7 mb 0.00 in0.0 mm 0.00 in0.0 mm 0.00 in0.0 mm
07:52 AM 29.2°F-1.6°C 20.1°F-6.6°C 69% 8.0 mph W12.9 kmh W -- 29.52 in999.7 mb 0.00 in0.0 mm 0.00 in0.0 mm 0.00 in0.0 mm
07:53 AM 29.2°F-1.6°C 20.1°F-6.6°C 69% 7.0 mph WSW11.3 kmh WSW -- 29.51 in999.3 mb 0.00 in0.0 mm 0.00 in0.0 mm 0.00 in0.0 mm
07:54 AM 29.2°F-1.6°C 20.1°F-6.6°C 69% 7.0 mph W11.3 kmh W -- 29.52 in999.7 mb 0.00 in0.0 mm 0.00 in0.0 mm 0.00 in0.0 mm
07:56 AM 29.1°F-1.6°C 20.1°F-6.6°C 69% 8.0 mph W12.9 kmh W -- 29.51 in999.3 mb 0.00 in0.0 mm 0.00 in0.0 mm 0.00 in0.0 mm
07:57 AM 28.8°F-1.8°C 20.1°F-6.6°C 70% 7.0 mph W11.3 kmh W -- 29.51 in999.3 mb 0.00 in0.0 mm 0.00 in0.0 mm 0.00 in0.0 mm
07:58 AM 28.8°F-1.8°C 20.1°F-6.6°C 70% 7.0 mph W11.3 kmh W -- 29.52 in999.7 mb 0.00 in0.0 mm 0.00 in0.0 mm 0.00 in0.0 mm
07:59 AM 28.6°F-1.9°C 19.9°F-6.7°C 70% 8.0 mph W12.9 kmh W -- 29.51 in999.3 mb 0.00 in0.0 mm 0.00 in0.0 mm 0.00 in0.0 mm
08:00 AM 28.6°F-1.9°C 19.9°F-6.7°C 70% 6.0 mph W9.7 kmh W -- 29.52 in999.7 mb 0.00 in0.0 mm 0.00 in0.0 mm 0.00 in0.0 mm
08:01 AM 28.3°F-2.1°C 19.6°F-6.9°C 70% 7.0 mph W11.3 kmh W -- 29.52 in999.7 mb 0.00 in0.0 mm 0.00 in0.0 mm 0.00 in0.0 mm
08:03 AM 28.2°F-2.1°C 19.6°F-6.9°C 70% 7.0 mph W11.3 kmh W -- 29.52 in999.7 mb 0.00 in0.0 mm 0.00 in0.0 mm 0.00 in0.0 mm
08:04 AM 28.2°F-2.1°C 19.6°F-6.9°C 70% 8.0 mph W12.9 kmh W -- 29.52 in999.7 mb 0.00 in0.0 mm 0.00 in0.0 mm 0.00 in0.0 mm
08:05 AM 28.2°F-2.1°C 19.6°F-6.9°C 70% 7.0 mph W11.3 kmh W -- 29.52 in999.7 mb 0.00 in0.0 mm 0.00 in0.0 mm 0.00 in0.0 mm
08:06 AM 28.2°F-2.1°C 19.6°F-6.9°C 70% 5.0 mph W8.0 kmh W -- 29.52 in999.7 mb 0.00 in0.0 mm 0.00 in0.0 mm 0.00 in0.0 mm
08:07 AM 27.9°F-2.3°C 19.6°F-6.9°C 71% 5.0 mph W8.0 kmh W -- 29.52 in999.7 mb 0.00 in0.0 mm 0.00 in0.0 mm 0.00 in0.0 mm
08:08 AM 27.8°F-2.3°C 19.6°F-6.9°C 71% 5.0 mph W8.0 kmh W -- 29.52 in999.7 mb 0.00 in0.0 mm 0.00 in0.0 mm 0.00 in0.0 mm
08:09 AM 27.6°F-2.4°C 19.4°F-7.0°C 71% 5.0 mph W8.0 kmh W -- 29.52 in999.7 mb 0.00 in0.0 mm 0.00 in0.0 mm 0.00 in0.0 mm
08:11 AM 27.6°F-2.4°C 19.4°F-7.0°C 71% 4.0 mph W6.4 kmh W -- 29.52 in999.7 mb 0.00 in0.0 mm 0.00 in0.0 mm 0.00 in0.0 mm
08:12 AM 27.3°F-2.6°C 19.7°F-6.8°C 73% 4.0 mph W6.4 kmh W -- 29.52 in999.7 mb 0.00 in0.0 mm 0.00 in0.0 mm 0.00 in0.0 mm
08:13 AM 27.1°F-2.7°C 19.5°F-6.9°C 73% 6.0 mph W9.7 kmh W -- 29.52 in999.7 mb 0.00 in0.0 mm 0.00 in0.0 mm 0.00 in0.0 mm
08:14 AM 27.1°F-2.7°C 19.5°F-6.9°C 73% 5.0 mph W8.0 kmh W -- 29.52 in999.7 mb 0.00 in0.0 mm 0.00 in0.0 mm 0.00 in0.0 mm
08:15 AM 27.1°F-2.7°C 19.5°F-6.9°C 73% 6.0 mph W9.7 kmh W -- 29.52 in999.7 mb 0.00 in0.0 mm 0.00 in0.0 mm 0.00 in0.0 mm
08:16 AM 27.5°F-2.5°C 19.9°F-6.7°C 73% 6.0 mph W9.7 kmh W -- 29.52 in999.7 mb 0.00 in0.0 mm 0.00 in0.0 mm 0.00 in0.0 mm
08:17 AM 27.6°F-2.4°C 19.4°F-7.0°C 71% 8.0 mph WSW12.9 kmh WSW -- 29.52 in999.7 mb 0.00 in0.0 mm 0.00 in0.0 mm 0.00 in0.0 mm
08:18 AM 28.3°F-2.1°C 19.6°F-6.9°C 70% 6.0 mph WSW9.7 kmh WSW -- 29.52 in999.7 mb 0.00 in0.0 mm 0.00 in0.0 mm 0.00 in0.0 mm
08:19 AM 28.7°F-1.8°C 20.1°F-6.6°C 70% 8.0 mph W12.9 kmh W -- 29.52 in999.7 mb 0.00 in0.0 mm 0.00 in0.0 mm 0.00 in0.0 mm
08:20 AM 29.1°F-1.6°C 20.4°F-6.4°C 70% 6.0 mph SW9.7 kmh SW -- 29.52 in999.7 mb 0.00 in0.0 mm 0.00 in0.0 mm 0.00 in0.0 mm
08:21 AM 29.2°F-1.6°C 20.1°F-6.6°C 69% 7.0 mph SW11.3 kmh SW -- 29.52 in999.7 mb 0.00 in0.0 mm 0.00 in0.0 mm 0.00 in0.0 mm
08:22 AM 29.5°F-1.4°C 20.4°F-6.4°C 69% 8.0 mph W12.9 kmh W -- 29.52 in999.7 mb 0.00 in0.0 mm 0.00 in0.0 mm 0.00 in0.0 mm
08:23 AM 29.6°F-1.3°C 20.3°F-6.5°C 68% 6.0 mph W9.7 kmh W -- 29.52 in999.7 mb 0.00 in0.0 mm 0.00 in0.0 mm 0.00 in0.0 mm
08:24 AM 29.6°F-1.3°C 20.3°F-6.5°C 68% 9.0 mph W14.5 kmh W -- 29.52 in999.7 mb 0.00 in0.0 mm 0.00 in0.0 mm 0.00 in0.0 mm
08:25 AM 29.6°F-1.3°C 20.3°F-6.5°C 68% 7.0 mph SW11.3 kmh SW -- 29.52 in999.7 mb 0.00 in0.0 mm 0.00 in0.0 mm 0.00 in0.0 mm
08:26 AM 29.6°F-1.3°C 20.3°F-6.5°C 68% 7.0 mph W11.3 kmh W -- 29.52 in999.7 mb 0.00 in0.0 mm 0.00 in0.0 mm 0.00 in0.0 mm
08:27 AM 29.6°F-1.3°C 20.3°F-6.5°C 68% 5.0 mph WSW8.0 kmh WSW -- 29.52 in999.7 mb 0.00 in0.0 mm 0.00 in0.0 mm 0.00 in0.0 mm
08:28 AM 29.6°F-1.3°C 20.3°F-6.5°C 68% 7.0 mph W11.3 kmh W -- 29.53 in1000.0 mb 0.00 in0.0 mm 0.00 in0.0 mm 0.00 in0.0 mm
08:29 AM 29.6°F-1.3°C 20.3°F-6.5°C 68% 8.0 mph WSW12.9 kmh WSW -- 29.52 in999.7 mb 0.00 in0.0 mm 0.00 in0.0 mm 0.00 in0.0 mm
08:30 AM 29.6°F-1.3°C 20.3°F-6.5°C 68% 8.0 mph SW12.9 kmh SW -- 29.52 in999.7 mb 0.00 in0.0 mm 0.00 in0.0 mm 0.00 in0.0 mm
08:31 AM 29.6°F-1.3°C 20.3°F-6.5°C 68% 6.0 mph W9.7 kmh W -- 29.52 in999.7 mb 0.00 in0.0 mm 0.00 in0.0 mm 0.00 in0.0 mm
08:32 AM 29.6°F-1.3°C 20.3°F-6.5°C 68% 8.0 mph W12.9 kmh W -- 29.52 in999.7 mb 0.00 in0.0 mm 0.00 in0.0 mm 0.00 in0.0 mm
08:33 AM 29.5°F-1.4°C 20.1°F-6.6°C 68% 6.0 mph W9.7 kmh W -- 29.52 in999.7 mb 0.00 in0.0 mm 0.00 in0.0 mm 0.00 in0.0 mm
08:34 AM 29.5°F-1.4°C 20.1°F-6.6°C 68% 7.0 mph SW11.3 kmh SW -- 29.53 in1000.0 mb 0.00 in0.0 mm 0.00 in0.0 mm 0.00 in0.0 mm
08:35 AM 29.5°F-1.4°C 20.1°F-6.6°C 68% 10.0 mph SW16.1 kmh SW -- 29.53 in1000.0 mb 0.00 in0.0 mm 0.00 in0.0 mm 0.00 in0.0 mm
08:36 AM 29.5°F-1.4°C 20.1°F-6.6°C 68% 7.0 mph W11.3 kmh W -- 29.53 in1000.0 mb 0.00 in0.0 mm 0.00 in0.0 mm 0.00 in0.0 mm
08:38 AM 29.5°F-1.4°C 20.1°F-6.6°C 68% 6.0 mph W9.7 kmh W -- 29.53 in1000.0 mb 0.00 in0.0 mm 0.00 in0.0 mm 0.00 in0.0 mm
08:39 AM 29.5°F-1.4°C 20.1°F-6.6°C 68% 7.0 mph SW11.3 kmh SW -- 29.52 in999.7 mb 0.00 in0.0 mm 0.00 in0.0 mm 0.00 in0.0 mm
08:40 AM 29.5°F-1.4°C 20.1°F-6.6°C 68% 9.0 mph W14.5 kmh W -- 29.53 in1000.0 mb 0.00 in0.0 mm 0.00 in0.0 mm 0.00 in0.0 mm
08:42 AM 29.5°F-1.4°C 20.1°F-6.6°C 68% 5.0 mph W8.0 kmh W -- 29.53 in1000.0 mb 0.00 in0.0 mm 0.00 in0.0 mm 0.00 in0.0 mm
08:43 AM 29.5°F-1.4°C 20.1°F-6.6°C 68% 6.0 mph WSW9.7 kmh WSW -- 29.53 in1000.0 mb 0.00 in0.0 mm 0.00 in0.0 mm 0.00 in0.0 mm
08:44 AM 29.1°F-1.6°C 19.8°F-6.8°C 68% 7.0 mph W11.3 kmh W -- 29.53 in1000.0 mb 0.00 in0.0 mm 0.00 in0.0 mm 0.00 in0.0 mm
08:45 AM 28.8°F-1.8°C 19.4°F-7.0°C 68% 6.0 mph W9.7 kmh W -- 29.53 in1000.0 mb 0.00 in0.0 mm 0.00 in0.0 mm 0.00 in0.0 mm
08:46 AM 28.6°F-1.9°C 19.6°F-6.9°C 69% 6.0 mph W9.7 kmh W -- 29.53 in1000.0 mb 0.00 in0.0 mm 0.00 in0.0 mm 0.00 in0.0 mm
08:47 AM 28.2°F-2.1°C 19.2°F-7.1°C 69% 6.0 mph W9.7 kmh W -- 29.53 in1000.0 mb 0.00 in0.0 mm 0.00 in0.0 mm 0.00 in0.0 mm
08:48 AM 27.8°F-2.3°C 19.2°F-7.1°C 70% 6.0 mph W9.7 kmh W -- 29.53 in1000.0 mb 0.00 in0.0 mm 0.00 in0.0 mm 0.00 in0.0 mm
08:49 AM 27.6°F-2.4°C 19.1°F-7.2°C 70% 6.0 mph W9.7 kmh W -- 29.53 in1000.0 mb 0.00 in0.0 mm 0.00 in0.0 mm 0.00 in0.0 mm
08:50 AM 27.6°F-2.4°C 19.1°F-7.2°C 70% 6.0 mph W9.7 kmh W -- 29.54 in1000.3 mb 0.00 in0.0 mm 0.00 in0.0 mm 0.00 in0.0 mm
08:51 AM 27.6°F-2.4°C 19.1°F-7.2°C 70% 6.0 mph W9.7 kmh W -- 29.53 in1000.0 mb 0.00 in0.0 mm 0.00 in0.0 mm 0.00 in0.0 mm
08:52 AM 27.5°F-2.5°C 18.9°F-7.3°C 70% 7.0 mph W11.3 kmh W -- 29.54 in1000.3 mb 0.00 in0.0 mm 0.00 in0.0 mm 0.00 in0.0 mm
08:53 AM 27.5°F-2.5°C 18.9°F-7.3°C 70% 6.0 mph W9.7 kmh W -- 29.54 in1000.3 mb 0.00 in0.0 mm 0.00 in0.0 mm 0.00 in0.0 mm
08:54 AM 27.5°F-2.5°C 18.9°F-7.3°C 70% 7.0 mph W11.3 kmh W -- 29.53 in1000.0 mb 0.00 in0.0 mm 0.00 in0.0 mm 0.00 in0.0 mm
08:55 AM 27.5°F-2.5°C 18.9°F-7.3°C 70% 6.0 mph W9.7 kmh W -- 29.53 in1000.0 mb 0.00 in0.0 mm 0.00 in0.0 mm 0.00 in0.0 mm
08:56 AM 27.5°F-2.5°C 18.9°F-7.3°C 70% 6.0 mph W9.7 kmh W -- 29.54 in1000.3 mb 0.00 in0.0 mm 0.00 in0.0 mm 0.00 in0.0 mm
08:57 AM 27.5°F-2.5°C 18.9°F-7.3°C 70% 7.0 mph W11.3 kmh W -- 29.54 in1000.3 mb 0.00 in0.0 mm 0.00 in0.0 mm 0.00 in0.0 mm
08:58 AM 27.5°F-2.5°C 18.9°F-7.3°C 70% 6.0 mph W9.7 kmh W -- 29.54 in1000.3 mb 0.00 in0.0 mm 0.00 in0.0 mm 0.00 in0.0 mm
08:59 AM 27.5°F-2.5°C 18.9°F-7.3°C 70% 7.0 mph W11.3 kmh W -- 29.54 in1000.3 mb 0.00 in0.0 mm 0.00 in0.0 mm 0.00 in0.0 mm
09:00 AM 27.5°F-2.5°C 18.9°F-7.3°C 70% 8.0 mph W12.9 kmh W -- 29.54 in1000.3 mb 0.00 in0.0 mm 0.00 in0.0 mm 0.00 in0.0 mm
09:01 AM 27.6°F-2.4°C 19.1°F-7.2°C 70% 8.0 mph W12.9 kmh W -- 29.54 in1000.3 mb 0.00 in0.0 mm 0.00 in0.0 mm 0.00 in0.0 mm
09:02 AM 27.8°F-2.3°C 19.2°F-7.1°C 70% 9.0 mph W14.5 kmh W -- 29.54 in1000.3 mb 0.00 in0.0 mm 0.00 in0.0 mm 0.00 in0.0 mm
09:03 AM 27.9°F-2.3°C 19.2°F-7.1°C 70% 8.0 mph W12.9 kmh W -- 29.54 in1000.3 mb 0.00 in0.0 mm 0.00 in0.0 mm 0.00 in0.0 mm
09:04 AM 27.9°F-2.3°C 19.2°F-7.1°C 70% 9.0 mph W14.5 kmh W -- 29.54 in1000.3 mb 0.00 in0.0 mm 0.00 in0.0 mm 0.00 in0.0 mm
09:05 AM 27.9°F-2.3°C 19.2°F-7.1°C 70% 7.0 mph W11.3 kmh W -- 29.54 in1000.3 mb 0.00 in0.0 mm 0.00 in0.0 mm 0.00 in0.0 mm
09:06 AM 27.9°F-2.3°C 19.2°F-7.1°C 70% 8.0 mph W12.9 kmh W -- 29.55 in1000.7 mb 0.00 in0.0 mm 0.00 in0.0 mm 0.00 in0.0 mm
09:07 AM 27.9°F-2.3°C 19.2°F-7.1°C 70% 8.0 mph W12.9 kmh W -- 29.54 in1000.3 mb 0.00 in0.0 mm 0.00 in0.0 mm 0.00 in0.0 mm
09:08 AM 28.2°F-2.1°C 19.6°F-6.9°C 70% 9.0 mph W14.5 kmh W -- 29.54 in1000.3 mb 0.00 in0.0 mm 0.00 in0.0 mm 0.00 in0.0 mm
09:09 AM 28.3°F-2.1°C 19.6°F-6.9°C 70% 8.0 mph W12.9 kmh W -- 29.54 in1000.3 mb 0.00 in0.0 mm 0.00 in0.0 mm 0.00 in0.0 mm
09:10 AM 28.3°F-2.1°C 19.6°F-6.9°C 70% 7.0 mph W11.3 kmh W -- 29.54 in1000.3 mb 0.00 in0.0 mm 0.00 in0.0 mm 0.00 in0.0 mm
09:12 AM 28.3°F-2.1°C 19.6°F-6.9°C 70% 8.0 mph W12.9 kmh W -- 29.54 in1000.3 mb 0.00 in0.0 mm 0.00 in0.0 mm 0.00 in0.0 mm
09:14 AM 28.4°F-2.0°C 20.1°F-6.6°C 71% 7.0 mph W11.3 kmh W -- 29.54 in1000.3 mb 0.00 in0.0 mm 0.00 in0.0 mm 0.00 in0.0 mm
09:15 AM 28.3°F-2.1°C 19.6°F-6.9°C 70% 6.0 mph W9.7 kmh W -- 29.54 in1000.3 mb 0.00 in0.0 mm 0.00 in0.0 mm 0.00 in0.0 mm
09:17 AM 28.3°F-2.1°C 19.9°F-6.7°C 71% 9.0 mph W14.5 kmh W -- 29.54 in1000.3 mb 0.00 in0.0 mm 0.00 in0.0 mm 0.00 in0.0 mm
09:18 AM 28.6°F-1.9°C 20.3°F-6.5°C 71% 8.0 mph W12.9 kmh W -- 29.54 in1000.3 mb 0.00 in0.0 mm 0.00 in0.0 mm 0.00 in0.0 mm
09:19 AM 28.6°F-1.9°C 20.3°F-6.5°C 71% 6.0 mph W9.7 kmh W -- 29.54 in1000.3 mb 0.00 in0.0 mm 0.00 in0.0 mm 0.00 in0.0 mm
09:20 AM 28.3°F-2.1°C 19.9°F-6.7°C 71% 7.0 mph W11.3 kmh W -- 29.54 in1000.3 mb 0.00 in0.0 mm 0.00 in0.0 mm 0.00 in0.0 mm
09:21 AM 28.3°F-2.1°C 19.9°F-6.7°C 71% 6.0 mph W9.7 kmh W -- 29.54 in1000.3 mb 0.00 in0.0 mm 0.00 in0.0 mm 0.00 in0.0 mm
09:22 AM 28.2°F-2.1°C 19.9°F-6.7°C 71% 6.0 mph W9.7 kmh W -- 29.54 in1000.3 mb 0.00 in0.0 mm 0.00 in0.0 mm 0.00 in0.0 mm
09:23 AM 28.2°F-2.1°C 19.9°F-6.7°C 71% 8.0 mph W12.9 kmh W -- 29.54 in1000.3 mb 0.00 in0.0 mm 0.00 in0.0 mm 0.00 in0.0 mm
09:24 AM 28.3°F-2.1°C 19.9°F-6.7°C 71% 6.0 mph W9.7 kmh W -- 29.54 in1000.3 mb 0.00 in0.0 mm 0.00 in0.0 mm 0.00 in0.0 mm
09:26 AM 28.2°F-2.1°C 19.9°F-6.7°C 71% 7.0 mph W11.3 kmh W -- 29.54 in1000.3 mb 0.00 in0.0 mm 0.00 in0.0 mm 0.00 in0.0 mm
09:27 AM 28.2°F-2.1°C 19.9°F-6.7°C 71% 8.0 mph W12.9 kmh W -- 29.54 in1000.3 mb 0.00 in0.0 mm 0.00 in0.0 mm 0.00 in0.0 mm
09:28 AM 28.2°F-2.1°C 19.9°F-6.7°C 71% 9.0 mph W14.5 kmh W -- 29.54 in1000.3 mb 0.00 in0.0 mm 0.00 in0.0 mm 0.00 in0.0 mm
09:29 AM 28.6°F-1.9°C 20.9°F-6.2°C 73% 7.0 mph W11.3 kmh W -- 29.54 in1000.3 mb 0.00 in0.0 mm 0.00 in0.0 mm 0.00 in0.0 mm
09:31 AM 28.7°F-1.8°C 21.1°F-6.1°C 73% 7.0 mph W11.3 kmh W -- 29.54 in1000.3 mb 0.00 in0.0 mm 0.00 in0.0 mm 0.00 in0.0 mm
09:32 AM 29.1°F-1.6°C 21.4°F-5.9°C 73% 8.0 mph W12.9 kmh W -- 29.55 in1000.7 mb 0.00 in0.0 mm 0.00 in0.0 mm 0.00 in0.0 mm
09:33 AM 29.5°F-1.4°C 21.8°F-5.7°C 73% 8.0 mph W12.9 kmh W -- 29.54 in1000.3 mb 0.00 in0.0 mm 0.00 in0.0 mm 0.00 in0.0 mm
09:34 AM 29.5°F-1.4°C 21.8°F-5.7°C 73% 9.0 mph WNW14.5 kmh WNW -- 29.55 in1000.7 mb 0.00 in0.0 mm 0.00 in0.0 mm 0.00 in0.0 mm
09:35 AM 29.6°F-1.3°C 22.0°F-5.6°C 73% 7.0 mph WNW11.3 kmh WNW -- 29.55 in1000.7 mb 0.00 in0.0 mm 0.00 in0.0 mm 0.00 in0.0 mm
09:36 AM 29.6°F-1.3°C 22.0°F-5.6°C 73% 11.0 mph W17.7 kmh W -- 29.54 in1000.3 mb 0.00 in0.0 mm 0.00 in0.0 mm 0.00 in0.0 mm
09:37 AM 29.8°F-1.2°C 22.1°F-5.5°C 73% 8.0 mph W12.9 kmh W -- 29.54 in1000.3 mb 0.00 in0.0 mm 0.00 in0.0 mm 0.00 in0.0 mm
09:38 AM 29.6°F-1.3°C 22.0°F-5.6°C 73% 7.0 mph W11.3 kmh W -- 29.55 in1000.7 mb 0.00 in0.0 mm 0.00 in0.0 mm 0.00 in0.0 mm
09:39 AM 29.5°F-1.4°C 21.8°F-5.7°C 73% 7.0 mph W11.3 kmh W -- 29.54 in1000.3 mb 0.00 in0.0 mm 0.00 in0.0 mm 0.00 in0.0 mm
09:40 AM 29.6°F-1.3°C 22.0°F-5.6°C 73% 8.0 mph W12.9 kmh W -- 29.55 in1000.7 mb 0.00 in0.0 mm 0.00 in0.0 mm 0.00 in0.0 mm
09:41 AM 29.8°F-1.2°C 22.1°F-5.5°C 73% 7.0 mph W11.3 kmh W -- 29.54 in1000.3 mb 0.00 in0.0 mm 0.00 in0.0 mm 0.00 in0.0 mm
09:42 AM 29.8°F-1.2°C 22.1°F-5.5°C 73% 8.0 mph W12.9 kmh W -- 29.54 in1000.3 mb 0.00 in0.0 mm 0.00 in0.0 mm 0.00 in0.0 mm
09:43 AM 30.0°F-1.1°C 22.3°F-5.4°C 73% 8.0 mph W12.9 kmh W -- 29.54 in1000.3 mb 0.00 in0.0 mm 0.00 in0.0 mm 0.00 in0.0 mm
09:44 AM 30.5°F-0.8°C 22.8°F-5.1°C 73% 9.0 mph W14.5 kmh W -- 29.55 in1000.7 mb 0.00 in0.0 mm 0.00 in0.0 mm 0.00 in0.0 mm
09:45 AM 30.7°F-0.7°C 22.3°F-5.4°C 71% 9.0 mph W14.5 kmh W -- 29.55 in1000.7 mb 0.00 in0.0 mm 0.00 in0.0 mm 0.00 in0.0 mm
09:46 AM 31.1°F-0.5°C 22.7°F-5.2°C 71% 9.0 mph W14.5 kmh W -- 29.55 in1000.7 mb 0.00 in0.0 mm 0.00 in0.0 mm 0.00 in0.0 mm
09:47 AM 31.5°F-0.3°C 22.7°F-5.2°C 70% 12.0 mph W19.3 kmh W -- 29.55 in1000.7 mb 0.00 in0.0 mm 0.00 in0.0 mm 0.00 in0.0 mm
09:48 AM 31.6°F-0.2°C 22.9°F-5.1°C 70% 10.0 mph W16.1 kmh W -- 29.54 in1000.3 mb 0.00 in0.0 mm 0.00 in0.0 mm 0.00 in0.0 mm
09:49 AM 31.9°F-0.1°C 23.0°F-5.0°C 70% 9.0 mph W14.5 kmh W -- 29.54 in1000.3 mb 0.00 in0.0 mm 0.00 in0.0 mm 0.00 in0.0 mm
09:50 AM 32.2°F0.1°C 23.4°F-4.8°C 70% 9.0 mph W14.5 kmh W -- 29.55 in1000.7 mb 0.00 in0.0 mm 0.00 in0.0 mm 0.00 in0.0 mm
09:51 AM 32.5°F0.3°C 23.7°F-4.6°C 70% 9.0 mph W14.5 kmh W -- 29.55 in1000.7 mb 0.00 in0.0 mm 0.00 in0.0 mm 0.00 in0.0 mm
09:52 AM 32.5°F0.3°C 23.7°F-4.6°C 70% 7.0 mph W11.3 kmh W -- 29.55 in1000.7 mb 0.00 in0.0 mm 0.00 in0.0 mm 0.00 in0.0 mm
09:53 AM 32.5°F0.3°C 23.7°F-4.6°C 70% 10.0 mph W16.1 kmh W -- 29.55 in1000.7 mb 0.00 in0.0 mm 0.00 in0.0 mm 0.00 in0.0 mm
09:54 AM 32.5°F0.3°C 23.7°F-4.6°C 70% 9.0 mph W14.5 kmh W -- 29.55 in1000.7 mb 0.00 in0.0 mm 0.00 in0.0 mm 0.00 in0.0 mm
09:55 AM 32.5°F0.3°C 23.7°F-4.6°C 70% 11.0 mph W17.7 kmh W -- 29.55 in1000.7 mb 0.00 in0.0 mm 0.00 in0.0 mm 0.00 in0.0 mm
09:56 AM 32.5°F0.3°C 23.7°F-4.6°C 70% 9.0 mph WNW14.5 kmh WNW -- 29.54 in1000.3 mb 0.00 in0.0 mm 0.00 in0.0 mm 0.00 in0.0 mm
09:57 AM 32.5°F0.3°C 23.7°F-4.6°C 70% 9.0 mph W14.5 kmh W -- 29.54 in1000.3 mb 0.00 in0.0 mm 0.00 in0.0 mm 0.00 in0.0 mm
09:59 AM 32.4°F0.2°C 23.6°F-4.7°C 70% 9.0 mph W14.5 kmh W -- 29.54 in1000.3 mb 0.00 in0.0 mm 0.00 in0.0 mm 0.00 in0.0 mm
10:00 AM 32.4°F0.2°C 23.6°F-4.7°C 70% 10.0 mph W16.1 kmh W -- 29.54 in1000.3 mb 0.00 in0.0 mm 0.00 in0.0 mm 0.00 in0.0 mm
10:01 AM 32.4°F0.2°C 23.6°F-4.7°C 70% 10.0 mph W16.1 kmh W -- 29.55 in1000.7 mb 0.00 in0.0 mm 0.00 in0.0 mm 0.00 in0.0 mm
10:02 AM 32.5°F0.3°C 23.7°F-4.6°C 70% 10.0 mph W16.1 kmh W -- 29.55 in1000.7 mb 0.00 in0.0 mm 0.00 in0.0 mm 0.00 in0.0 mm
10:04 AM 32.6°F0.3°C 23.7°F-4.6°C 70% 15.0 mph W24.1 kmh W -- 29.55 in1000.7 mb 0.00 in0.0 mm 0.00 in0.0 mm 0.00 in0.0 mm
10:05 AM 32.6°F0.3°C 23.7°F-4.6°C 70% 8.0 mph W12.9 kmh W -- 29.55 in1000.7 mb 0.00 in0.0 mm 0.00 in0.0 mm 0.00 in0.0 mm
10:06 AM 32.9°F0.5°C 24.1°F-4.4°C 70% 10.0 mph W16.1 kmh W -- 29.55 in1000.7 mb 0.00 in0.0 mm 0.00 in0.0 mm 0.00 in0.0 mm
10:07 AM 32.9°F0.5°C 24.1°F-4.4°C 70% 7.0 mph W11.3 kmh W -- 29.55 in1000.7 mb 0.00 in0.0 mm 0.00 in0.0 mm 0.00 in0.0 mm
10:08 AM 32.9°F0.5°C 24.1°F-4.4°C 70% 10.0 mph W16.1 kmh W -- 29.55 in1000.7 mb 0.00 in0.0 mm 0.00 in0.0 mm 0.00 in0.0 mm
10:10 AM 33.0°F0.6°C 24.2°F-4.3°C 70% 9.0 mph W14.5 kmh W -- 29.55 in1000.7 mb 0.00 in0.0 mm 0.00 in0.0 mm 0.00 in0.0 mm
10:11 AM 33.0°F0.6°C 24.2°F-4.3°C 70% 8.0 mph W12.9 kmh W -- 29.55 in1000.7 mb 0.00 in0.0 mm 0.00 in0.0 mm 0.00 in0.0 mm
10:12 AM 33.0°F0.6°C 24.2°F-4.3°C 70% 8.0 mph WSW12.9 kmh WSW -- 29.55 in1000.7 mb 0.00 in0.0 mm 0.00 in0.0 mm 0.00 in0.0 mm
10:13 AM 33.0°F0.6°C 24.2°F-4.3°C 70% 8.0 mph W12.9 kmh W -- 29.55 in1000.7 mb 0.00 in0.0 mm 0.00 in0.0 mm 0.00 in0.0 mm
10:14 AM 33.0°F0.6°C 24.2°F-4.3°C 70% 9.0 mph W14.5 kmh W -- 29.55 in1000.7 mb 0.00 in0.0 mm 0.00 in0.0 mm 0.00 in0.0 mm
10:16 AM 33.0°F0.6°C 24.2°F-4.3°C 70% 10.0 mph W16.1 kmh W -- 29.55 in1000.7 mb 0.00 in0.0 mm 0.00 in0.0 mm 0.00 in0.0 mm
10:17 AM 33.0°F0.6°C 24.2°F-4.3°C 70% 8.0 mph WNW12.9 kmh WNW -- 29.55 in1000.7 mb 0.00 in0.0 mm 0.00 in0.0 mm 0.00 in0.0 mm
10:18 AM 33.0°F0.6°C 24.2°F-4.3°C 70% 7.0 mph W11.3 kmh W -- 29.56 in1001.0 mb 0.00 in0.0 mm 0.00 in0.0 mm 0.00 in0.0 mm
10:19 AM 33.0°F0.6°C 24.2°F-4.3°C 70% 8.0 mph W12.9 kmh W -- 29.55 in1000.7 mb 0.00 in0.0 mm 0.00 in0.0 mm 0.00 in0.0 mm
10:20 AM 33.0°F0.6°C 24.2°F-4.3°C 70% 9.0 mph W14.5 kmh W -- 29.55 in1000.7 mb 0.00 in0.0 mm 0.00 in0.0 mm 0.00 in0.0 mm
10:21 AM 33.0°F0.6°C 24.2°F-4.3°C 70% 8.0 mph W12.9 kmh W -- 29.56 in1001.0 mb 0.00 in0.0 mm 0.00 in0.0 mm 0.00 in0.0 mm
10:22 AM 33.0°F0.6°C 24.2°F-4.3°C 70% 9.0 mph W14.5 kmh W -- 29.56 in1001.0 mb 0.00 in0.0 mm 0.00 in0.0 mm 0.00 in0.0 mm
10:23 AM 33.0°F0.6°C 24.2°F-4.3°C 70% 8.0 mph W12.9 kmh W -- 29.56 in1001.0 mb 0.00 in0.0 mm 0.00 in0.0 mm 0.00 in0.0 mm
10:24 AM 33.0°F0.6°C 24.2°F-4.3°C 70% 10.0 mph W16.1 kmh W -- 29.55 in1000.7 mb 0.00 in0.0 mm 0.00 in0.0 mm 0.00 in0.0 mm
10:25 AM 33.0°F0.6°C 24.2°F-4.3°C 70% 8.0 mph W12.9 kmh W -- 29.55 in1000.7 mb 0.00 in0.0 mm 0.00 in0.0 mm 0.00 in0.0 mm
10:26 AM 33.0°F0.6°C 24.2°F-4.3°C 70% 15.0 mph W24.1 kmh W -- 29.56 in1001.0 mb 0.00 in0.0 mm 0.00 in0.0 mm 0.00 in0.0 mm
10:27 AM 33.0°F0.6°C 24.2°F-4.3°C 70% 8.0 mph W12.9 kmh W -- 29.56 in1001.0 mb 0.00 in0.0 mm 0.00 in0.0 mm 0.00 in0.0 mm
10:28 AM 33.0°F0.6°C 24.2°F-4.3°C 70% 7.0 mph WNW11.3 kmh WNW -- 29.56 in1001.0 mb 0.00 in0.0 mm 0.00 in0.0 mm 0.00 in0.0 mm
10:29 AM 33.0°F0.6°C 24.2°F-4.3°C 70% 10.0 mph W16.1 kmh W -- 29.56 in1001.0 mb 0.00 in0.0 mm 0.00 in0.0 mm 0.00 in0.0 mm
10:30 AM 33.0°F0.6°C 24.6°F-4.1°C 71% 11.0 mph W17.7 kmh W -- 29.56 in1001.0 mb 0.00 in0.0 mm 0.00 in0.0 mm 0.00 in0.0 mm
10:31 AM 33.0°F0.6°C 24.6°F-4.1°C 71% 8.0 mph W12.9 kmh W -- 29.56 in1001.0 mb 0.00 in0.0 mm 0.00 in0.0 mm 0.00 in0.0 mm
10:32 AM 33.0°F0.6°C 24.6°F-4.1°C 71% 10.0 mph W16.1 kmh W -- 29.56 in1001.0 mb 0.00 in0.0 mm 0.00 in0.0 mm 0.00 in0.0 mm
10:33 AM 33.0°F0.6°C 24.6°F-4.1°C 71% 9.0 mph W14.5 kmh W -- 29.55 in1000.7 mb 0.00 in0.0 mm 0.00 in0.0 mm 0.00 in0.0 mm
10:34 AM 33.0°F0.6°C 24.6°F-4.1°C 71% 15.0 mph W24.1 kmh W -- 29.56 in1001.0 mb 0.00 in0.0 mm 0.00 in0.0 mm 0.00 in0.0 mm
10:35 AM 33.2°F0.7°C 24.8°F-4.0°C 71% 8.0 mph W12.9 kmh W -- 29.56 in1001.0 mb 0.00 in0.0 mm 0.00 in0.0 mm 0.00 in0.0 mm
10:36 AM 33.2°F0.7°C 24.8°F-4.0°C 71% 9.0 mph W14.5 kmh W -- 29.56 in1001.0 mb 0.00 in0.0 mm 0.00 in0.0 mm 0.00 in0.0 mm
10:37 AM 33.4°F0.8°C 24.9°F-3.9°C 71% 8.0 mph W12.9 kmh W -- 29.56 in1001.0 mb 0.00 in0.0 mm 0.00 in0.0 mm 0.00 in0.0 mm
10:39 AM 33.5°F0.8°C 24.9°F-3.9°C 71% 15.0 mph W24.1 kmh W -- 29.56 in1001.0 mb 0.00 in0.0 mm 0.00 in0.0 mm 0.00 in0.0 mm
10:40 AM 33.8°F1.0°C 25.3°F-3.7°C 71% 8.0 mph W12.9 kmh W -- 29.55 in1000.7 mb 0.00 in0.0 mm 0.00 in0.0 mm 0.00 in0.0 mm
10:41 AM 33.8°F1.0°C 25.3°F-3.7°C 71% 13.0 mph W20.9 kmh W -- 29.55 in1000.7 mb 0.00 in0.0 mm 0.00 in0.0 mm 0.00 in0.0 mm
10:42 AM 33.8°F1.0°C 25.3°F-3.7°C 71% 9.0 mph WSW14.5 kmh WSW -- 29.56 in1001.0 mb 0.00 in0.0 mm 0.00 in0.0 mm 0.00 in0.0 mm
10:43 AM 33.8°F1.0°C 25.3°F-3.7°C 71% 6.0 mph W9.7 kmh W -- 29.56 in1001.0 mb 0.00 in0.0 mm 0.00 in0.0 mm 0.00 in0.0 mm
10:44 AM 33.8°F1.0°C 25.3°F-3.7°C 71% 7.0 mph W11.3 kmh W -- 29.56 in1001.0 mb 0.00 in0.0 mm 0.00 in0.0 mm 0.00 in0.0 mm
10:45 AM 33.8°F1.0°C 25.3°F-3.7°C 71% 7.0 mph WNW11.3 kmh WNW -- 29.56 in1001.0 mb 0.00 in0.0 mm 0.00 in0.0 mm 0.00 in0.0 mm
10:46 AM 33.8°F1.0°C 25.3°F-3.7°C 71% 10.0 mph W16.1 kmh W -- 29.55 in1000.7 mb 0.00 in0.0 mm 0.00 in0.0 mm 0.00 in0.0 mm
10:47 AM 33.8°F1.0°C 25.3°F-3.7°C 71% 8.0 mph W12.9 kmh W -- 29.55 in1000.7 mb 0.00 in0.0 mm 0.00 in0.0 mm 0.00 in0.0 mm
10:49 AM 33.8°F1.0°C 25.3°F-3.7°C 71% 9.0 mph W14.5 kmh W -- 29.56 in1001.0 mb 0.00 in0.0 mm 0.00 in0.0 mm 0.00 in0.0 mm
10:50 AM 34.0°F1.1°C 26.1°F-3.3°C 73% 7.0 mph W11.3 kmh W -- 29.56 in1001.0 mb 0.00 in0.0 mm 0.00 in0.0 mm 0.00 in0.0 mm
10:51 AM 34.0°F1.1°C 26.1°F-3.3°C 73% 9.0 mph WSW14.5 kmh WSW -- 29.56 in1001.0 mb 0.00 in0.0 mm 0.00 in0.0 mm 0.00 in0.0 mm
10:52 AM 34.2°F1.2°C 25.6°F-3.6°C 71% 8.0 mph W12.9 kmh W -- 29.55 in1000.7 mb 0.00 in0.0 mm 0.00 in0.0 mm 0.00 in0.0 mm
10:53 AM 34.2°F1.2°C 25.6°F-3.6°C 71% 8.0 mph WNW12.9 kmh WNW -- 29.56 in1001.0 mb 0.00 in0.0 mm 0.00 in0.0 mm 0.00 in0.0 mm
10:54 AM 34.2°F1.2°C 25.6°F-3.6°C 71% 9.0 mph W14.5 kmh W -- 29.55 in1000.7 mb 0.00 in0.0 mm 0.00 in0.0 mm 0.00 in0.0 mm
10:55 AM 34.7°F1.5°C 26.1°F-3.3°C 71% 9.0 mph W14.5 kmh W -- 29.55 in1000.7 mb 0.00 in0.0 mm 0.00 in0.0 mm 0.00 in0.0 mm
10:58 AM 35.0°F1.7°C 26.5°F-3.1°C 71% 12.0 mph WNW19.3 kmh WNW -- 29.56 in1001.0 mb 0.00 in0.0 mm 0.00 in0.0 mm 0.00 in0.0 mm
10:59 AM 35.0°F1.7°C 26.1°F-3.3°C 70% 12.0 mph W19.3 kmh W -- 29.56 in1001.0 mb 0.00 in0.0 mm 0.00 in0.0 mm 0.00 in0.0 mm
11:00 AM 35.1°F1.7°C 26.1°F-3.3°C 70% 9.0 mph W14.5 kmh W -- 29.56 in1001.0 mb 0.00 in0.0 mm 0.00 in0.0 mm 0.00 in0.0 mm
11:02 AM 35.4°F1.9°C 26.5°F-3.1°C 70% 11.0 mph W17.7 kmh W -- 29.56 in1001.0 mb 0.00 in0.0 mm 0.00 in0.0 mm 0.00 in0.0 mm
11:03 AM 35.4°F1.9°C 26.5°F-3.1°C 70% 15.0 mph W24.1 kmh W -- 29.56 in1001.0 mb 0.00 in0.0 mm 0.00 in0.0 mm 0.00 in0.0 mm
11:04 AM 35.4°F1.9°C 26.5°F-3.1°C 70% 8.0 mph W12.9 kmh W -- 29.56 in1001.0 mb 0.00 in0.0 mm 0.00 in0.0 mm 0.00 in0.0 mm
11:05 AM 35.4°F1.9°C 26.5°F-3.1°C 70% 9.0 mph W14.5 kmh W -- 29.56 in1001.0 mb 0.00 in0.0 mm 0.00 in0.0 mm 0.00 in0.0 mm
11:06 AM 35.4°F1.9°C 26.5°F-3.1°C 70% 11.0 mph W17.7 kmh W -- 29.56 in1001.0 mb 0.00 in0.0 mm 0.00 in0.0 mm 0.00 in0.0 mm
11:07 AM 35.4°F1.9°C 26.8°F-2.9°C 71% 9.0 mph W14.5 kmh W -- 29.56 in1001.0 mb 0.00 in0.0 mm 0.00 in0.0 mm 0.00 in0.0 mm
11:08 AM 35.4°F1.9°C 26.5°F-3.1°C 70% 8.0 mph W12.9 kmh W -- 29.56 in1001.0 mb 0.00 in0.0 mm 0.00 in0.0 mm 0.00 in0.0 mm
11:09 AM 35.4°F1.9°C 26.5°F-3.1°C 70% 10.0 mph W16.1 kmh W -- 29.56 in1001.0 mb 0.00 in0.0 mm 0.00 in0.0 mm 0.00 in0.0 mm
11:12 AM 35.4°F1.9°C 26.5°F-3.1°C 70% 6.0 mph W9.7 kmh W -- 29.56 in1001.0 mb 0.00 in0.0 mm 0.00 in0.0 mm 0.00 in0.0 mm
11:13 AM 35.1°F1.7°C 26.1°F-3.3°C 70% 8.0 mph W12.9 kmh W -- 29.56 in1001.0 mb 0.00 in0.0 mm 0.00 in0.0 mm 0.00 in0.0 mm
11:14 AM 35.1°F1.7°C 26.1°F-3.3°C 70% 9.0 mph W14.5 kmh W -- 29.56 in1001.0 mb 0.00 in0.0 mm 0.00 in0.0 mm 0.00 in0.0 mm
11:15 AM 35.1°F1.7°C 26.1°F-3.3°C 70% 8.0 mph W12.9 kmh W -- 29.56 in1001.0 mb 0.00 in0.0 mm 0.00 in0.0 mm 0.00 in0.0 mm
11:16 AM 35.0°F1.7°C 26.5°F-3.1°C 71% 4.0 mph W6.4 kmh W -- 29.56 in1001.0 mb 0.00 in0.0 mm 0.00 in0.0 mm 0.00 in0.0 mm
11:17 AM 35.1°F1.7°C 26.5°F-3.1°C 71% 8.0 mph W12.9 kmh W -- 29.56 in1001.0 mb 0.00 in0.0 mm 0.00 in0.0 mm 0.00 in0.0 mm
11:18 AM 35.4°F1.9°C 26.5°F-3.1°C 70% 8.0 mph W12.9 kmh W -- 29.56 in1001.0 mb 0.00 in0.0 mm 0.00 in0.0 mm 0.00 in0.0 mm
11:19 AM 35.5°F1.9°C 26.5°F-3.1°C 70% 9.0 mph W14.5 kmh W -- 29.56 in1001.0 mb 0.00 in0.0 mm 0.00 in0.0 mm 0.00 in0.0 mm
11:20 AM 35.5°F1.9°C 26.5°F-3.1°C 70% 8.0 mph W12.9 kmh W -- 29.56 in1001.0 mb 0.00 in0.0 mm 0.00 in0.0 mm 0.00 in0.0 mm
11:21 AM 35.9°F2.2°C 27.0°F-2.8°C 70% 8.0 mph W12.9 kmh W -- 29.56 in1001.0 mb 0.00 in0.0 mm 0.00 in0.0 mm 0.00 in0.0 mm
11:22 AM 35.9°F2.2°C 27.0°F-2.8°C 70% 9.0 mph W14.5 kmh W -- 29.56 in1001.0 mb 0.00 in0.0 mm 0.00 in0.0 mm 0.00 in0.0 mm
11:23 AM 36.2°F2.3°C 27.2°F-2.7°C 70% 15.0 mph W24.1 kmh W -- 29.56 in1001.0 mb 0.00 in0.0 mm 0.00 in0.0 mm 0.00 in0.0 mm
11:24 AM 36.5°F2.5°C 27.2°F-2.7°C 69% 10.0 mph W16.1 kmh W -- 29.56 in1001.0 mb 0.00 in0.0 mm 0.00 in0.0 mm 0.00 in0.0 mm
11:25 AM 36.5°F2.5°C 27.2°F-2.7°C 69% 10.0 mph WNW16.1 kmh WNW -- 29.56 in1001.0 mb 0.00 in0.0 mm 0.00 in0.0 mm 0.00 in0.0 mm
11:26 AM 36.5°F2.5°C 27.2°F-2.7°C 69% 11.0 mph W17.7 kmh W -- 29.56 in1001.0 mb 0.00 in0.0 mm 0.00 in0.0 mm 0.00 in0.0 mm
11:27 AM 36.5°F2.5°C 27.2°F-2.7°C 69% 9.0 mph W14.5 kmh W -- 29.56 in1001.0 mb 0.00 in0.0 mm 0.00 in0.0 mm 0.00 in0.0 mm
11:28 AM 36.5°F2.5°C 27.5°F-2.5°C 70% 8.0 mph W12.9 kmh W -- 29.56 in1001.0 mb 0.00 in0.0 mm 0.00 in0.0 mm 0.00 in0.0 mm
11:30 AM 36.7°F2.6°C 27.7°F-2.4°C 70% 9.0 mph W14.5 kmh W -- 29.56 in1001.0 mb 0.00 in0.0 mm 0.00 in0.0 mm 0.00 in0.0 mm
11:31 AM 36.7°F2.6°C 27.7°F-2.4°C 70% 8.0 mph W12.9 kmh W -- 29.56 in1001.0 mb 0.00 in0.0 mm 0.00 in0.0 mm 0.00 in0.0 mm
11:32 AM 36.7°F2.6°C 27.7°F-2.4°C 70% 7.0 mph W11.3 kmh W -- 29.56 in1001.0 mb 0.00 in0.0 mm 0.00 in0.0 mm 0.00 in0.0 mm
11:33 AM 36.9°F2.7°C 27.9°F-2.3°C 70% 8.0 mph W12.9 kmh W -- 29.57 in1001.4 mb 0.00 in0.0 mm 0.00 in0.0 mm 0.00 in0.0 mm
11:34 AM 36.9°F2.7°C 27.9°F-2.3°C 70% 12.0 mph W19.3 kmh W -- 29.57 in1001.4 mb 0.00 in0.0 mm 0.00 in0.0 mm 0.00 in0.0 mm
11:35 AM 36.9°F2.7°C 27.9°F-2.3°C 70% 10.0 mph W16.1 kmh W -- 29.57 in1001.4 mb 0.00 in0.0 mm 0.00 in0.0 mm 0.00 in0.0 mm
11:36 AM 36.9°F2.7°C 27.9°F-2.3°C 70% 6.0 mph W9.7 kmh W -- 29.56 in1001.0 mb 0.00 in0.0 mm 0.00 in0.0 mm 0.00 in0.0 mm
11:37 AM 36.9°F2.7°C 27.9°F-2.3°C 70% 7.0 mph W11.3 kmh W -- 29.57 in1001.4 mb 0.00 in0.0 mm 0.00 in0.0 mm 0.00 in0.0 mm
11:38 AM 37.2°F2.9°C 28.2°F-2.1°C 70% 6.0 mph W9.7 kmh W -- 29.57 in1001.4 mb 0.00 in0.0 mm 0.00 in0.0 mm 0.00 in0.0 mm
11:39 AM 37.5°F3.1°C 28.6°F-1.9°C 70% 11.0 mph WNW17.7 kmh WNW -- 29.57 in1001.4 mb 0.00 in0.0 mm 0.00 in0.0 mm 0.00 in0.0 mm
11:40 AM 37.5°F3.1°C 28.6°F-1.9°C 70% 12.0 mph W19.3 kmh W -- 29.56 in1001.0 mb 0.00 in0.0 mm 0.00 in0.0 mm 0.00 in0.0 mm
11:41 AM 37.5°F3.1°C 28.2°F-2.1°C 69% 10.0 mph W16.1 kmh W -- 29.56 in1001.0 mb 0.00 in0.0 mm 0.00 in0.0 mm 0.00 in0.0 mm
11:42 AM 37.5°F3.1°C 28.2°F-2.1°C 69% 8.0 mph W12.9 kmh W -- 29.57 in1001.4 mb 0.00 in0.0 mm 0.00 in0.0 mm 0.00 in0.0 mm
11:44 AM 37.5°F3.1°C 28.2°F-2.1°C 69% 9.0 mph W14.5 kmh W -- 29.57 in1001.4 mb 0.00 in0.0 mm 0.00 in0.0 mm 0.00 in0.0 mm
11:45 AM 37.5°F3.1°C 28.2°F-2.1°C 69% 8.0 mph W12.9 kmh W -- 29.57 in1001.4 mb 0.00 in0.0 mm 0.00 in0.0 mm 0.00 in0.0 mm
11:46 AM 37.5°F3.1°C 28.2°F-2.1°C 69% 9.0 mph W14.5 kmh W -- 29.57 in1001.4 mb 0.00 in0.0 mm 0.00 in0.0 mm 0.00 in0.0 mm
11:47 AM 37.5°F3.1°C 28.2°F-2.1°C 69% 13.0 mph W20.9 kmh W -- 29.57 in1001.4 mb 0.00 in0.0 mm 0.00 in0.0 mm 0.00 in0.0 mm
11:48 AM 37.5°F3.1°C 28.2°F-2.1°C 69% 10.0 mph W16.1 kmh W -- 29.57 in1001.4 mb 0.00 in0.0 mm 0.00 in0.0 mm 0.00 in0.0 mm
11:49 AM 37.7°F3.2°C 28.4°F-2.0°C 69% 11.0 mph W17.7 kmh W -- 29.57 in1001.4 mb 0.00 in0.0 mm 0.00 in0.0 mm 0.00 in0.0 mm
11:50 AM 37.7°F3.2°C 28.0°F-2.2°C 68% 11.0 mph W17.7 kmh W -- 29.57 in1001.4 mb 0.00 in0.0 mm 0.00 in0.0 mm 0.00 in0.0 mm
11:51 AM 37.8°F3.2°C 28.0°F-2.2°C 68% 10.0 mph W16.1 kmh W -- 29.57 in1001.4 mb 0.00 in0.0 mm 0.00 in0.0 mm 0.00 in0.0 mm
11:52 AM 38.0°F3.3°C 28.2°F-2.1°C 68% 9.0 mph W14.5 kmh W -- 29.57 in1001.4 mb 0.00 in0.0 mm 0.00 in0.0 mm 0.00 in0.0 mm
11:53 AM 38.0°F3.3°C 28.2°F-2.1°C 68% 7.0 mph W11.3 kmh W -- 29.57 in1001.4 mb 0.00 in0.0 mm 0.00 in0.0 mm 0.00 in0.0 mm
11:54 AM 38.2°F3.4°C 28.4°F-2.0°C 68% 15.0 mph NW24.1 kmh NW -- 29.57 in1001.4 mb 0.00 in0.0 mm 0.00 in0.0 mm 0.00 in0.0 mm
11:55 AM 38.0°F3.3°C 28.2°F-2.1°C 68% 16.0 mph W25.7 kmh W -- 29.57 in1001.4 mb 0.00 in0.0 mm 0.00 in0.0 mm 0.00 in0.0 mm
11:56 AM 38.0°F3.3°C 28.2°F-2.1°C 68% 13.0 mph W20.9 kmh W -- 29.57 in1001.4 mb 0.00 in0.0 mm 0.00 in0.0 mm 0.00 in0.0 mm
11:57 AM 38.0°F3.3°C 28.2°F-2.1°C 68% 11.0 mph WNW17.7 kmh WNW -- 29.57 in1001.4 mb 0.00 in0.0 mm 0.00 in0.0 mm 0.00 in0.0 mm
11:58 AM 38.0°F3.3°C 28.2°F-2.1°C 68% 12.0 mph W19.3 kmh W -- 29.57 in1001.4 mb 0.00 in0.0 mm 0.00 in0.0 mm 0.00 in0.0 mm
11:59 AM 38.0°F3.3°C 28.2°F-2.1°C 68% 9.0 mph WNW14.5 kmh WNW -- 29.57 in1001.4 mb 0.00 in0.0 mm 0.00 in0.0 mm 0.00 in0.0 mm
12:00 PM 38.0°F3.3°C 28.2°F-2.1°C 68% 12.0 mph W19.3 kmh W -- 29.57 in1001.4 mb 0.00 in0.0 mm 0.00 in0.0 mm 0.00 in0.0 mm
12:01 PM 38.2°F3.4°C 28.4°F-2.0°C 68% 6.0 mph W9.7 kmh W -- 29.57 in1001.4 mb 0.00 in0.0 mm 0.00 in0.0 mm 0.00 in0.0 mm
12:02 PM 38.2°F3.4°C 28.4°F-2.0°C 68% 9.0 mph WNW14.5 kmh WNW -- 29.57 in1001.4 mb 0.00 in0.0 mm 0.00 in0.0 mm 0.00 in0.0 mm
12:03 PM 38.2°F3.4°C 28.4°F-2.0°C 68% 12.0 mph W19.3 kmh W -- 29.57 in1001.4 mb 0.00 in0.0 mm 0.00 in0.0 mm 0.00 in0.0 mm
12:04 PM 38.2°F3.4°C 28.4°F-2.0°C 68% 11.0 mph W17.7 kmh W -- 29.57 in1001.4 mb 0.00 in0.0 mm 0.00 in0.0 mm 0.00 in0.0 mm
12:05 PM 38.2°F3.4°C 28.4°F-2.0°C 68% 12.0 mph W19.3 kmh W -- 29.57 in1001.4 mb 0.00 in0.0 mm 0.00 in0.0 mm 0.00 in0.0 mm
12:07 PM 38.2°F3.4°C 27.6°F-2.4°C 66% 12.0 mph WNW19.3 kmh WNW -- 29.57 in1001.4 mb 0.00 in0.0 mm 0.00 in0.0 mm 0.00 in0.0 mm
12:08 PM 38.2°F3.4°C 27.6°F-2.4°C 66% 10.0 mph WNW16.1 kmh WNW -- 29.57 in1001.4 mb 0.00 in0.0 mm 0.00 in0.0 mm 0.00 in0.0 mm
12:09 PM 38.2°F3.4°C 27.6°F-2.4°C 66% 9.0 mph W14.5 kmh W -- 29.57 in1001.4 mb 0.00 in0.0 mm 0.00 in0.0 mm 0.00 in0.0 mm
12:10 PM 38.0°F3.3°C 27.5°F-2.5°C 66% 14.0 mph W22.5 kmh W -- 29.57 in1001.4 mb 0.00 in0.0 mm 0.00 in0.0 mm 0.00 in0.0 mm
12:11 PM 37.8°F3.2°C 28.0°F-2.2°C 68% 7.0 mph W11.3 kmh W -- 29.58 in1001.7 mb 0.00 in0.0 mm 0.00 in0.0 mm 0.00 in0.0 mm
12:12 PM 37.8°F3.2°C 28.0°F-2.2°C 68% 8.0 mph W12.9 kmh W -- 29.57 in1001.4 mb 0.00 in0.0 mm 0.00 in0.0 mm 0.00 in0.0 mm
12:13 PM 38.0°F3.3°C 28.2°F-2.1°C 68% 6.0 mph W9.7 kmh W -- 29.57 in1001.4 mb 0.00 in0.0 mm 0.00 in0.0 mm 0.00 in0.0 mm
12:14 PM 38.0°F3.3°C 28.2°F-2.1°C 68% 7.0 mph W11.3 kmh W -- 29.57 in1001.4 mb 0.00 in0.0 mm 0.00 in0.0 mm 0.00 in0.0 mm
12:15 PM 38.4°F3.6°C 28.7°F-1.8°C 68% 10.0 mph WNW16.1 kmh WNW -- 29.57 in1001.4 mb 0.00 in0.0 mm 0.00 in0.0 mm 0.00 in0.0 mm
12:16 PM 38.7°F3.7°C 28.9°F-1.7°C 68% 9.0 mph W14.5 kmh W -- 29.57 in1001.4 mb 0.00 in0.0 mm 0.00 in0.0 mm 0.00 in0.0 mm
12:17 PM 38.7°F3.7°C 28.2°F-2.1°C 66% 8.0 mph WNW12.9 kmh WNW -- 29.57 in1001.4 mb 0.00 in0.0 mm 0.00 in0.0 mm 0.00 in0.0 mm
12:18 PM 38.7°F3.7°C 28.2°F-2.1°C 66% 10.0 mph W16.1 kmh W -- 29.57 in1001.4 mb 0.00 in0.0 mm 0.00 in0.0 mm 0.00 in0.0 mm
12:19 PM 39.0°F3.9°C 28.5°F-1.9°C 66% 8.0 mph W12.9 kmh W -- 29.57 in1001.4 mb 0.00 in0.0 mm 0.00 in0.0 mm 0.00 in0.0 mm
12:20 PM 39.0°F3.9°C 28.1°F-2.2°C 65% 12.0 mph W19.3 kmh W -- 29.57 in1001.4 mb 0.00 in0.0 mm 0.00 in0.0 mm 0.00 in0.0 mm
12:21 PM 39.0°F3.9°C 28.1°F-2.2°C 65% 9.0 mph W14.5 kmh W -- 29.57 in1001.4 mb 0.00 in0.0 mm 0.00 in0.0 mm 0.00 in0.0 mm
12:22 PM 39.0°F3.9°C 28.5°F-1.9°C 66% 8.0 mph W12.9 kmh W -- 29.57 in1001.4 mb 0.00 in0.0 mm 0.00 in0.0 mm 0.00 in0.0 mm
12:23 PM 39.0°F3.9°C 28.5°F-1.9°C 66% 12.0 mph W19.3 kmh W -- 29.57 in1001.4 mb 0.00 in0.0 mm 0.00 in0.0 mm 0.00 in0.0 mm
12:24 PM 39.0°F3.9°C 28.1°F-2.2°C 65% 9.0 mph W14.5 kmh W -- 29.57 in1001.4 mb 0.00 in0.0 mm 0.00 in0.0 mm 0.00 in0.0 mm
12:25 PM 38.7°F3.7°C 27.8°F-2.3°C 65% 17.0 mph WNW27.4 kmh WNW -- 29.57 in1001.4 mb 0.00 in0.0 mm 0.00 in0.0 mm 0.00 in0.0 mm
12:26 PM 38.7°F3.7°C 27.8°F-2.3°C 65% 14.0 mph W22.5 kmh W -- 29.57 in1001.4 mb 0.00 in0.0 mm 0.00 in0.0 mm 0.00 in0.0 mm
12:27 PM 38.7°F3.7°C 27.8°F-2.3°C 65% 15.0 mph WSW24.1 kmh WSW -- 29.57 in1001.4 mb 0.00 in0.0 mm 0.00 in0.0 mm 0.00 in0.0 mm
12:28 PM 38.7°F3.7°C 27.8°F-2.3°C 65% 9.0 mph W14.5 kmh W -- 29.57 in1001.4 mb 0.00 in0.0 mm 0.00 in0.0 mm 0.00 in0.0 mm
12:29 PM 39.0°F3.9°C 28.1°F-2.2°C 65% 11.0 mph WNW17.7 kmh WNW -- 29.57 in1001.4 mb 0.00 in0.0 mm 0.00 in0.0 mm 0.00 in0.0 mm
12:30 PM 39.0°F3.9°C 28.1°F-2.2°C 65% 9.0 mph WNW14.5 kmh WNW -- 29.57 in1001.4 mb 0.00 in0.0 mm 0.00 in0.0 mm 0.00 in0.0 mm
12:31 PM 39.4°F4.1°C 28.5°F-1.9°C 65% 12.0 mph NW19.3 kmh NW -- 29.57 in1001.4 mb 0.00 in0.0 mm 0.00 in0.0 mm 0.00 in0.0 mm
12:32 PM 39.4°F4.1°C 28.5°F-1.9°C 65% 7.0 mph W11.3 kmh W -- 29.57 in1001.4 mb 0.00 in0.0 mm 0.00 in0.0 mm 0.00 in0.0 mm
12:33 PM 39.5°F4.2°C 28.6°F-1.9°C 65% 9.0 mph W14.5 kmh W -- 29.57 in1001.4 mb 0.00 in0.0 mm 0.00 in0.0 mm 0.00 in0.0 mm
12:34 PM 39.5°F4.2°C 28.6°F-1.9°C 65% 10.0 mph W16.1 kmh W -- 29.57 in1001.4 mb 0.00 in0.0 mm 0.00 in0.0 mm 0.00 in0.0 mm
12:35 PM 39.4°F4.1°C 28.5°F-1.9°C 65% 16.0 mph WNW25.7 kmh WNW -- 29.57 in1001.4 mb 0.00 in0.0 mm 0.00 in0.0 mm 0.00 in0.0 mm
12:36 PM 39.2°F4.0°C 28.3°F-2.1°C 65% 12.0 mph W19.3 kmh W -- 29.57 in1001.4 mb 0.00 in0.0 mm 0.00 in0.0 mm 0.00 in0.0 mm
12:37 PM 39.2°F4.0°C 28.3°F-2.1°C 65% 12.0 mph WNW19.3 kmh WNW -- 29.57 in1001.4 mb 0.00 in0.0 mm 0.00 in0.0 mm 0.00 in0.0 mm
12:38 PM 39.2°F4.0°C 28.3°F-2.1°C 65% 11.0 mph W17.7 kmh W -- 29.57 in1001.4 mb 0.00 in0.0 mm 0.00 in0.0 mm 0.00 in0.0 mm
12:39 PM 39.2°F4.0°C 28.3°F-2.1°C 65% 13.0 mph W20.9 kmh W -- 29.58 in1001.7 mb 0.00 in0.0 mm 0.00 in0.0 mm 0.00 in0.0 mm
12:40 PM 39.2°F4.0°C 28.3°F-2.1°C 65% 9.0 mph WNW14.5 kmh WNW -- 29.57 in1001.4 mb 0.00 in0.0 mm 0.00 in0.0 mm 0.00 in0.0 mm
12:41 PM 39.2°F4.0°C 28.3°F-2.1°C 65% 13.0 mph WNW20.9 kmh WNW -- 29.58 in1001.7 mb 0.00 in0.0 mm 0.00 in0.0 mm 0.00 in0.0 mm
12:42 PM 39.2°F4.0°C 28.3°F-2.1°C 65% 12.0 mph WNW19.3 kmh WNW -- 29.57 in1001.4 mb 0.00 in0.0 mm 0.00 in0.0 mm 0.00 in0.0 mm
12:43 PM 39.2°F4.0°C 28.3°F-2.1°C 65% 9.0 mph WNW14.5 kmh WNW -- 29.57 in1001.4 mb 0.00 in0.0 mm 0.00 in0.0 mm 0.00 in0.0 mm
12:44 PM 39.2°F4.0°C 28.3°F-2.1°C 65% 8.0 mph WNW12.9 kmh WNW -- 29.58 in1001.7 mb 0.00 in0.0 mm 0.00 in0.0 mm 0.00 in0.0 mm
12:45 PM 39.2°F4.0°C 28.3°F-2.1°C 65% 8.0 mph W12.9 kmh W -- 29.58 in1001.7 mb 0.00 in0.0 mm 0.00 in0.0 mm 0.00 in0.0 mm
12:46 PM 39.2°F4.0°C 28.3°F-2.1°C 65% 10.0 mph W16.1 kmh W -- 29.57 in1001.4 mb 0.00 in0.0 mm 0.00 in0.0 mm 0.00 in0.0 mm
12:47 PM 39.2°F4.0°C 28.3°F-2.1°C 65% 7.0 mph W11.3 kmh W -- 29.58 in1001.7 mb 0.00 in0.0 mm 0.00 in0.0 mm 0.00 in0.0 mm
12:48 PM 39.2°F4.0°C 28.3°F-2.1°C 65% 15.0 mph WNW24.1 kmh WNW -- 29.58 in1001.7 mb 0.00 in0.0 mm 0.00 in0.0 mm 0.00 in0.0 mm
12:49 PM 39.2°F4.0°C 28.3°F-2.1°C 65% 9.0 mph W14.5 kmh W -- 29.58 in1001.7 mb 0.00 in0.0 mm 0.00 in0.0 mm 0.00 in0.0 mm
12:50 PM 39.2°F4.0°C 28.3°F-2.1°C 65% 12.0 mph WNW19.3 kmh WNW -- 29.58 in1001.7 mb 0.00 in0.0 mm 0.00 in0.0 mm 0.00 in0.0 mm
12:51 PM 39.2°F4.0°C 28.3°F-2.1°C 65% 7.0 mph W11.3 kmh W -- 29.58 in1001.7 mb 0.00 in0.0 mm 0.00 in0.0 mm 0.00 in0.0 mm
12:52 PM 39.2°F4.0°C 28.7°F-1.8°C 66% 10.0 mph W16.1 kmh W -- 29.58 in1001.7 mb 0.00 in0.0 mm 0.00 in0.0 mm 0.00 in0.0 mm
12:53 PM 39.2°F4.0°C 28.7°F-1.8°C 66% 8.0 mph W12.9 kmh W -- 29.58 in1001.7 mb 0.00 in0.0 mm 0.00 in0.0 mm 0.00 in0.0 mm
12:54 PM 39.2°F4.0°C 28.3°F-2.1°C 65% 12.0 mph NW19.3 kmh NW -- 29.57 in1001.4 mb 0.00 in0.0 mm 0.00 in0.0 mm 0.00 in0.0 mm
12:55 PM 39.0°F3.9°C 28.1°F-2.2°C 65% 11.0 mph WNW17.7 kmh WNW -- 29.57 in1001.4 mb 0.00 in0.0 mm 0.00 in0.0 mm 0.00 in0.0 mm
12:56 PM 39.0°F3.9°C 28.1°F-2.2°C 65% 12.0 mph NW19.3 kmh NW -- 29.57 in1001.4 mb 0.00 in0.0 mm 0.00 in0.0 mm 0.00 in0.0 mm
12:57 PM 38.7°F3.7°C 27.8°F-2.3°C 65% 9.0 mph WNW14.5 kmh WNW -- 29.57 in1001.4 mb 0.00 in0.0 mm 0.00 in0.0 mm 0.00 in0.0 mm
12:58 PM 38.7°F3.7°C 27.8°F-2.3°C 65% 9.0 mph W14.5 kmh W -- 29.57 in1001.4 mb 0.00 in0.0 mm 0.00 in0.0 mm 0.00 in0.0 mm
12:59 PM 38.7°F3.7°C 27.8°F-2.3°C 65% 8.0 mph W12.9 kmh W -- 29.57 in1001.4 mb 0.00 in0.0 mm 0.00 in0.0 mm 0.00 in0.0 mm
01:00 PM 39.2°F4.0°C 28.7°F-1.8°C 66% 10.0 mph W16.1 kmh W -- 29.58 in1001.7 mb 0.00 in0.0 mm 0.00 in0.0 mm 0.00 in0.0 mm
01:01 PM 39.2°F4.0°C 28.7°F-1.8°C 66% 8.0 mph W12.9 kmh W -- 29.58 in1001.7 mb 0.00 in0.0 mm 0.00 in0.0 mm 0.00 in0.0 mm
01:02 PM 39.0°F3.9°C 29.2°F-1.6°C 68% 8.0 mph WNW12.9 kmh WNW -- 29.57 in1001.4 mb 0.00 in0.0 mm 0.00 in0.0 mm 0.00 in0.0 mm
01:03 PM 38.7°F3.7°C 28.2°F-2.1°C 66% 10.0 mph W16.1 kmh W -- 29.57 in1001.4 mb 0.00 in0.0 mm 0.00 in0.0 mm 0.00 in0.0 mm
01:04 PM 38.7°F3.7°C 27.8°F-2.3°C 65% 11.0 mph WNW17.7 kmh WNW -- 29.57 in1001.4 mb 0.00 in0.0 mm 0.00 in0.0 mm 0.00 in0.0 mm
01:05 PM 38.7°F3.7°C 27.8°F-2.3°C 65% 7.0 mph WNW11.3 kmh WNW -- 29.58 in1001.7 mb 0.00 in0.0 mm 0.00 in0.0 mm 0.00 in0.0 mm
01:06 PM 39.2°F4.0°C 28.3°F-2.1°C 65% 7.0 mph WNW11.3 kmh WNW -- 29.57 in1001.4 mb 0.00 in0.0 mm 0.00 in0.0 mm 0.00 in0.0 mm
01:07 PM 39.2°F4.0°C 28.3°F-2.1°C 65% 15.0 mph W24.1 kmh W -- 29.57 in1001.4 mb 0.00 in0.0 mm 0.00 in0.0 mm 0.00 in0.0 mm
01:08 PM 39.4°F4.1°C 28.5°F-1.9°C 65% 10.0 mph NW16.1 kmh NW -- 29.57 in1001.4 mb 0.00 in0.0 mm 0.00 in0.0 mm 0.00 in0.0 mm
01:09 PM 39.4°F4.1°C 28.5°F-1.9°C 65% 8.0 mph W12.9 kmh W -- 29.57 in1001.4 mb 0.00 in0.0 mm 0.00 in0.0 mm 0.00 in0.0 mm
01:10 PM 39.4°F4.1°C 28.5°F-1.9°C 65% 11.0 mph NNW17.7 kmh NNW -- 29.58 in1001.7 mb 0.00 in0.0 mm 0.00 in0.0 mm 0.00 in0.0 mm
01:11 PM 39.0°F3.9°C 28.1°F-2.2°C 65% 9.0 mph NW14.5 kmh NW -- 29.58 in1001.7 mb 0.00 in0.0 mm 0.00 in0.0 mm 0.00 in0.0 mm
01:12 PM 39.0°F3.9°C 28.1°F-2.2°C 65% 8.0 mph W12.9 kmh W -- 29.58 in1001.7 mb 0.00 in0.0 mm 0.00 in0.0 mm 0.00 in0.0 mm
01:13 PM 39.0°F3.9°C 28.1°F-2.2°C 65% 10.0 mph WNW16.1 kmh WNW -- 29.58 in1001.7 mb 0.00 in0.0 mm 0.00 in0.0 mm 0.00 in0.0 mm
01:14 PM 38.7°F3.7°C 27.8°F-2.3°C 65% 6.0 mph W9.7 kmh W -- 29.58 in1001.7 mb 0.00 in0.0 mm 0.00 in0.0 mm 0.00 in0.0 mm
01:15 PM 38.7°F3.7°C 27.8°F-2.3°C 65% 7.0 mph WNW11.3 kmh WNW -- 29.58 in1001.7 mb 0.00 in0.0 mm 0.00 in0.0 mm 0.00 in0.0 mm
01:16 PM 38.7°F3.7°C 27.8°F-2.3°C 65% 7.0 mph W11.3 kmh W -- 29.58 in1001.7 mb 0.00 in0.0 mm 0.00 in0.0 mm 0.00 in0.0 mm
01:17 PM 39.0°F3.9°C 28.1°F-2.2°C 65% 10.0 mph W16.1 kmh W -- 29.58 in1001.7 mb 0.00 in0.0 mm 0.00 in0.0 mm 0.00 in0.0 mm
01:18 PM 39.0°F3.9°C 28.1°F-2.2°C 65% 7.0 mph WNW11.3 kmh WNW -- 29.58 in1001.7 mb 0.00 in0.0 mm 0.00 in0.0 mm 0.00 in0.0 mm
01:20 PM 39.0°F3.9°C 28.1°F-2.2°C 65% 6.0 mph W9.7 kmh W -- 29.58 in1001.7 mb 0.00 in0.0 mm 0.00 in0.0 mm 0.00 in0.0 mm
01:21 PM 39.0°F3.9°C 27.4°F-2.6°C 63% 9.0 mph W14.5 kmh W -- 29.58 in1001.7 mb 0.00 in0.0 mm 0.00 in0.0 mm 0.00 in0.0 mm
01:22 PM 39.0°F3.9°C 28.1°F-2.2°C 65% 9.0 mph W14.5 kmh W -- 29.58 in1001.7 mb 0.00 in0.0 mm 0.00 in0.0 mm 0.00 in0.0 mm
01:23 PM 39.4°F4.1°C 28.5°F-1.9°C 65% 6.0 mph W9.7 kmh W -- 29.58 in1001.7 mb 0.00 in0.0 mm 0.00 in0.0 mm 0.00 in0.0 mm
01:24 PM 39.5°F4.2°C 28.6°F-1.9°C 65% 9.0 mph W14.5 kmh W -- 29.58 in1001.7 mb 0.00 in0.0 mm 0.00 in0.0 mm 0.00 in0.0 mm
01:25 PM 39.7°F4.3°C 28.8°F-1.8°C 65% 6.0 mph W9.7 kmh W -- 29.58 in1001.7 mb 0.00 in0.0 mm 0.00 in0.0 mm 0.00 in0.0 mm
01:26 PM 40.0°F4.4°C 28.2°F-2.1°C 63% 12.0 mph W19.3 kmh W -- 29.58 in1001.7 mb 0.00 in0.0 mm 0.00 in0.0 mm 0.00 in0.0 mm
01:27 PM 40.5°F4.7°C 28.7°F-1.8°C 63% 6.0 mph WNW9.7 kmh WNW -- 29.58 in1001.7 mb 0.00 in0.0 mm 0.00 in0.0 mm 0.00 in0.0 mm
01:28 PM 40.5°F4.7°C 28.7°F-1.8°C 63% 7.0 mph W11.3 kmh W -- 29.58 in1001.7 mb 0.00 in0.0 mm 0.00 in0.0 mm 0.00 in0.0 mm
01:29 PM 40.5°F4.7°C 28.7°F-1.8°C 63% 9.0 mph W14.5 kmh W -- 29.58 in1001.7 mb 0.00 in0.0 mm 0.00 in0.0 mm 0.00 in0.0 mm
01:30 PM 40.5°F4.7°C 27.9°F-2.3°C 61% 5.0 mph W8.0 kmh W -- 29.57 in1001.4 mb 0.00 in0.0 mm 0.00 in0.0 mm 0.00 in0.0 mm
01:31 PM 40.2°F4.6°C 28.5°F-1.9°C 63% 7.0 mph W11.3 kmh W -- 29.57 in1001.4 mb 0.00 in0.0 mm 0.00 in0.0 mm 0.00 in0.0 mm
01:32 PM 40.2°F4.6°C 28.5°F-1.9°C 63% 6.0 mph W9.7 kmh W -- 29.58 in1001.7 mb 0.00 in0.0 mm 0.00 in0.0 mm 0.00 in0.0 mm
01:33 PM 40.2°F4.6°C 28.5°F-1.9°C 63% 7.0 mph W11.3 kmh W -- 29.58 in1001.7 mb 0.00 in0.0 mm 0.00 in0.0 mm 0.00 in0.0 mm
01:34 PM 40.0°F4.4°C 28.2°F-2.1°C 63% 6.0 mph WNW9.7 kmh WNW -- 29.58 in1001.7 mb 0.00 in0.0 mm 0.00 in0.0 mm 0.00 in0.0 mm
01:35 PM 39.9°F4.4°C 29.0°F-1.7°C 65% 9.0 mph W14.5 kmh W -- 29.58 in1001.7 mb 0.00 in0.0 mm 0.00 in0.0 mm 0.00 in0.0 mm
01:36 PM 39.9°F4.4°C 29.0°F-1.7°C 65% 6.0 mph W9.7 kmh W -- 29.58 in1001.7 mb 0.00 in0.0 mm 0.00 in0.0 mm 0.00 in0.0 mm
01:38 PM 39.7°F4.3°C 28.8°F-1.8°C 65% 9.0 mph W14.5 kmh W -- 29.58 in1001.7 mb 0.00 in0.0 mm 0.00 in0.0 mm 0.00 in0.0 mm
01:39 PM 39.7°F4.3°C 28.0°F-2.2°C 63% 6.0 mph W9.7 kmh W -- 29.58 in1001.7 mb 0.00 in0.0 mm 0.00 in0.0 mm 0.00 in0.0 mm
01:40 PM 39.7°F4.3°C 28.0°F-2.2°C 63% 5.0 mph W8.0 kmh W -- 29.57 in1001.4 mb 0.00 in0.0 mm 0.00 in0.0 mm 0.00 in0.0 mm
01:41 PM 39.5°F4.2°C 27.9°F-2.3°C 63% 6.0 mph W9.7 kmh W -- 29.58 in1001.7 mb 0.00 in0.0 mm 0.00 in0.0 mm 0.00 in0.0 mm
01:42 PM 39.5°F4.2°C 27.9°F-2.3°C 63% 5.0 mph W8.0 kmh W -- 29.58 in1001.7 mb 0.00 in0.0 mm 0.00 in0.0 mm 0.00 in0.0 mm
01:43 PM 39.5°F4.2°C 28.6°F-1.9°C 65% 7.0 mph W11.3 kmh W -- 29.58 in1001.7 mb 0.00 in0.0 mm 0.00 in0.0 mm 0.00 in0.0 mm
01:44 PM 39.9°F4.4°C 28.2°F-2.1°C 63% 8.0 mph W12.9 kmh W -- 29.58 in1001.7 mb 0.00 in0.0 mm 0.00 in0.0 mm 0.00 in0.0 mm
01:46 PM 39.9°F4.4°C 28.2°F-2.1°C 63% 9.0 mph W14.5 kmh W -- 29.58 in1001.7 mb 0.00 in0.0 mm 0.00 in0.0 mm 0.00 in0.0 mm
01:47 PM 39.9°F4.4°C 28.2°F-2.1°C 63% 6.0 mph W9.7 kmh W -- 29.58 in1001.7 mb 0.00 in0.0 mm 0.00 in0.0 mm 0.00 in0.0 mm
01:48 PM 39.9°F4.4°C 28.2°F-2.1°C 63% 6.0 mph WNW9.7 kmh WNW -- 29.58 in1001.7 mb 0.00 in0.0 mm 0.00 in0.0 mm 0.00 in0.0 mm
01:49 PM 39.9°F4.4°C 27.4°F-2.6°C 61% 6.0 mph W9.7 kmh W -- 29.58 in1001.7 mb 0.00 in0.0 mm 0.00 in0.0 mm 0.00 in0.0 mm
01:50 PM 39.9°F4.4°C 27.4°F-2.6°C 61% 9.0 mph W14.5 kmh W -- 29.58 in1001.7 mb 0.00 in0.0 mm 0.00 in0.0 mm 0.00 in0.0 mm
01:51 PM 39.9°F4.4°C 27.4°F-2.6°C 61% 8.0 mph NW12.9 kmh NW -- 29.58 in1001.7 mb 0.00 in0.0 mm 0.00 in0.0 mm 0.00 in0.0 mm
01:52 PM 39.9°F4.4°C 28.2°F-2.1°C 63% 7.0 mph W11.3 kmh W -- 29.58 in1001.7 mb 0.00 in0.0 mm 0.00 in0.0 mm 0.00 in0.0 mm
01:53 PM 39.9°F4.4°C 27.4°F-2.6°C 61% 7.0 mph W11.3 kmh W -- 29.58 in1001.7 mb 0.00 in0.0 mm 0.00 in0.0 mm 0.00 in0.0 mm
01:54 PM 39.9°F4.4°C 27.4°F-2.6°C 61% 9.0 mph W14.5 kmh W -- 29.58 in1001.7 mb 0.00 in0.0 mm 0.00 in0.0 mm 0.00 in0.0 mm
01:55 PM 40.0°F4.4°C 27.4°F-2.6°C 61% 7.0 mph NNW11.3 kmh NNW -- 29.58 in1001.7 mb 0.00 in0.0 mm 0.00 in0.0 mm 0.00 in0.0 mm
01:56 PM 40.0°F4.4°C 27.4°F-2.6°C 61% 8.0 mph W12.9 kmh W -- 29.58 in1001.7 mb 0.00 in0.0 mm 0.00 in0.0 mm 0.00 in0.0 mm
01:57 PM 40.2°F4.6°C 27.8°F-2.3°C 61% 8.0 mph W12.9 kmh W -- 29.58 in1001.7 mb 0.00 in0.0 mm 0.00 in0.0 mm 0.00 in0.0 mm
01:58 PM 40.5°F4.7°C 27.9°F-2.3°C 61% 7.0 mph WNW11.3 kmh WNW -- 29.58 in1001.7 mb 0.00 in0.0 mm 0.00 in0.0 mm 0.00 in0.0 mm
01:59 PM 40.7°F4.8°C 28.1°F-2.2°C 61% 8.0 mph W12.9 kmh W -- 29.58 in1001.7 mb 0.00 in0.0 mm 0.00 in0.0 mm 0.00 in0.0 mm
02:00 PM 40.7°F4.8°C 28.1°F-2.2°C 61% 6.0 mph W9.7 kmh W -- 29.58 in1001.7 mb 0.00 in0.0 mm 0.00 in0.0 mm 0.00 in0.0 mm
02:01 PM 40.9°F4.9°C 27.9°F-2.3°C 60% 7.0 mph W11.3 kmh W -- 29.58 in1001.7 mb 0.00 in0.0 mm 0.00 in0.0 mm 0.00 in0.0 mm
02:02 PM 41.1°F5.1°C 28.2°F-2.1°C 60% 9.0 mph WNW14.5 kmh WNW -- 29.58 in1001.7 mb 0.00 in0.0 mm 0.00 in0.0 mm 0.00 in0.0 mm
02:03 PM 41.1°F5.1°C 28.6°F-1.9°C 61% 8.0 mph WSW12.9 kmh WSW -- 29.58 in1001.7 mb 0.00 in0.0 mm 0.00 in0.0 mm 0.00 in0.0 mm
02:04 PM 41.1°F5.1°C 28.6°F-1.9°C 61% 10.0 mph W16.1 kmh W -- 29.58 in1001.7 mb 0.00 in0.0 mm 0.00 in0.0 mm 0.00 in0.0 mm
02:05 PM 40.9°F4.9°C 27.9°F-2.3°C 60% 10.0 mph W16.1 kmh W -- 29.58 in1001.7 mb 0.00 in0.0 mm 0.00 in0.0 mm 0.00 in0.0 mm
02:06 PM 40.9°F4.9°C 27.9°F-2.3°C 60% 12.0 mph WNW19.3 kmh WNW -- 29.58 in1001.7 mb 0.00 in0.0 mm 0.00 in0.0 mm 0.00 in0.0 mm
02:07 PM 40.9°F4.9°C 27.9°F-2.3°C 60% 8.0 mph WNW12.9 kmh WNW -- 29.58 in1001.7 mb 0.00 in0.0 mm 0.00 in0.0 mm 0.00 in0.0 mm
02:08 PM 40.9°F4.9°C 27.9°F-2.3°C 60% 8.0 mph W12.9 kmh W -- 29.58 in1001.7 mb 0.00 in0.0 mm 0.00 in0.0 mm 0.00 in0.0 mm
02:09 PM 40.9°F4.9°C 27.9°F-2.3°C 60% 12.0 mph W19.3 kmh W -- 29.58 in1001.7 mb 0.00 in0.0 mm 0.00 in0.0 mm 0.00 in0.0 mm
02:10 PM 40.9°F4.9°C 27.4°F-2.6°C 59% 7.0 mph W11.3 kmh W -- 29.58 in1001.7 mb 0.00 in0.0 mm 0.00 in0.0 mm 0.00 in0.0 mm
02:11 PM 41.1°F5.1°C 27.8°F-2.3°C 59% 8.0 mph W12.9 kmh W -- 29.58 in1001.7 mb 0.00 in0.0 mm 0.00 in0.0 mm 0.00 in0.0 mm
02:12 PM 41.4°F5.2°C 28.0°F-2.2°C 59% 12.0 mph W19.3 kmh W -- 29.58 in1001.7 mb 0.00 in0.0 mm 0.00 in0.0 mm 0.00 in0.0 mm
02:14 PM 41.4°F5.2°C 28.0°F-2.2°C 59% 5.0 mph W8.0 kmh W -- 29.58 in1001.7 mb 0.00 in0.0 mm 0.00 in0.0 mm 0.00 in0.0 mm
02:15 PM 41.4°F5.2°C 28.0°F-2.2°C 59% 7.0 mph W11.3 kmh W -- 29.58 in1001.7 mb 0.00 in0.0 mm 0.00 in0.0 mm 0.00 in0.0 mm
02:16 PM 41.4°F5.2°C 28.0°F-2.2°C 59% 9.0 mph WNW14.5 kmh WNW -- 29.58 in1001.7 mb 0.00 in0.0 mm 0.00 in0.0 mm 0.00 in0.0 mm
02:17 PM 41.4°F5.2°C 27.5°F-2.5°C 58% 9.0 mph W14.5 kmh W -- 29.58 in1001.7 mb 0.00 in0.0 mm 0.00 in0.0 mm 0.00 in0.0 mm
02:18 PM 41.5°F5.3°C 28.1°F-2.2°C 59% 7.0 mph W11.3 kmh W -- 29.58 in1001.7 mb 0.00 in0.0 mm 0.00 in0.0 mm 0.00 in0.0 mm
02:19 PM 41.5°F5.3°C 28.1°F-2.2°C 59% 7.0 mph WNW11.3 kmh WNW -- 29.58 in1001.7 mb 0.00 in0.0 mm 0.00 in0.0 mm 0.00 in0.0 mm
02:20 PM 41.5°F5.3°C 28.1°F-2.2°C 59% 7.0 mph W11.3 kmh W -- 29.58 in1001.7 mb 0.00 in0.0 mm 0.00 in0.0 mm 0.00 in0.0 mm
02:21 PM 41.7°F5.4°C 28.3°F-2.1°C 59% 9.0 mph W14.5 kmh W -- 29.58 in1001.7 mb 0.00 in0.0 mm 0.00 in0.0 mm 0.00 in0.0 mm
02:22 PM 41.7°F5.4°C 27.0°F-2.8°C 56% 9.0 mph W14.5 kmh W -- 29.58 in1001.7 mb 0.00 in0.0 mm 0.00 in0.0 mm 0.00 in0.0 mm
02:23 PM 41.7°F5.4°C 27.0°F-2.8°C 56% 7.0 mph WNW11.3 kmh WNW -- 29.58 in1001.7 mb 0.00 in0.0 mm 0.00 in0.0 mm 0.00 in0.0 mm
02:24 PM 41.7°F5.4°C 27.0°F-2.8°C 56% 9.0 mph W14.5 kmh W -- 29.58 in1001.7 mb 0.00 in0.0 mm 0.00 in0.0 mm 0.00 in0.0 mm
02:25 PM 41.7°F5.4°C 27.0°F-2.8°C 56% 15.0 mph W24.1 kmh W -- 29.58 in1001.7 mb 0.00 in0.0 mm 0.00 in0.0 mm 0.00 in0.0 mm
02:26 PM 41.7°F5.4°C 27.0°F-2.8°C 56% 7.0 mph NW11.3 kmh NW -- 29.58 in1001.7 mb 0.00 in0.0 mm 0.00 in0.0 mm 0.00 in0.0 mm
02:27 PM 41.5°F5.3°C 27.7°F-2.4°C 58% 9.0 mph W14.5 kmh W -- 29.58 in1001.7 mb 0.00 in0.0 mm 0.00 in0.0 mm 0.00 in0.0 mm
02:28 PM 41.5°F5.3°C 27.7°F-2.4°C 58% 14.0 mph W22.5 kmh W -- 29.58 in1001.7 mb 0.00 in0.0 mm 0.00 in0.0 mm 0.00 in0.0 mm
02:29 PM 41.4°F5.2°C 27.5°F-2.5°C 58% 8.0 mph WNW12.9 kmh WNW -- 29.58 in1001.7 mb 0.00 in0.0 mm 0.00 in0.0 mm 0.00 in0.0 mm
02:30 PM 41.7°F5.4°C 27.9°F-2.3°C 58% 9.0 mph WNW14.5 kmh WNW -- 29.58 in1001.7 mb 0.00 in0.0 mm 0.00 in0.0 mm 0.00 in0.0 mm
02:31 PM 41.7°F5.4°C 27.9°F-2.3°C 58% 8.0 mph W12.9 kmh W -- 29.58 in1001.7 mb 0.00 in0.0 mm 0.00 in0.0 mm 0.00 in0.0 mm
02:32 PM 41.7°F5.4°C 27.9°F-2.3°C 58% 7.0 mph W11.3 kmh W -- 29.58 in1001.7 mb 0.00 in0.0 mm 0.00 in0.0 mm 0.00 in0.0 mm
02:33 PM 41.9°F5.5°C 27.2°F-2.7°C 56% 10.0 mph W16.1 kmh W -- 29.58 in1001.7 mb 0.00 in0.0 mm 0.00 in0.0 mm 0.00 in0.0 mm
02:34 PM 41.9°F5.5°C 28.0°F-2.2°C 58% 10.0 mph WNW16.1 kmh WNW -- 29.58 in1001.7 mb 0.00 in0.0 mm 0.00 in0.0 mm 0.00 in0.0 mm
02:35 PM 41.9°F5.5°C 27.2°F-2.7°C 56% 11.0 mph W17.7 kmh W -- 29.58 in1001.7 mb 0.00 in0.0 mm 0.00 in0.0 mm 0.00 in0.0 mm
02:36 PM 41.9°F5.5°C 27.2°F-2.7°C 56% 13.0 mph WNW20.9 kmh WNW -- 29.58 in1001.7 mb 0.00 in0.0 mm 0.00 in0.0 mm 0.00 in0.0 mm
02:37 PM 41.9°F5.5°C 26.7°F-2.9°C 55% 8.0 mph W12.9 kmh W -- 29.58 in1001.7 mb 0.00 in0.0 mm 0.00 in0.0 mm 0.00 in0.0 mm
02:38 PM 41.7°F5.4°C 27.0°F-2.8°C 56% 8.0 mph W12.9 kmh W -- 29.58 in1001.7 mb 0.00 in0.0 mm 0.00 in0.0 mm 0.00 in0.0 mm
02:39 PM 41.7°F5.4°C 27.0°F-2.8°C 56% 9.0 mph W14.5 kmh W -- 29.58 in1001.7 mb 0.00 in0.0 mm 0.00 in0.0 mm 0.00 in0.0 mm
02:40 PM 41.9°F5.5°C 27.2°F-2.7°C 56% 10.0 mph W16.1 kmh W -- 29.58 in1001.7 mb 0.00 in0.0 mm 0.00 in0.0 mm 0.00 in0.0 mm
02:41 PM 41.9°F5.5°C 26.7°F-2.9°C 55% 10.0 mph W16.1 kmh W -- 29.58 in1001.7 mb 0.00 in0.0 mm 0.00 in0.0 mm 0.00 in0.0 mm
02:42 PM 41.9°F5.5°C 26.7°F-2.9°C 55% 9.0 mph W14.5 kmh W -- 29.58 in1001.7 mb 0.00 in0.0 mm 0.00 in0.0 mm 0.00 in0.0 mm
02:43 PM 41.7°F5.4°C 26.6°F-3.0°C 55% 11.0 mph WNW17.7 kmh WNW -- 29.57 in1001.4 mb 0.00 in0.0 mm 0.00 in0.0 mm 0.00 in0.0 mm
02:44 PM 41.7°F5.4°C 26.6°F-3.0°C 55% 6.0 mph WNW9.7 kmh WNW -- 29.58 in1001.7 mb 0.00 in0.0 mm 0.00 in0.0 mm 0.00 in0.0 mm
02:45 PM 41.7°F5.4°C 27.0°F-2.8°C 56% 7.0 mph WNW11.3 kmh WNW -- 29.58 in1001.7 mb 0.00 in0.0 mm 0.00 in0.0 mm 0.00 in0.0 mm
02:46 PM 41.7°F5.4°C 27.0°F-2.8°C 56% 12.0 mph WSW19.3 kmh WSW -- 29.58 in1001.7 mb 0.00 in0.0 mm 0.00 in0.0 mm 0.00 in0.0 mm
02:47 PM 41.9°F5.5°C 27.2°F-2.7°C 56% 7.0 mph WNW11.3 kmh WNW -- 29.58 in1001.7 mb 0.00 in0.0 mm 0.00 in0.0 mm 0.00 in0.0 mm
02:48 PM 41.9°F5.5°C 26.7°F-2.9°C 55% 10.0 mph NW16.1 kmh NW -- 29.58 in1001.7 mb 0.00 in0.0 mm 0.00 in0.0 mm 0.00 in0.0 mm
02:49 PM 41.9°F5.5°C 27.2°F-2.7°C 56% 10.0 mph W16.1 kmh W -- 29.58 in1001.7 mb 0.00 in0.0 mm 0.00 in0.0 mm 0.00 in0.0 mm
02:50 PM 41.9°F5.5°C 27.2°F-2.7°C 56% 7.0 mph W11.3 kmh W -- 29.58 in1001.7 mb 0.00 in0.0 mm 0.00 in0.0 mm 0.00 in0.0 mm
02:52 PM 42.1°F5.6°C 27.4°F-2.6°C 56% 11.0 mph NW17.7 kmh NW -- 29.58 in1001.7 mb 0.00 in0.0 mm 0.00 in0.0 mm 0.00 in0.0 mm
02:53 PM 42.1°F5.6°C 26.9°F-2.8°C 55% 13.0 mph W20.9 kmh W -- 29.58 in1001.7 mb 0.00 in0.0 mm 0.00 in0.0 mm 0.00 in0.0 mm
02:54 PM 42.1°F5.6°C 26.9°F-2.8°C 55% 6.0 mph WNW9.7 kmh WNW -- 29.58 in1001.7 mb 0.00 in0.0 mm 0.00 in0.0 mm 0.00 in0.0 mm
02:55 PM 42.1°F5.6°C 26.9°F-2.8°C 55% 6.0 mph W9.7 kmh W -- 29.58 in1001.7 mb 0.00 in0.0 mm 0.00 in0.0 mm 0.00 in0.0 mm
02:56 PM 42.1°F5.6°C 26.9°F-2.8°C 55% 12.0 mph W19.3 kmh W -- 29.58 in1001.7 mb 0.00 in0.0 mm 0.00 in0.0 mm 0.00 in0.0 mm
02:57 PM 42.3°F5.7°C 27.1°F-2.7°C 55% 9.0 mph W14.5 kmh W -- 29.58 in1001.7 mb 0.00 in0.0 mm 0.00 in0.0 mm 0.00 in0.0 mm
02:58 PM 42.3°F5.7°C 27.1°F-2.7°C 55% 8.0 mph W12.9 kmh W -- 29.58 in1001.7 mb 0.00 in0.0 mm 0.00 in0.0 mm 0.00 in0.0 mm
02:59 PM 42.3°F5.7°C 27.1°F-2.7°C 55% 10.0 mph W16.1 kmh W -- 29.58 in1001.7 mb 0.00 in0.0 mm 0.00 in0.0 mm 0.00 in0.0 mm
03:00 PM 42.3°F5.7°C 27.1°F-2.7°C 55% 6.0 mph W9.7 kmh W -- 29.58 in1001.7 mb 0.00 in0.0 mm 0.00 in0.0 mm 0.00 in0.0 mm
03:01 PM 42.4°F5.8°C 26.8°F-2.9°C 54% 7.0 mph W11.3 kmh W -- 29.58 in1001.7 mb 0.00 in0.0 mm 0.00 in0.0 mm 0.00 in0.0 mm
03:02 PM 42.3°F5.7°C 27.1°F-2.7°C 55% 10.0 mph W16.1 kmh W -- 29.58 in1001.7 mb 0.00 in0.0 mm 0.00 in0.0 mm 0.00 in0.0 mm
03:03 PM 42.4°F5.8°C 26.8°F-2.9°C 54% 8.0 mph W12.9 kmh W -- 29.58 in1001.7 mb 0.00 in0.0 mm 0.00 in0.0 mm 0.00 in0.0 mm
03:04 PM 42.4°F5.8°C 27.2°F-2.7°C 55% 7.0 mph W11.3 kmh W -- 29.58 in1001.7 mb 0.00 in0.0 mm 0.00 in0.0 mm 0.00 in0.0 mm
03:05 PM 42.4°F5.8°C 27.2°F-2.7°C 55% 4.0 mph W6.4 kmh W -- 29.58 in1001.7 mb 0.00 in0.0 mm 0.00 in0.0 mm 0.00 in0.0 mm
03:06 PM 42.4°F5.8°C 27.2°F-2.7°C 55% 6.0 mph W9.7 kmh W -- 29.58 in1001.7 mb 0.00 in0.0 mm 0.00 in0.0 mm 0.00 in0.0 mm
03:07 PM 42.5°F5.8°C 27.2°F-2.7°C 55% 8.0 mph W12.9 kmh W -- 29.58 in1001.7 mb 0.00 in0.0 mm 0.00 in0.0 mm 0.00 in0.0 mm
03:08 PM 42.5°F5.8°C 27.2°F-2.7°C 55% 7.0 mph WNW11.3 kmh WNW -- 29.58 in1001.7 mb 0.00 in0.0 mm 0.00 in0.0 mm 0.00 in0.0 mm
03:09 PM 42.5°F5.8°C 27.2°F-2.7°C 55% 6.0 mph W9.7 kmh W -- 29.58 in1001.7 mb 0.00 in0.0 mm 0.00 in0.0 mm 0.00 in0.0 mm
03:10 PM 42.5°F5.8°C 27.2°F-2.7°C 55% 9.0 mph W14.5 kmh W -- 29.58 in1001.7 mb 0.00 in0.0 mm 0.00 in0.0 mm 0.00 in0.0 mm
03:11 PM 42.5°F5.8°C 27.2°F-2.7°C 55% 8.0 mph W12.9 kmh W -- 29.58 in1001.7 mb 0.00 in0.0 mm 0.00 in0.0 mm 0.00 in0.0 mm
03:12 PM 42.6°F5.9°C 27.4°F-2.6°C 55% 9.0 mph W14.5 kmh W -- 29.58 in1001.7 mb 0.00 in0.0 mm 0.00 in0.0 mm 0.00 in0.0 mm
03:13 PM 42.5°F5.8°C 27.2°F-2.7°C 55% 7.0 mph W11.3 kmh W -- 29.58 in1001.7 mb 0.00 in0.0 mm 0.00 in0.0 mm 0.00 in0.0 mm
03:14 PM 42.5°F5.8°C 27.2°F-2.7°C 55% 8.0 mph W12.9 kmh W -- 29.58 in1001.7 mb 0.00 in0.0 mm 0.00 in0.0 mm 0.00 in0.0 mm
03:15 PM 42.5°F5.8°C 27.2°F-2.7°C 55% 11.0 mph W17.7 kmh W -- 29.58 in1001.7 mb 0.00 in0.0 mm 0.00 in0.0 mm 0.00 in0.0 mm
03:16 PM 42.5°F5.8°C 26.8°F-2.9°C 54% 11.0 mph W17.7 kmh W -- 29.59 in1002.0 mb 0.00 in0.0 mm 0.00 in0.0 mm 0.00 in0.0 mm
03:17 PM 42.5°F5.8°C 26.8°F-2.9°C 54% 5.0 mph W8.0 kmh W -- 29.58 in1001.7 mb 0.00 in0.0 mm 0.00 in0.0 mm 0.00 in0.0 mm
03:18 PM 42.4°F5.8°C 27.2°F-2.7°C 55% 8.0 mph WNW12.9 kmh WNW -- 29.59 in1002.0 mb 0.00 in0.0 mm 0.00 in0.0 mm 0.00 in0.0 mm
03:19 PM 42.4°F5.8°C 27.2°F-2.7°C 55% 8.0 mph W12.9 kmh W -- 29.59 in1002.0 mb 0.00 in0.0 mm 0.00 in0.0 mm 0.00 in0.0 mm
03:20 PM 42.3°F5.7°C 27.1°F-2.7°C 55% 8.0 mph W12.9 kmh W -- 29.59 in1002.0 mb 0.00 in0.0 mm 0.00 in0.0 mm 0.00 in0.0 mm
03:21 PM 42.3°F5.7°C 27.1°F-2.7°C 55% 9.0 mph W14.5 kmh W -- 29.59 in1002.0 mb 0.00 in0.0 mm 0.00 in0.0 mm 0.00 in0.0 mm
03:22 PM 42.4°F5.8°C 27.2°F-2.7°C 55% 9.0 mph W14.5 kmh W -- 29.59 in1002.0 mb 0.00 in0.0 mm 0.00 in0.0 mm 0.00 in0.0 mm
03:24 PM 42.3°F5.7°C 27.1°F-2.7°C 55% 8.0 mph W12.9 kmh W -- 29.59 in1002.0 mb 0.00 in0.0 mm 0.00 in0.0 mm 0.00 in0.0 mm
03:25 PM 42.1°F5.6°C 26.9°F-2.8°C 55% 8.0 mph WNW12.9 kmh WNW -- 29.59 in1002.0 mb 0.00 in0.0 mm 0.00 in0.0 mm 0.00 in0.0 mm
03:26 PM 41.9°F5.5°C 26.7°F-2.9°C 55% 13.0 mph W20.9 kmh W -- 29.59 in1002.0 mb 0.00 in0.0 mm 0.00 in0.0 mm 0.00 in0.0 mm
03:27 PM 41.7°F5.4°C 26.6°F-3.0°C 55% 7.0 mph SW11.3 kmh SW -- 29.59 in1002.0 mb 0.00 in0.0 mm 0.00 in0.0 mm 0.00 in0.0 mm
03:28 PM 41.7°F5.4°C 26.6°F-3.0°C 55% 8.0 mph NW12.9 kmh NW -- 29.59 in1002.0 mb 0.00 in0.0 mm 0.00 in0.0 mm 0.00 in0.0 mm
03:29 PM 41.7°F5.4°C 26.6°F-3.0°C 55% 8.0 mph W12.9 kmh W -- 29.59 in1002.0 mb 0.00 in0.0 mm 0.00 in0.0 mm 0.00 in0.0 mm
03:30 PM 41.9°F5.5°C 26.7°F-2.9°C 55% 6.0 mph WNW9.7 kmh WNW -- 29.59 in1002.0 mb 0.00 in0.0 mm 0.00 in0.0 mm 0.00 in0.0 mm
03:32 PM 42.1°F5.6°C 26.9°F-2.8°C 55% 8.0 mph W12.9 kmh W -- 29.59 in1002.0 mb 0.00 in0.0 mm 0.00 in0.0 mm 0.00 in0.0 mm
03:33 PM 42.1°F5.6°C 26.9°F-2.8°C 55% 9.0 mph WNW14.5 kmh WNW -- 29.59 in1002.0 mb 0.00 in0.0 mm 0.00 in0.0 mm 0.00 in0.0 mm
03:34 PM 42.3°F5.7°C 27.1°F-2.7°C 55% 7.0 mph W11.3 kmh W -- 29.59 in1002.0 mb 0.00 in0.0 mm 0.00 in0.0 mm 0.00 in0.0 mm
03:35 PM 42.3°F5.7°C 27.1°F-2.7°C 55% 5.0 mph W8.0 kmh W -- 29.59 in1002.0 mb 0.00 in0.0 mm 0.00 in0.0 mm 0.00 in0.0 mm
03:36 PM 42.3°F5.7°C 27.1°F-2.7°C 55% 6.0 mph W9.7 kmh W -- 29.59 in1002.0 mb 0.00 in0.0 mm 0.00 in0.0 mm 0.00 in0.0 mm
03:37 PM 42.3°F5.7°C 27.5°F-2.5°C 56% 6.0 mph SSW9.7 kmh SSW -- 29.59 in1002.0 mb 0.00 in0.0 mm 0.00 in0.0 mm 0.00 in0.0 mm
03:38 PM 42.4°F5.8°C 27.2°F-2.7°C 55% 9.0 mph WSW14.5 kmh WSW -- 29.59 in1002.0 mb 0.00 in0.0 mm 0.00 in0.0 mm 0.00 in0.0 mm
03:39 PM 42.4°F5.8°C 27.2°F-2.7°C 55% 7.0 mph W11.3 kmh W -- 29.59 in1002.0 mb 0.00 in0.0 mm 0.00 in0.0 mm 0.00 in0.0 mm
03:40 PM 42.4°F5.8°C 27.2°F-2.7°C 55% 6.0 mph WNW9.7 kmh WNW -- 29.59 in1002.0 mb 0.00 in0.0 mm 0.00 in0.0 mm 0.00 in0.0 mm
03:41 PM 42.5°F5.8°C 27.2°F-2.7°C 55% 5.0 mph WNW8.0 kmh WNW -- 29.59 in1002.0 mb 0.00 in0.0 mm 0.00 in0.0 mm 0.00 in0.0 mm
03:42 PM 42.6°F5.9°C 27.9°F-2.3°C 56% 5.0 mph WNW8.0 kmh WNW -- 29.59 in1002.0 mb 0.00 in0.0 mm 0.00 in0.0 mm 0.00 in0.0 mm
03:43 PM 42.5°F5.8°C 27.2°F-2.7°C 55% 5.0 mph WNW8.0 kmh WNW -- 29.59 in1002.0 mb 0.00 in0.0 mm 0.00 in0.0 mm 0.00 in0.0 mm
03:44 PM 42.5°F5.8°C 27.7°F-2.4°C 56% 9.0 mph W14.5 kmh W -- 29.59 in1002.0 mb 0.00 in0.0 mm 0.00 in0.0 mm 0.00 in0.0 mm
03:45 PM 42.7°F5.9°C 27.4°F-2.6°C 55% 6.0 mph W9.7 kmh W -- 29.59 in1002.0 mb 0.00 in0.0 mm 0.00 in0.0 mm 0.00 in0.0 mm
03:46 PM 42.7°F5.9°C 27.4°F-2.6°C 55% 7.0 mph W11.3 kmh W -- 29.59 in1002.0 mb 0.00 in0.0 mm 0.00 in0.0 mm 0.00 in0.0 mm
03:47 PM 42.7°F5.9°C 27.4°F-2.6°C 55% 8.0 mph W12.9 kmh W -- 29.59 in1002.0 mb 0.00 in0.0 mm 0.00 in0.0 mm 0.00 in0.0 mm
03:48 PM 43.0°F6.1°C 27.8°F-2.3°C 55% 6.0 mph WNW9.7 kmh WNW -- 29.59 in1002.0 mb 0.00 in0.0 mm 0.00 in0.0 mm 0.00 in0.0 mm
03:49 PM 42.7°F5.9°C 27.4°F-2.6°C 55% 5.0 mph W8.0 kmh W -- 29.59 in1002.0 mb 0.00 in0.0 mm 0.00 in0.0 mm 0.00 in0.0 mm
03:51 PM 42.5°F5.8°C 27.2°F-2.7°C 55% 6.0 mph WSW9.7 kmh WSW -- 29.59 in1002.0 mb 0.00 in0.0 mm 0.00 in0.0 mm 0.00 in0.0 mm
03:52 PM 42.4°F5.8°C 27.7°F-2.4°C 56% 5.0 mph WNW8.0 kmh WNW -- 29.59 in1002.0 mb 0.00 in0.0 mm 0.00 in0.0 mm 0.00 in0.0 mm
03:53 PM 42.5°F5.8°C 27.2°F-2.7°C 55% 6.0 mph W9.7 kmh W -- 29.59 in1002.0 mb 0.00 in0.0 mm 0.00 in0.0 mm 0.00 in0.0 mm
03:55 PM 42.5°F5.8°C 27.2°F-2.7°C 55% 4.0 mph SSW6.4 kmh SSW -- 29.59 in1002.0 mb 0.00 in0.0 mm 0.00 in0.0 mm 0.00 in0.0 mm
03:56 PM 42.7°F5.9°C 27.4°F-2.6°C 55% 5.0 mph W8.0 kmh W -- 29.59 in1002.0 mb 0.00 in0.0 mm 0.00 in0.0 mm 0.00 in0.0 mm
03:57 PM 42.7°F5.9°C 27.4°F-2.6°C 55% 6.0 mph W9.7 kmh W -- 29.59 in1002.0 mb 0.00 in0.0 mm 0.00 in0.0 mm 0.00 in0.0 mm
03:58 PM 42.7°F5.9°C 27.4°F-2.6°C 55% 4.0 mph W6.4 kmh W -- 29.59 in1002.0 mb 0.00 in0.0 mm 0.00 in0.0 mm 0.00 in0.0 mm
03:59 PM 43.0°F6.1°C 27.8°F-2.3°C 55% 8.0 mph W12.9 kmh W -- 29.59 in1002.0 mb 0.00 in0.0 mm 0.00 in0.0 mm 0.00 in0.0 mm
04:00 PM 43.2°F6.2°C 27.9°F-2.3°C 55% 5.0 mph WNW8.0 kmh WNW -- 29.59 in1002.0 mb 0.00 in0.0 mm 0.00 in0.0 mm 0.00 in0.0 mm
04:02 PM 43.2°F6.2°C 27.9°F-2.3°C 55% 5.0 mph W8.0 kmh W -- 29.59 in1002.0 mb 0.00 in0.0 mm 0.00 in0.0 mm 0.00 in0.0 mm
04:03 PM 43.2°F6.2°C 27.9°F-2.3°C 55% 6.0 mph W9.7 kmh W -- 29.59 in1002.0 mb 0.00 in0.0 mm 0.00 in0.0 mm 0.00 in0.0 mm
04:04 PM 43.2°F6.2°C 27.9°F-2.3°C 55% 6.0 mph NNW9.7 kmh NNW -- 29.59 in1002.0 mb 0.00 in0.0 mm 0.00 in0.0 mm 0.00 in0.0 mm
04:05 PM 43.2°F6.2°C 27.9°F-2.3°C 55% 4.0 mph WNW6.4 kmh WNW -- 29.60 in1002.4 mb 0.00 in0.0 mm 0.00 in0.0 mm 0.00 in0.0 mm
04:06 PM 42.7°F5.9°C 27.4°F-2.6°C 55% 5.0 mph W8.0 kmh W -- 29.60 in1002.4 mb 0.00 in0.0 mm 0.00 in0.0 mm 0.00 in0.0 mm
04:07 PM 42.4°F5.8°C 27.2°F-2.7°C 55% 4.0 mph W6.4 kmh W -- 29.59 in1002.0 mb 0.00 in0.0 mm 0.00 in0.0 mm 0.00 in0.0 mm
04:08 PM 42.5°F5.8°C 27.2°F-2.7°C 55% 5.0 mph W8.0 kmh W -- 29.59 in1002.0 mb 0.00 in0.0 mm 0.00 in0.0 mm 0.00 in0.0 mm
04:09 PM 42.5°F5.8°C 27.2°F-2.7°C 55% 6.0 mph W9.7 kmh W -- 29.60 in1002.4 mb 0.00 in0.0 mm 0.00 in0.0 mm 0.00 in0.0 mm
04:10 PM 42.7°F5.9°C 27.4°F-2.6°C 55% 8.0 mph W12.9 kmh W -- 29.59 in1002.0 mb 0.00 in0.0 mm 0.00 in0.0 mm 0.00 in0.0 mm
04:11 PM 42.4°F5.8°C 27.2°F-2.7°C 55% 4.0 mph W6.4 kmh W -- 29.59 in1002.0 mb 0.00 in0.0 mm 0.00 in0.0 mm 0.00 in0.0 mm
04:12 PM 42.4°F5.8°C 27.2°F-2.7°C 55% 5.0 mph W8.0 kmh W -- 29.59 in1002.0 mb 0.00 in0.0 mm 0.00 in0.0 mm 0.00 in0.0 mm
04:13 PM 42.5°F5.8°C 27.2°F-2.7°C 55% 6.0 mph W9.7 kmh W -- 29.59 in1002.0 mb 0.00 in0.0 mm 0.00 in0.0 mm 0.00 in0.0 mm
04:14 PM 42.4°F5.8°C 27.2°F-2.7°C 55% 7.0 mph W11.3 kmh W -- 29.59 in1002.0 mb 0.00 in0.0 mm 0.00 in0.0 mm 0.00 in0.0 mm
04:15 PM 42.5°F5.8°C 27.2°F-2.7°C 55% 5.0 mph W8.0 kmh W -- 29.59 in1002.0 mb 0.00 in0.0 mm 0.00 in0.0 mm 0.00 in0.0 mm
04:16 PM 42.7°F5.9°C 27.4°F-2.6°C 55% 8.0 mph W12.9 kmh W -- 29.59 in1002.0 mb 0.00 in0.0 mm 0.00 in0.0 mm 0.00 in0.0 mm
04:17 PM 42.7°F5.9°C 27.4°F-2.6°C 55% 6.0 mph W9.7 kmh W -- 29.60 in1002.4 mb 0.00 in0.0 mm 0.00 in0.0 mm 0.00 in0.0 mm
04:19 PM 43.0°F6.1°C 27.8°F-2.3°C 55% 7.0 mph W11.3 kmh W -- 29.59 in1002.0 mb 0.00 in0.0 mm 0.00 in0.0 mm 0.00 in0.0 mm
04:20 PM 43.0°F6.1°C 27.8°F-2.3°C 55% 10.0 mph W16.1 kmh W -- 29.59 in1002.0 mb 0.00 in0.0 mm 0.00 in0.0 mm 0.00 in0.0 mm
04:21 PM 43.2°F6.2°C 27.5°F-2.5°C 54% 7.0 mph W11.3 kmh W -- 29.59 in1002.0 mb 0.00 in0.0 mm 0.00 in0.0 mm 0.00 in0.0 mm
04:22 PM 43.2°F6.2°C 27.5°F-2.5°C 54% 5.0 mph WNW8.0 kmh WNW -- 29.59 in1002.0 mb 0.00 in0.0 mm 0.00 in0.0 mm 0.00 in0.0 mm
04:27 PM 43.3°F6.3°C 27.6°F-2.4°C 54% 5.0 mph W8.0 kmh W -- 29.59 in1002.0 mb 0.00 in0.0 mm 0.00 in0.0 mm 0.00 in0.0 mm
04:28 PM 43.4°F6.3°C 27.2°F-2.7°C 53% 5.0 mph W8.0 kmh W -- 29.60 in1002.4 mb 0.00 in0.0 mm 0.00 in0.0 mm 0.00 in0.0 mm
04:29 PM 43.4°F6.3°C 27.2°F-2.7°C 53% 7.0 mph WNW11.3 kmh WNW -- 29.60 in1002.4 mb 0.00 in0.0 mm 0.00 in0.0 mm 0.00 in0.0 mm
04:30 PM 42.7°F5.9°C 27.0°F-2.8°C 54% 6.0 mph W9.7 kmh W -- 29.60 in1002.4 mb 0.00 in0.0 mm 0.00 in0.0 mm 0.00 in0.0 mm
04:31 PM 43.0°F6.1°C 26.8°F-2.9°C 53% 8.0 mph W12.9 kmh W -- 29.60 in1002.4 mb 0.00 in0.0 mm 0.00 in0.0 mm 0.00 in0.0 mm
04:32 PM 42.7°F5.9°C 26.5°F-3.1°C 53% 10.0 mph W16.1 kmh W -- 29.60 in1002.4 mb 0.00 in0.0 mm 0.00 in0.0 mm 0.00 in0.0 mm
04:33 PM 42.4°F5.8°C 26.8°F-2.9°C 54% 5.0 mph W8.0 kmh W -- 29.60 in1002.4 mb 0.00 in0.0 mm 0.00 in0.0 mm 0.00 in0.0 mm
04:34 PM 42.3°F5.7°C 27.1°F-2.7°C 55% 6.0 mph W9.7 kmh W -- 29.60 in1002.4 mb 0.00 in0.0 mm 0.00 in0.0 mm 0.00 in0.0 mm
04:35 PM 42.5°F5.8°C 26.8°F-2.9°C 54% 7.0 mph W11.3 kmh W -- 29.60 in1002.4 mb 0.00 in0.0 mm 0.00 in0.0 mm 0.00 in0.0 mm
04:36 PM 43.0°F6.1°C 27.3°F-2.6°C 54% 8.0 mph W12.9 kmh W -- 29.60 in1002.4 mb 0.00 in0.0 mm 0.00 in0.0 mm 0.00 in0.0 mm
04:37 PM 43.2°F6.2°C 27.5°F-2.5°C 54% 5.0 mph W8.0 kmh W -- 29.60 in1002.4 mb 0.00 in0.0 mm 0.00 in0.0 mm 0.00 in0.0 mm
04:38 PM 43.6°F6.4°C 27.3°F-2.6°C 53% 6.0 mph WNW9.7 kmh WNW -- 29.60 in1002.4 mb 0.00 in0.0 mm 0.00 in0.0 mm 0.00 in0.0 mm
04:39 PM 43.6°F6.4°C 27.3°F-2.6°C 53% 5.0 mph WNW8.0 kmh WNW -- 29.60 in1002.4 mb 0.00 in0.0 mm 0.00 in0.0 mm 0.00 in0.0 mm
04:40 PM 44.0°F6.7°C 27.9°F-2.3°C 53% 6.0 mph WNW9.7 kmh WNW -- 29.60 in1002.4 mb 0.00 in0.0 mm 0.00 in0.0 mm 0.00 in0.0 mm
04:41 PM 44.2°F6.8°C 28.0°F-2.2°C 53% 4.0 mph W6.4 kmh W -- 29.60 in1002.4 mb 0.00 in0.0 mm 0.00 in0.0 mm 0.00 in0.0 mm
04:42 PM 44.0°F6.7°C 28.3°F-2.1°C 54% 6.0 mph W9.7 kmh W -- 29.60 in1002.4 mb 0.00 in0.0 mm 0.00 in0.0 mm 0.00 in0.0 mm
04:43 PM 43.6°F6.4°C 27.8°F-2.3°C 54% 6.0 mph W9.7 kmh W -- 29.60 in1002.4 mb 0.00 in0.0 mm 0.00 in0.0 mm 0.00 in0.0 mm
04:44 PM 43.6°F6.4°C 27.8°F-2.3°C 54% 6.0 mph WNW9.7 kmh WNW -- 29.60 in1002.4 mb 0.00 in0.0 mm 0.00 in0.0 mm 0.00 in0.0 mm
04:45 PM 43.9°F6.6°C 28.1°F-2.2°C 54% 7.0 mph WNW11.3 kmh WNW -- 29.60 in1002.4 mb 0.00 in0.0 mm 0.00 in0.0 mm 0.00 in0.0 mm
04:46 PM 43.4°F6.3°C 27.6°F-2.4°C 54% 6.0 mph W9.7 kmh W -- 29.60 in1002.4 mb 0.00 in0.0 mm 0.00 in0.0 mm 0.00 in0.0 mm
04:47 PM 43.2°F6.2°C 27.5°F-2.5°C 54% 8.0 mph W12.9 kmh W -- 29.60 in1002.4 mb 0.00 in0.0 mm 0.00 in0.0 mm 0.00 in0.0 mm
04:48 PM 43.2°F6.2°C 27.0°F-2.8°C 53% 5.0 mph W8.0 kmh W -- 29.60 in1002.4 mb 0.00 in0.0 mm 0.00 in0.0 mm 0.00 in0.0 mm
04:49 PM 42.5°F5.8°C 26.8°F-2.9°C 54% 5.0 mph W8.0 kmh W -- 29.60 in1002.4 mb 0.00 in0.0 mm 0.00 in0.0 mm 0.00 in0.0 mm
04:50 PM 42.4°F5.8°C 26.8°F-2.9°C 54% 6.0 mph WNW9.7 kmh WNW -- 29.60 in1002.4 mb 0.00 in0.0 mm 0.00 in0.0 mm 0.00 in0.0 mm
04:51 PM 41.7°F5.4°C 26.6°F-3.0°C 55% 4.0 mph WNW6.4 kmh WNW -- 29.60 in1002.4 mb 0.00 in0.0 mm 0.00 in0.0 mm 0.00 in0.0 mm
04:52 PM 41.4°F5.2°C 26.7°F-2.9°C 56% 5.0 mph WNW8.0 kmh WNW -- 29.60 in1002.4 mb 0.00 in0.0 mm 0.00 in0.0 mm 0.00 in0.0 mm
04:53 PM 41.1°F5.1°C 26.5°F-3.1°C 56% 6.0 mph W9.7 kmh W -- 29.60 in1002.4 mb 0.00 in0.0 mm 0.00 in0.0 mm 0.00 in0.0 mm
04:54 PM 40.9°F4.9°C 26.2°F-3.2°C 56% 4.0 mph W6.4 kmh W -- 29.60 in1002.4 mb 0.00 in0.0 mm 0.00 in0.0 mm 0.00 in0.0 mm
04:55 PM 40.7°F4.8°C 26.9°F-2.8°C 58% 4.0 mph W6.4 kmh W -- 29.60 in1002.4 mb 0.00 in0.0 mm 0.00 in0.0 mm 0.00 in0.0 mm
04:56 PM 40.5°F4.7°C 26.7°F-2.9°C 58% 7.0 mph NW11.3 kmh NW -- 29.61 in1002.7 mb 0.00 in0.0 mm 0.00 in0.0 mm 0.00 in0.0 mm
04:57 PM 40.5°F4.7°C 25.8°F-3.4°C 56% 5.0 mph W8.0 kmh W -- 29.61 in1002.7 mb 0.00 in0.0 mm 0.00 in0.0 mm 0.00 in0.0 mm
04:58 PM 40.5°F4.7°C 25.8°F-3.4°C 56% 4.0 mph WNW6.4 kmh WNW -- 29.61 in1002.7 mb 0.00 in0.0 mm 0.00 in0.0 mm 0.00 in0.0 mm
04:59 PM 40.0°F4.4°C 26.2°F-3.2°C 58% 7.0 mph W11.3 kmh W -- 29.61 in1002.7 mb 0.00 in0.0 mm 0.00 in0.0 mm 0.00 in0.0 mm
05:00 PM 40.0°F4.4°C 26.2°F-3.2°C 58% 6.0 mph W9.7 kmh W -- 29.61 in1002.7 mb 0.00 in0.0 mm 0.00 in0.0 mm 0.00 in0.0 mm
05:01 PM 39.9°F4.4°C 26.2°F-3.2°C 58% 5.0 mph WNW8.0 kmh WNW -- 29.61 in1002.7 mb 0.00 in0.0 mm 0.00 in0.0 mm 0.00 in0.0 mm
05:02 PM 39.5°F4.2°C 26.7°F-2.9°C 60% 5.0 mph NW8.0 kmh NW -- 29.61 in1002.7 mb 0.00 in0.0 mm 0.00 in0.0 mm 0.00 in0.0 mm
05:03 PM 39.2°F4.0°C 26.3°F-3.2°C 60% 5.0 mph W8.0 kmh W -- 29.61 in1002.7 mb 0.00 in0.0 mm 0.00 in0.0 mm 0.00 in0.0 mm
05:05 PM 39.2°F4.0°C 25.9°F-3.4°C 59% 6.0 mph WNW9.7 kmh WNW -- 29.61 in1002.7 mb 0.00 in0.0 mm 0.00 in0.0 mm 0.00 in0.0 mm
05:06 PM 39.0°F3.9°C 25.7°F-3.5°C 59% 4.0 mph W6.4 kmh W -- 29.61 in1002.7 mb 0.00 in0.0 mm 0.00 in0.0 mm 0.00 in0.0 mm
05:07 PM 39.0°F3.9°C 25.7°F-3.5°C 59% 5.0 mph WNW8.0 kmh WNW -- 29.61 in1002.7 mb 0.00 in0.0 mm 0.00 in0.0 mm 0.00 in0.0 mm
05:08 PM 39.0°F3.9°C 25.7°F-3.5°C 59% 4.0 mph W6.4 kmh W -- 29.61 in1002.7 mb 0.00 in0.0 mm 0.00 in0.0 mm 0.00 in0.0 mm
05:09 PM 38.7°F3.7°C 25.4°F-3.7°C 59% 6.0 mph W9.7 kmh W -- 29.61 in1002.7 mb 0.00 in0.0 mm 0.00 in0.0 mm 0.00 in0.0 mm
05:10 PM 38.7°F3.7°C 25.8°F-3.4°C 60% 6.0 mph W9.7 kmh W -- 29.61 in1002.7 mb 0.00 in0.0 mm 0.00 in0.0 mm 0.00 in0.0 mm
05:11 PM 38.7°F3.7°C 25.4°F-3.7°C 59% 6.0 mph WNW9.7 kmh WNW -- 29.61 in1002.7 mb 0.00 in0.0 mm 0.00 in0.0 mm 0.00 in0.0 mm
05:12 PM 38.7°F3.7°C 25.8°F-3.4°C 60% 6.0 mph WNW9.7 kmh WNW -- 29.61 in1002.7 mb 0.00 in0.0 mm 0.00 in0.0 mm 0.00 in0.0 mm
05:13 PM 38.7°F3.7°C 25.8°F-3.4°C 60% 4.0 mph W6.4 kmh W -- 29.61 in1002.7 mb 0.00 in0.0 mm 0.00 in0.0 mm 0.00 in0.0 mm
05:14 PM 38.7°F3.7°C 25.8°F-3.4°C 60% 5.0 mph WNW8.0 kmh WNW -- 29.61 in1002.7 mb 0.00 in0.0 mm 0.00 in0.0 mm 0.00 in0.0 mm
05:15 PM 38.4°F3.6°C 26.1°F-3.3°C 61% 4.0 mph WNW6.4 kmh WNW -- 29.61 in1002.7 mb 0.00 in0.0 mm 0.00 in0.0 mm 0.00 in0.0 mm
05:16 PM 38.4°F3.6°C 26.1°F-3.3°C 61% 5.0 mph WNW8.0 kmh WNW -- 29.61 in1002.7 mb 0.00 in0.0 mm 0.00 in0.0 mm 0.00 in0.0 mm
05:17 PM 38.7°F3.7°C 26.2°F-3.2°C 61% 5.0 mph WNW8.0 kmh WNW -- 29.61 in1002.7 mb 0.00 in0.0 mm 0.00 in0.0 mm 0.00 in0.0 mm
05:18 PM 39.0°F3.9°C 26.6°F-3.0°C 61% 6.0 mph WNW9.7 kmh WNW -- 29.61 in1002.7 mb 0.00 in0.0 mm 0.00 in0.0 mm 0.00 in0.0 mm
05:19 PM 39.5°F4.2°C 26.7°F-2.9°C 60% 6.0 mph WNW9.7 kmh WNW -- 29.61 in1002.7 mb 0.00 in0.0 mm 0.00 in0.0 mm 0.00 in0.0 mm
05:20 PM 40.0°F4.4°C 27.0°F-2.8°C 60% 5.0 mph WNW8.0 kmh WNW -- 29.61 in1002.7 mb 0.00 in0.0 mm 0.00 in0.0 mm 0.00 in0.0 mm
05:21 PM 40.2°F4.6°C 27.3°F-2.6°C 60% 4.0 mph W6.4 kmh W -- 29.61 in1002.7 mb 0.00 in0.0 mm 0.00 in0.0 mm 0.00 in0.0 mm
05:22 PM 40.5°F4.7°C 27.1°F-2.7°C 59% 4.0 mph W6.4 kmh W -- 29.61 in1002.7 mb 0.00 in0.0 mm 0.00 in0.0 mm 0.00 in0.0 mm
05:23 PM 40.5°F4.7°C 27.1°F-2.7°C 59% 7.0 mph W11.3 kmh W -- 29.61 in1002.7 mb 0.00 in0.0 mm 0.00 in0.0 mm 0.00 in0.0 mm
05:24 PM 40.5°F4.7°C 26.7°F-2.9°C 58% 6.0 mph WSW9.7 kmh WSW -- 29.62 in1003.0 mb 0.00 in0.0 mm 0.00 in0.0 mm 0.00 in0.0 mm
05:25 PM 40.5°F4.7°C 26.7°F-2.9°C 58% 3.0 mph W4.8 kmh W -- 29.62 in1003.0 mb 0.00 in0.0 mm 0.00 in0.0 mm 0.00 in0.0 mm
05:26 PM 40.5°F4.7°C 27.1°F-2.7°C 59% 4.0 mph W6.4 kmh W -- 29.62 in1003.0 mb 0.00 in0.0 mm 0.00 in0.0 mm 0.00 in0.0 mm
05:27 PM 40.9°F4.9°C 27.4°F-2.6°C 59% 6.0 mph WNW9.7 kmh WNW -- 29.62 in1003.0 mb 0.00 in0.0 mm 0.00 in0.0 mm 0.00 in0.0 mm
05:28 PM 41.1°F5.1°C 27.4°F-2.6°C 58% 5.0 mph W8.0 kmh W -- 29.61 in1002.7 mb 0.00 in0.0 mm 0.00 in0.0 mm 0.00 in0.0 mm
05:29 PM 41.5°F5.3°C 26.8°F-2.9°C 56% 5.0 mph W8.0 kmh W -- 29.61 in1002.7 mb 0.00 in0.0 mm 0.00 in0.0 mm 0.00 in0.0 mm
05:30 PM 41.4°F5.2°C 26.7°F-2.9°C 56% 7.0 mph WNW11.3 kmh WNW -- 29.62 in1003.0 mb 0.00 in0.0 mm 0.00 in0.0 mm 0.00 in0.0 mm
05:31 PM 41.5°F5.3°C 26.8°F-2.9°C 56% 7.0 mph W11.3 kmh W -- 29.62 in1003.0 mb 0.00 in0.0 mm 0.00 in0.0 mm 0.00 in0.0 mm
05:32 PM 41.4°F5.2°C 27.5°F-2.5°C 58% 5.0 mph W8.0 kmh W -- 29.62 in1003.0 mb 0.00 in0.0 mm 0.00 in0.0 mm 0.00 in0.0 mm
05:33 PM 41.5°F5.3°C 27.7°F-2.4°C 58% 4.0 mph W6.4 kmh W -- 29.62 in1003.0 mb 0.00 in0.0 mm 0.00 in0.0 mm 0.00 in0.0 mm
05:34 PM 41.7°F5.4°C 27.0°F-2.8°C 56% 6.0 mph W9.7 kmh W -- 29.62 in1003.0 mb 0.00 in0.0 mm 0.00 in0.0 mm 0.00 in0.0 mm
05:35 PM 41.7°F5.4°C 27.0°F-2.8°C 56% 4.0 mph W6.4 kmh W -- 29.62 in1003.0 mb 0.00 in0.0 mm 0.00 in0.0 mm 0.00 in0.0 mm
05:36 PM 41.4°F5.2°C 26.7°F-2.9°C 56% 4.0 mph W6.4 kmh W -- 29.62 in1003.0 mb 0.00 in0.0 mm 0.00 in0.0 mm 0.00 in0.0 mm
05:37 PM 40.9°F4.9°C 27.0°F-2.8°C 58% 6.0 mph SW9.7 kmh SW -- 29.62 in1003.0 mb 0.00 in0.0 mm 0.00 in0.0 mm 0.00 in0.0 mm
05:38 PM 40.5°F4.7°C 27.1°F-2.7°C 59% 6.0 mph W9.7 kmh W -- 29.62 in1003.0 mb 0.00 in0.0 mm 0.00 in0.0 mm 0.00 in0.0 mm
05:39 PM 40.5°F4.7°C 27.1°F-2.7°C 59% 4.0 mph W6.4 kmh W -- 29.62 in1003.0 mb 0.00 in0.0 mm 0.00 in0.0 mm 0.00 in0.0 mm
05:40 PM 40.5°F4.7°C 27.1°F-2.7°C 59% 7.0 mph W11.3 kmh W -- 29.62 in1003.0 mb 0.00 in0.0 mm 0.00 in0.0 mm 0.00 in0.0 mm
05:41 PM 40.7°F4.8°C 27.3°F-2.6°C 59% 5.0 mph W8.0 kmh W -- 29.62 in1003.0 mb 0.00 in0.0 mm 0.00 in0.0 mm 0.00 in0.0 mm
05:42 PM 40.5°F4.7°C 27.5°F-2.5°C 60% 4.0 mph NNW6.4 kmh NNW -- 29.62 in1003.0 mb 0.00 in0.0 mm 0.00 in0.0 mm 0.00 in0.0 mm
05:43 PM 40.5°F4.7°C 27.5°F-2.5°C 60% 5.0 mph W8.0 kmh W -- 29.62 in1003.0 mb 0.00 in0.0 mm 0.00 in0.0 mm 0.00 in0.0 mm
05:44 PM 40.2°F4.6°C 27.3°F-2.6°C 60% 5.0 mph W8.0 kmh W -- 29.62 in1003.0 mb 0.00 in0.0 mm 0.00 in0.0 mm 0.00 in0.0 mm
05:45 PM 39.9°F4.4°C 27.4°F-2.6°C 61% 10.0 mph WNW16.1 kmh WNW -- 29.62 in1003.0 mb 0.00 in0.0 mm 0.00 in0.0 mm 0.00 in0.0 mm
05:46 PM 40.0°F4.4°C 27.4°F-2.6°C 61% 4.0 mph W6.4 kmh W -- 29.62 in1003.0 mb 0.00 in0.0 mm 0.00 in0.0 mm 0.00 in0.0 mm
05:48 PM 39.7°F4.3°C 27.2°F-2.7°C 61% 7.0 mph W11.3 kmh W -- 29.62 in1003.0 mb 0.00 in0.0 mm 0.00 in0.0 mm 0.00 in0.0 mm
05:49 PM 39.5°F4.2°C 27.1°F-2.7°C 61% 2.0 mph W3.2 kmh W -- 29.62 in1003.0 mb 0.00 in0.0 mm 0.00 in0.0 mm 0.00 in0.0 mm
05:50 PM 39.4°F4.1°C 27.7°F-2.4°C 63% 5.0 mph W8.0 kmh W -- 29.62 in1003.0 mb 0.00 in0.0 mm 0.00 in0.0 mm 0.00 in0.0 mm
05:51 PM 39.4°F4.1°C 27.7°F-2.4°C 63% 9.0 mph W14.5 kmh W -- 29.62 in1003.0 mb 0.00 in0.0 mm 0.00 in0.0 mm 0.00 in0.0 mm
05:52 PM 39.2°F4.0°C 27.5°F-2.5°C 63% 7.0 mph WNW11.3 kmh WNW -- 29.62 in1003.0 mb 0.00 in0.0 mm 0.00 in0.0 mm 0.00 in0.0 mm
05:53 PM 38.7°F3.7°C 27.8°F-2.3°C 65% 6.0 mph WNW9.7 kmh WNW -- 29.62 in1003.0 mb 0.00 in0.0 mm 0.00 in0.0 mm 0.00 in0.0 mm
05:54 PM 38.4°F3.6°C 27.6°F-2.4°C 65% 6.0 mph W9.7 kmh W -- 29.62 in1003.0 mb 0.00 in0.0 mm 0.00 in0.0 mm 0.00 in0.0 mm
05:55 PM 38.2°F3.4°C 27.3°F-2.6°C 65% 5.0 mph NW8.0 kmh NW -- 29.62 in1003.0 mb 0.00 in0.0 mm 0.00 in0.0 mm 0.00 in0.0 mm
05:56 PM 38.0°F3.3°C 27.5°F-2.5°C 66% 5.0 mph W8.0 kmh W -- 29.62 in1003.0 mb 0.00 in0.0 mm 0.00 in0.0 mm 0.00 in0.0 mm
05:57 PM 38.0°F3.3°C 27.5°F-2.5°C 66% 6.0 mph WNW9.7 kmh WNW -- 29.62 in1003.0 mb 0.00 in0.0 mm 0.00 in0.0 mm 0.00 in0.0 mm
05:58 PM 37.8°F3.2°C 28.0°F-2.2°C 68% 5.0 mph WNW8.0 kmh WNW -- 29.62 in1003.0 mb 0.00 in0.0 mm 0.00 in0.0 mm 0.00 in0.0 mm
05:59 PM 37.7°F3.2°C 28.4°F-2.0°C 69% 5.0 mph W8.0 kmh W -- 29.63 in1003.4 mb 0.00 in0.0 mm 0.00 in0.0 mm 0.00 in0.0 mm
06:00 PM 37.7°F3.2°C 28.4°F-2.0°C 69% 8.0 mph WNW12.9 kmh WNW -- 29.63 in1003.4 mb 0.00 in0.0 mm 0.00 in0.0 mm 0.00 in0.0 mm
06:01 PM 37.7°F3.2°C 28.4°F-2.0°C 69% 4.0 mph W6.4 kmh W -- 29.63 in1003.4 mb 0.00 in0.0 mm 0.00 in0.0 mm 0.00 in0.0 mm
06:02 PM 37.7°F3.2°C 28.4°F-2.0°C 69% 4.0 mph WNW6.4 kmh WNW -- 29.63 in1003.4 mb 0.00 in0.0 mm 0.00 in0.0 mm 0.00 in0.0 mm
06:03 PM 37.7°F3.2°C 28.4°F-2.0°C 69% 6.0 mph W9.7 kmh W -- 29.63 in1003.4 mb 0.00 in0.0 mm 0.00 in0.0 mm 0.00 in0.0 mm
06:04 PM 37.7°F3.2°C 28.4°F-2.0°C 69% 3.0 mph NW4.8 kmh NW -- 29.63 in1003.4 mb 0.00 in0.0 mm 0.00 in0.0 mm 0.00 in0.0 mm
06:05 PM 37.7°F3.2°C 28.7°F-1.8°C 70% 3.0 mph NW4.8 kmh NW -- 29.63 in1003.4 mb 0.00 in0.0 mm 0.00 in0.0 mm 0.00 in0.0 mm
06:06 PM 37.7°F3.2°C 28.7°F-1.8°C 70% 3.0 mph W4.8 kmh W -- 29.63 in1003.4 mb 0.00 in0.0 mm 0.00 in0.0 mm 0.00 in0.0 mm
06:08 PM 37.8°F3.2°C 28.7°F-1.8°C 70% 2.0 mph W3.2 kmh W -- 29.63 in1003.4 mb 0.00 in0.0 mm 0.00 in0.0 mm 0.00 in0.0 mm
06:09 PM 37.7°F3.2°C 28.7°F-1.8°C 70% 4.0 mph W6.4 kmh W -- 29.63 in1003.4 mb 0.00 in0.0 mm 0.00 in0.0 mm 0.00 in0.0 mm
06:10 PM 37.4°F3.0°C 28.7°F-1.8°C 71% 3.0 mph W4.8 kmh W -- 29.63 in1003.4 mb 0.00 in0.0 mm 0.00 in0.0 mm 0.00 in0.0 mm
06:11 PM 37.4°F3.0°C 28.7°F-1.8°C 71% 5.0 mph W8.0 kmh W -- 29.63 in1003.4 mb 0.00 in0.0 mm 0.00 in0.0 mm 0.00 in0.0 mm
06:12 PM 37.2°F2.9°C 28.6°F-1.9°C 71% 4.0 mph W6.4 kmh W -- 29.63 in1003.4 mb 0.00 in0.0 mm 0.00 in0.0 mm 0.00 in0.0 mm
06:14 PM 37.0°F2.8°C 28.4°F-2.0°C 71% 5.0 mph W8.0 kmh W -- 29.63 in1003.4 mb 0.00 in0.0 mm 0.00 in0.0 mm 0.00 in0.0 mm
06:15 PM 36.9°F2.7°C 28.2°F-2.1°C 71% 6.0 mph W9.7 kmh W -- 29.63 in1003.4 mb 0.00 in0.0 mm 0.00 in0.0 mm 0.00 in0.0 mm
06:16 PM 36.7°F2.6°C 28.7°F-1.8°C 73% 4.0 mph W6.4 kmh W -- 29.63 in1003.4 mb 0.00 in0.0 mm 0.00 in0.0 mm 0.00 in0.0 mm
06:17 PM 36.5°F2.5°C 28.6°F-1.9°C 73% 4.0 mph W6.4 kmh W -- 29.63 in1003.4 mb 0.00 in0.0 mm 0.00 in0.0 mm 0.00 in0.0 mm
06:18 PM 36.2°F2.3°C 28.6°F-1.9°C 74% 5.0 mph W8.0 kmh W -- 29.63 in1003.4 mb 0.00 in0.0 mm 0.00 in0.0 mm 0.00 in0.0 mm
06:20 PM 36.2°F2.3°C 28.6°F-1.9°C 74% 6.0 mph W9.7 kmh W -- 29.63 in1003.4 mb 0.00 in0.0 mm 0.00 in0.0 mm 0.00 in0.0 mm
06:21 PM 36.2°F2.3°C 28.6°F-1.9°C 74% 4.0 mph WNW6.4 kmh WNW -- 29.63 in1003.4 mb 0.00 in0.0 mm 0.00 in0.0 mm 0.00 in0.0 mm
06:22 PM 35.9°F2.2°C 28.4°F-2.0°C 74% 5.0 mph W8.0 kmh W -- 29.64 in1003.7 mb 0.00 in0.0 mm 0.00 in0.0 mm 0.00 in0.0 mm
06:23 PM 35.5°F1.9°C 28.2°F-2.1°C 75% 4.0 mph W6.4 kmh W -- 29.63 in1003.4 mb 0.00 in0.0 mm 0.00 in0.0 mm 0.00 in0.0 mm
06:24 PM 35.5°F1.9°C 28.2°F-2.1°C 75% 4.0 mph NW6.4 kmh NW -- 29.64 in1003.7 mb 0.00 in0.0 mm 0.00 in0.0 mm 0.00 in0.0 mm
06:25 PM 35.5°F1.9°C 28.2°F-2.1°C 75% 6.0 mph W9.7 kmh W -- 29.64 in1003.7 mb 0.00 in0.0 mm 0.00 in0.0 mm 0.00 in0.0 mm
06:26 PM 35.5°F1.9°C 28.2°F-2.1°C 75% 4.0 mph W6.4 kmh W -- 29.64 in1003.7 mb 0.00 in0.0 mm 0.00 in0.0 mm 0.00 in0.0 mm
06:27 PM 35.4°F1.9°C 28.2°F-2.1°C 75% 4.0 mph W6.4 kmh W -- 29.64 in1003.7 mb 0.00 in0.0 mm 0.00 in0.0 mm 0.00 in0.0 mm
06:28 PM 35.4°F1.9°C 27.9°F-2.3°C 74% 4.0 mph W6.4 kmh W -- 29.64 in1003.7 mb 0.00 in0.0 mm 0.00 in0.0 mm 0.00 in0.0 mm
06:29 PM 35.4°F1.9°C 27.9°F-2.3°C 74% 7.0 mph W11.3 kmh W -- 29.64 in1003.7 mb 0.00 in0.0 mm 0.00 in0.0 mm 0.00 in0.0 mm
06:30 PM 35.5°F1.9°C 27.9°F-2.3°C 74% 6.0 mph W9.7 kmh W -- 29.64 in1003.7 mb 0.00 in0.0 mm 0.00 in0.0 mm 0.00 in0.0 mm
06:31 PM 35.7°F2.1°C 27.9°F-2.3°C 73% 5.0 mph W8.0 kmh W -- 29.64 in1003.7 mb 0.00 in0.0 mm 0.00 in0.0 mm 0.00 in0.0 mm
06:32 PM 35.7°F2.1°C 27.9°F-2.3°C 73% 4.0 mph WNW6.4 kmh WNW -- 29.64 in1003.7 mb 0.00 in0.0 mm 0.00 in0.0 mm 0.00 in0.0 mm
06:33 PM 35.7°F2.1°C 27.9°F-2.3°C 73% 5.0 mph W8.0 kmh W -- 29.64 in1003.7 mb 0.00 in0.0 mm 0.00 in0.0 mm 0.00 in0.0 mm
06:34 PM 35.7°F2.1°C 27.9°F-2.3°C 73% 7.0 mph W11.3 kmh W -- 29.64 in1003.7 mb 0.00 in0.0 mm 0.00 in0.0 mm 0.00 in0.0 mm
06:35 PM 35.7°F2.1°C 27.9°F-2.3°C 73% 5.0 mph W8.0 kmh W -- 29.64 in1003.7 mb 0.00 in0.0 mm 0.00 in0.0 mm 0.00 in0.0 mm
06:36 PM 35.7°F2.1°C 27.9°F-2.3°C 73% 7.0 mph WNW11.3 kmh WNW -- 29.64 in1003.7 mb 0.00 in0.0 mm 0.00 in0.0 mm 0.00 in0.0 mm
06:37 PM 35.7°F2.1°C 27.9°F-2.3°C 73% 6.0 mph W9.7 kmh W -- 29.64 in1003.7 mb 0.00 in0.0 mm 0.00 in0.0 mm 0.00 in0.0 mm
06:38 PM 35.9°F2.2°C 28.0°F-2.2°C 73% 6.0 mph WNW9.7 kmh WNW -- 29.65 in1004.1 mb 0.00 in0.0 mm 0.00 in0.0 mm 0.00 in0.0 mm
06:39 PM 36.1°F2.3°C 28.2°F-2.1°C 73% 5.0 mph W8.0 kmh W -- 29.65 in1004.1 mb 0.00 in0.0 mm 0.00 in0.0 mm 0.00 in0.0 mm
06:40 PM 36.1°F2.3°C 28.2°F-2.1°C 73% 5.0 mph WNW8.0 kmh WNW -- 29.65 in1004.1 mb 0.00 in0.0 mm 0.00 in0.0 mm 0.00 in0.0 mm
06:41 PM 36.1°F2.3°C 28.2°F-2.1°C 73% 4.0 mph W6.4 kmh W -- 29.65 in1004.1 mb 0.00 in0.0 mm 0.00 in0.0 mm 0.00 in0.0 mm
06:42 PM 36.1°F2.3°C 28.2°F-2.1°C 73% 6.0 mph W9.7 kmh W -- 29.65 in1004.1 mb 0.00 in0.0 mm 0.00 in0.0 mm 0.00 in0.0 mm
06:43 PM 36.2°F2.3°C 28.2°F-2.1°C 73% 4.0 mph SW6.4 kmh SW -- 29.65 in1004.1 mb 0.00 in0.0 mm 0.00 in0.0 mm 0.00 in0.0 mm
06:44 PM 36.5°F2.5°C 28.6°F-1.9°C 73% 7.0 mph W11.3 kmh W -- 29.64 in1003.7 mb 0.00 in0.0 mm 0.00 in0.0 mm 0.00 in0.0 mm
06:45 PM 36.7°F2.6°C 28.1°F-2.2°C 71% 4.0 mph W6.4 kmh W -- 29.64 in1003.7 mb 0.00 in0.0 mm 0.00 in0.0 mm 0.00 in0.0 mm
06:46 PM 36.7°F2.6°C 28.1°F-2.2°C 71% 7.0 mph W11.3 kmh W -- 29.65 in1004.1 mb 0.00 in0.0 mm 0.00 in0.0 mm 0.00 in0.0 mm
06:47 PM 36.7°F2.6°C 28.1°F-2.2°C 71% 6.0 mph W9.7 kmh W -- 29.65 in1004.1 mb 0.00 in0.0 mm 0.00 in0.0 mm 0.00 in0.0 mm
06:49 PM 36.9°F2.7°C 28.2°F-2.1°C 71% 8.0 mph WNW12.9 kmh WNW -- 29.65 in1004.1 mb 0.00 in0.0 mm 0.00 in0.0 mm 0.00 in0.0 mm
06:50 PM 36.9°F2.7°C 28.2°F-2.1°C 71% 5.0 mph W8.0 kmh W -- 29.65 in1004.1 mb 0.00 in0.0 mm 0.00 in0.0 mm 0.00 in0.0 mm
06:51 PM 36.7°F2.6°C 28.1°F-2.2°C 71% 6.0 mph W9.7 kmh W -- 29.65 in1004.1 mb 0.00 in0.0 mm 0.00 in0.0 mm 0.00 in0.0 mm
06:52 PM 36.7°F2.6°C 28.1°F-2.2°C 71% 7.0 mph WSW11.3 kmh WSW -- 29.65 in1004.1 mb 0.00 in0.0 mm 0.00 in0.0 mm 0.00 in0.0 mm
06:53 PM 36.7°F2.6°C 28.1°F-2.2°C 71% 6.0 mph W9.7 kmh W -- 29.65 in1004.1 mb 0.00 in0.0 mm 0.00 in0.0 mm 0.00 in0.0 mm
06:54 PM 36.5°F2.5°C 27.9°F-2.3°C 71% 7.0 mph WNW11.3 kmh WNW -- 29.65 in1004.1 mb 0.00 in0.0 mm 0.00 in0.0 mm 0.00 in0.0 mm
06:55 PM 36.2°F2.3°C 27.5°F-2.5°C 71% 6.0 mph WNW9.7 kmh WNW -- 29.65 in1004.1 mb 0.00 in0.0 mm 0.00 in0.0 mm 0.00 in0.0 mm
06:56 PM 36.2°F2.3°C 28.2°F-2.1°C 73% 4.0 mph WNW6.4 kmh WNW -- 29.65 in1004.1 mb 0.00 in0.0 mm 0.00 in0.0 mm 0.00 in0.0 mm
06:57 PM 36.2°F2.3°C 28.2°F-2.1°C 73% 7.0 mph WNW11.3 kmh WNW -- 29.65 in1004.1 mb 0.00 in0.0 mm 0.00 in0.0 mm 0.00 in0.0 mm
06:58 PM 36.2°F2.3°C 28.2°F-2.1°C 73% 6.0 mph W9.7 kmh W -- 29.65 in1004.1 mb 0.00 in0.0 mm 0.00 in0.0 mm 0.00 in0.0 mm
07:01 PM 36.2°F2.3°C 28.2°F-2.1°C 73% 6.0 mph WNW9.7 kmh WNW -- 29.65 in1004.1 mb 0.00 in0.0 mm 0.00 in0.0 mm 0.00 in0.0 mm
07:02 PM 36.1°F2.3°C 28.2°F-2.1°C 73% 5.0 mph NW8.0 kmh NW -- 29.65 in1004.1 mb 0.00 in0.0 mm 0.00 in0.0 mm 0.00 in0.0 mm
07:03 PM 35.7°F2.1°C 28.2°F-2.1°C 74% 4.0 mph W6.4 kmh W -- 29.65 in1004.1 mb 0.00 in0.0 mm 0.00 in0.0 mm 0.00 in0.0 mm
07:04 PM 35.7°F2.1°C 28.2°F-2.1°C 74% 6.0 mph WNW9.7 kmh WNW -- 29.66 in1004.4 mb 0.00 in0.0 mm 0.00 in0.0 mm 0.00 in0.0 mm
07:05 PM 35.9°F2.2°C 28.4°F-2.0°C 74% 6.0 mph WNW9.7 kmh WNW -- 29.65 in1004.1 mb 0.00 in0.0 mm 0.00 in0.0 mm 0.00 in0.0 mm
07:06 PM 35.7°F2.1°C 28.2°F-2.1°C 74% 5.0 mph WNW8.0 kmh WNW -- 29.66 in1004.4 mb 0.00 in0.0 mm 0.00 in0.0 mm 0.00 in0.0 mm
07:07 PM 35.5°F1.9°C 27.9°F-2.3°C 74% 5.0 mph WNW8.0 kmh WNW -- 29.66 in1004.4 mb 0.00 in0.0 mm 0.00 in0.0 mm 0.00 in0.0 mm
07:08 PM 35.1°F1.7°C 27.8°F-2.3°C 75% 5.0 mph W8.0 kmh W -- 29.66 in1004.4 mb 0.00 in0.0 mm 0.00 in0.0 mm 0.00 in0.0 mm
07:10 PM 35.1°F1.7°C 27.8°F-2.3°C 75% 5.0 mph WSW8.0 kmh WSW -- 29.66 in1004.4 mb 0.00 in0.0 mm 0.00 in0.0 mm 0.00 in0.0 mm
07:11 PM 35.0°F1.7°C 27.8°F-2.3°C 75% 3.0 mph NNW4.8 kmh NNW -- 29.66 in1004.4 mb 0.00 in0.0 mm 0.00 in0.0 mm 0.00 in0.0 mm
07:12 PM 35.0°F1.7°C 27.8°F-2.3°C 75% 5.0 mph W8.0 kmh W -- 29.66 in1004.4 mb 0.00 in0.0 mm 0.00 in0.0 mm 0.00 in0.0 mm
07:13 PM 35.0°F1.7°C 27.8°F-2.3°C 75% 4.0 mph W6.4 kmh W -- 29.66 in1004.4 mb 0.00 in0.0 mm 0.00 in0.0 mm 0.00 in0.0 mm
07:14 PM 35.0°F1.7°C 28.2°F-2.1°C 76% 3.0 mph W4.8 kmh W -- 29.66 in1004.4 mb 0.00 in0.0 mm 0.00 in0.0 mm 0.00 in0.0 mm
07:15 PM 35.0°F1.7°C 28.8°F-1.8°C 78% 2.0 mph WSW3.2 kmh WSW -- 29.66 in1004.4 mb 0.00 in0.0 mm 0.00 in0.0 mm 0.00 in0.0 mm
07:16 PM 35.1°F1.7°C 28.8°F-1.8°C 78% 2.0 mph W3.2 kmh W -- 29.66 in1004.4 mb 0.00 in0.0 mm 0.00 in0.0 mm 0.00 in0.0 mm
07:17 PM 35.1°F1.7°C 28.2°F-2.1°C 76% 3.0 mph W4.8 kmh W -- 29.66 in1004.4 mb 0.00 in0.0 mm 0.00 in0.0 mm 0.00 in0.0 mm
07:18 PM 35.0°F1.7°C 28.2°F-2.1°C 76% 4.0 mph W6.4 kmh W -- 29.65 in1004.1 mb 0.00 in0.0 mm 0.00 in0.0 mm 0.00 in0.0 mm
07:19 PM 34.9°F1.6°C 28.0°F-2.2°C 76% 3.0 mph W4.8 kmh W -- 29.65 in1004.1 mb 0.00 in0.0 mm 0.00 in0.0 mm 0.00 in0.0 mm
07:20 PM 34.7°F1.5°C 27.8°F-2.3°C 76% 3.0 mph WNW4.8 kmh WNW -- 29.66 in1004.4 mb 0.00 in0.0 mm 0.00 in0.0 mm 0.00 in0.0 mm
07:21 PM 34.7°F1.5°C 27.8°F-2.3°C 76% 4.0 mph W6.4 kmh W -- 29.66 in1004.4 mb 0.00 in0.0 mm 0.00 in0.0 mm 0.00 in0.0 mm
07:22 PM 34.5°F1.4°C 28.3°F-2.1°C 78% 4.0 mph WNW6.4 kmh WNW -- 29.66 in1004.4 mb 0.00 in0.0 mm 0.00 in0.0 mm 0.00 in0.0 mm
07:23 PM 34.2°F1.2°C 27.9°F-2.3°C 78% 4.0 mph W6.4 kmh W -- 29.66 in1004.4 mb 0.00 in0.0 mm 0.00 in0.0 mm 0.00 in0.0 mm
07:25 PM 34.0°F1.1°C 27.8°F-2.3°C 78% 5.0 mph NW8.0 kmh NW -- 29.65 in1004.1 mb 0.00 in0.0 mm 0.00 in0.0 mm 0.00 in0.0 mm
07:26 PM 33.8°F1.0°C 27.6°F-2.4°C 78% 5.0 mph W8.0 kmh W -- 29.66 in1004.4 mb 0.00 in0.0 mm 0.00 in0.0 mm 0.00 in0.0 mm
07:27 PM 33.8°F1.0°C 27.9°F-2.3°C 79% 5.0 mph W8.0 kmh W -- 29.66 in1004.4 mb 0.00 in0.0 mm 0.00 in0.0 mm 0.00 in0.0 mm
07:28 PM 33.5°F0.8°C 27.5°F-2.5°C 79% 5.0 mph WNW8.0 kmh WNW -- 29.66 in1004.4 mb 0.00 in0.0 mm 0.00 in0.0 mm 0.00 in0.0 mm
07:29 PM 33.4°F0.8°C 27.5°F-2.5°C 79% 5.0 mph W8.0 kmh W -- 29.66 in1004.4 mb 0.00 in0.0 mm 0.00 in0.0 mm 0.00 in0.0 mm
07:31 PM 33.2°F0.7°C 27.4°F-2.6°C 79% 5.0 mph W8.0 kmh W -- 29.66 in1004.4 mb 0.00 in0.0 mm 0.00 in0.0 mm 0.00 in0.0 mm
07:32 PM 33.2°F0.7°C 27.4°F-2.6°C 79% 6.0 mph W9.7 kmh W -- 29.66 in1004.4 mb 0.00 in0.0 mm 0.00 in0.0 mm 0.00 in0.0 mm
07:33 PM 33.2°F0.7°C 27.4°F-2.6°C 79% 5.0 mph W8.0 kmh W -- 29.66 in1004.4 mb 0.00 in0.0 mm 0.00 in0.0 mm 0.00 in0.0 mm
07:35 PM 33.2°F0.7°C 27.7°F-2.4°C 80% 6.0 mph W9.7 kmh W -- 29.66 in1004.4 mb 0.00 in0.0 mm 0.00 in0.0 mm 0.00 in0.0 mm
07:36 PM 33.0°F0.6°C 27.5°F-2.5°C 80% 3.0 mph W4.8 kmh W -- 29.66 in1004.4 mb 0.00 in0.0 mm 0.00 in0.0 mm 0.00 in0.0 mm
07:37 PM 33.0°F0.6°C 27.5°F-2.5°C 80% 4.0 mph WNW6.4 kmh WNW -- 29.66 in1004.4 mb 0.00 in0.0 mm 0.00 in0.0 mm 0.00 in0.0 mm
07:38 PM 32.9°F0.5°C 27.3°F-2.6°C 80% 4.0 mph W6.4 kmh W -- 29.67 in1004.7 mb 0.00 in0.0 mm 0.00 in0.0 mm 0.00 in0.0 mm
07:39 PM 32.6°F0.3°C 27.0°F-2.8°C 80% 4.0 mph WNW6.4 kmh WNW -- 29.66 in1004.4 mb 0.00 in0.0 mm 0.00 in0.0 mm 0.00 in0.0 mm
07:40 PM 32.6°F0.3°C 27.3°F-2.6°C 81% 5.0 mph WNW8.0 kmh WNW -- 29.66 in1004.4 mb 0.00 in0.0 mm 0.00 in0.0 mm 0.00 in0.0 mm
07:41 PM 32.6°F0.3°C 27.3°F-2.6°C 81% 4.0 mph WNW6.4 kmh WNW -- 29.66 in1004.4 mb 0.00 in0.0 mm 0.00 in0.0 mm 0.00 in0.0 mm
07:42 PM 32.6°F0.3°C 27.3°F-2.6°C 81% 4.0 mph WNW6.4 kmh WNW -- 29.67 in1004.7 mb 0.00 in0.0 mm 0.00 in0.0 mm 0.00 in0.0 mm
07:43 PM 32.5°F0.3°C 27.3°F-2.6°C 81% 4.0 mph W6.4 kmh W -- 29.67 in1004.7 mb 0.00 in0.0 mm 0.00 in0.0 mm 0.00 in0.0 mm
07:44 PM 32.5°F0.3°C 27.3°F-2.6°C 81% 5.0 mph NW8.0 kmh NW -- 29.67 in1004.7 mb 0.00 in0.0 mm 0.00 in0.0 mm 0.00 in0.0 mm
07:45 PM 32.4°F0.2°C 27.1°F-2.7°C 81% 4.0 mph NW6.4 kmh NW -- 29.67 in1004.7 mb 0.00 in0.0 mm 0.00 in0.0 mm 0.00 in0.0 mm
07:46 PM 32.4°F0.2°C 27.1°F-2.7°C 81% 4.0 mph W6.4 kmh W -- 29.67 in1004.7 mb 0.00 in0.0 mm 0.00 in0.0 mm 0.00 in0.0 mm
07:47 PM 32.2°F0.1°C 26.9°F-2.8°C 81% 5.0 mph WNW8.0 kmh WNW -- 29.67 in1004.7 mb 0.00 in0.0 mm 0.00 in0.0 mm 0.00 in0.0 mm
07:49 PM 31.9°F-0.1°C 26.6°F-3.0°C 81% 5.0 mph W8.0 kmh W -- 29.67 in1004.7 mb 0.00 in0.0 mm 0.00 in0.0 mm 0.00 in0.0 mm
07:51 PM 31.7°F-0.2°C 26.4°F-3.1°C 81% 5.0 mph WNW8.0 kmh WNW -- 29.67 in1004.7 mb 0.00 in0.0 mm 0.00 in0.0 mm 0.00 in0.0 mm
07:52 PM 31.7°F-0.2°C 26.4°F-3.1°C 81% 4.0 mph W6.4 kmh W -- 29.67 in1004.7 mb 0.00 in0.0 mm 0.00 in0.0 mm 0.00 in0.0 mm
07:53 PM 31.6°F-0.2°C 26.4°F-3.1°C 81% 4.0 mph WNW6.4 kmh WNW -- 29.67 in1004.7 mb 0.00 in0.0 mm 0.00 in0.0 mm 0.00 in0.0 mm
07:54 PM 31.6°F-0.2°C 26.4°F-3.1°C 81% 5.0 mph W8.0 kmh W -- 29.67 in1004.7 mb 0.00 in0.0 mm 0.00 in0.0 mm 0.00 in0.0 mm
07:55 PM 31.6°F-0.2°C 26.4°F-3.1°C 81% 4.0 mph WNW6.4 kmh WNW -- 29.67 in1004.7 mb 0.00 in0.0 mm 0.00 in0.0 mm 0.00 in0.0 mm
07:56 PM 31.5°F-0.3°C 26.2°F-3.2°C 81% 3.0 mph WNW4.8 kmh WNW -- 29.67 in1004.7 mb 0.00 in0.0 mm 0.00 in0.0 mm 0.00 in0.0 mm
07:57 PM 31.5°F-0.3°C 26.2°F-3.2°C 81% 3.0 mph W4.8 kmh W -- 29.67 in1004.7 mb 0.00 in0.0 mm 0.00 in0.0 mm 0.00 in0.0 mm
07:58 PM 31.2°F-0.4°C 26.1°F-3.3°C 81% 3.0 mph W4.8 kmh W -- 29.67 in1004.7 mb 0.00 in0.0 mm 0.00 in0.0 mm 0.00 in0.0 mm
08:00 PM 31.1°F-0.5°C 25.9°F-3.4°C 81% 3.0 mph W4.8 kmh W -- 29.67 in1004.7 mb 0.00 in0.0 mm 0.00 in0.0 mm 0.00 in0.0 mm
08:01 PM 31.1°F-0.5°C 26.5°F-3.1°C 83% 3.0 mph W4.8 kmh W -- 29.67 in1004.7 mb 0.00 in0.0 mm 0.00 in0.0 mm 0.00 in0.0 mm
08:02 PM 30.8°F-0.7°C 26.1°F-3.3°C 83% 4.0 mph W6.4 kmh W -- 29.67 in1004.7 mb 0.00 in0.0 mm 0.00 in0.0 mm 0.00 in0.0 mm
08:03 PM 30.7°F-0.7°C 26.1°F-3.3°C 83% 4.0 mph W6.4 kmh W -- 29.67 in1004.7 mb 0.00 in0.0 mm 0.00 in0.0 mm 0.00 in0.0 mm
08:04 PM 30.7°F-0.7°C 26.1°F-3.3°C 83% 4.0 mph NNW6.4 kmh NNW -- 29.67 in1004.7 mb 0.00 in0.0 mm 0.00 in0.0 mm 0.00 in0.0 mm
08:05 PM 30.5°F-0.8°C 25.9°F-3.4°C 83% 4.0 mph WNW6.4 kmh WNW -- 29.67 in1004.7 mb 0.00 in0.0 mm 0.00 in0.0 mm 0.00 in0.0 mm
08:06 PM 30.5°F-0.8°C 25.9°F-3.4°C 83% 5.0 mph W8.0 kmh W -- 29.68 in1005.1 mb 0.00 in0.0 mm 0.00 in0.0 mm 0.00 in0.0 mm
08:07 PM 30.5°F-0.8°C 25.9°F-3.4°C 83% 4.0 mph W6.4 kmh W -- 29.68 in1005.1 mb 0.00 in0.0 mm 0.00 in0.0 mm 0.00 in0.0 mm
08:08 PM 30.3°F-0.9°C 25.8°F-3.4°C 83% 4.0 mph W6.4 kmh W -- 29.68 in1005.1 mb 0.00 in0.0 mm 0.00 in0.0 mm 0.00 in0.0 mm
08:09 PM 30.3°F-0.9°C 25.8°F-3.4°C 83% 5.0 mph WNW8.0 kmh WNW -- 29.67 in1004.7 mb 0.00 in0.0 mm 0.00 in0.0 mm 0.00 in0.0 mm
08:10 PM 30.1°F-1.1°C 25.4°F-3.7°C 83% 3.0 mph W4.8 kmh W -- 29.68 in1005.1 mb 0.00 in0.0 mm 0.00 in0.0 mm 0.00 in0.0 mm
08:11 PM 30.1°F-1.1°C 25.4°F-3.7°C 83% 6.0 mph W9.7 kmh W -- 29.68 in1005.1 mb 0.00 in0.0 mm 0.00 in0.0 mm 0.00 in0.0 mm
08:12 PM 30.1°F-1.1°C 25.4°F-3.7°C 83% 5.0 mph WNW8.0 kmh WNW -- 29.68 in1005.1 mb 0.00 in0.0 mm 0.00 in0.0 mm 0.00 in0.0 mm
08:14 PM 30.1°F-1.1°C 25.4°F-3.7°C 83% 4.0 mph W6.4 kmh W -- 29.68 in1005.1 mb 0.00 in0.0 mm 0.00 in0.0 mm 0.00 in0.0 mm
08:15 PM 30.1°F-1.1°C 25.4°F-3.7°C 83% 5.0 mph SSW8.0 kmh SSW -- 29.68 in1005.1 mb 0.00 in0.0 mm 0.00 in0.0 mm 0.00 in0.0 mm
08:16 PM 30.0°F-1.1°C 25.4°F-3.7°C 83% 6.0 mph SSW9.7 kmh SSW -- 29.69 in1005.4 mb 0.00 in0.0 mm 0.00 in0.0 mm 0.00 in0.0 mm
08:17 PM 30.0°F-1.1°C 25.4°F-3.7°C 83% 4.0 mph WNW6.4 kmh WNW -- 29.68 in1005.1 mb 0.00 in0.0 mm 0.00 in0.0 mm 0.00 in0.0 mm
08:18 PM 30.0°F-1.1°C 25.4°F-3.7°C 83% 4.0 mph NW6.4 kmh NW -- 29.68 in1005.1 mb 0.00 in0.0 mm 0.00 in0.0 mm 0.00 in0.0 mm
08:19 PM 30.0°F-1.1°C 25.4°F-3.7°C 83% 8.0 mph NW12.9 kmh NW -- 29.68 in1005.1 mb 0.00 in0.0 mm 0.00 in0.0 mm 0.00 in0.0 mm
08:20 PM 30.0°F-1.1°C 25.4°F-3.7°C 83% 6.0 mph WNW9.7 kmh WNW -- 29.68 in1005.1 mb 0.00 in0.0 mm 0.00 in0.0 mm 0.00 in0.0 mm
08:22 PM 30.0°F-1.1°C 25.4°F-3.7°C 83% 4.0 mph W6.4 kmh W -- 29.68 in1005.1 mb 0.00 in0.0 mm 0.00 in0.0 mm 0.00 in0.0 mm
08:23 PM 30.0°F-1.1°C 25.4°F-3.7°C 83% 4.0 mph W6.4 kmh W -- 29.69 in1005.4 mb 0.00 in0.0 mm 0.00 in0.0 mm 0.00 in0.0 mm
08:24 PM 30.0°F-1.1°C 25.4°F-3.7°C 83% 4.0 mph W6.4 kmh W -- 29.68 in1005.1 mb 0.00 in0.0 mm 0.00 in0.0 mm 0.00 in0.0 mm
08:25 PM 30.0°F-1.1°C 25.4°F-3.7°C 83% 6.0 mph W9.7 kmh W -- 29.68 in1005.1 mb 0.00 in0.0 mm 0.00 in0.0 mm 0.00 in0.0 mm
08:26 PM 30.0°F-1.1°C 25.4°F-3.7°C 83% 4.0 mph W6.4 kmh W -- 29.68 in1005.1 mb 0.00 in0.0 mm 0.00 in0.0 mm 0.00 in0.0 mm
08:27 PM 30.0°F-1.1°C 25.4°F-3.7°C 83% 5.0 mph W8.0 kmh W -- 29.68 in1005.1 mb 0.00 in0.0 mm 0.00 in0.0 mm 0.00 in0.0 mm
08:28 PM 30.1°F-1.1°C 25.4°F-3.7°C 83% 4.0 mph W6.4 kmh W -- 29.68 in1005.1 mb 0.00 in0.0 mm 0.00 in0.0 mm 0.00 in0.0 mm
08:30 PM 30.1°F-1.1°C 25.4°F-3.7°C 83% 6.0 mph W9.7 kmh W -- 29.69 in1005.4 mb 0.00 in0.0 mm 0.00 in0.0 mm 0.00 in0.0 mm
08:31 PM 30.1°F-1.1°C 25.4°F-3.7°C 83% 7.0 mph WNW11.3 kmh WNW -- 29.68 in1005.1 mb 0.00 in0.0 mm 0.00 in0.0 mm 0.00 in0.0 mm
08:32 PM 30.1°F-1.1°C 25.4°F-3.7°C 83% 4.0 mph W6.4 kmh W -- 29.68 in1005.1 mb 0.00 in0.0 mm 0.00 in0.0 mm 0.00 in0.0 mm
08:33 PM 30.1°F-1.1°C 25.4°F-3.7°C 83% 5.0 mph W8.0 kmh W -- 29.69 in1005.4 mb 0.00 in0.0 mm 0.00 in0.0 mm 0.00 in0.0 mm
08:35 PM 30.3°F-0.9°C 25.8°F-3.4°C 83% 7.0 mph WNW11.3 kmh WNW -- 29.69 in1005.4 mb 0.00 in0.0 mm 0.00 in0.0 mm 0.00 in0.0 mm
08:36 PM 30.3°F-0.9°C 25.2°F-3.8°C 81% 5.0 mph W8.0 kmh W -- 29.69 in1005.4 mb 0.00 in0.0 mm 0.00 in0.0 mm 0.00 in0.0 mm
08:37 PM 30.3°F-0.9°C 25.2°F-3.8°C 81% 5.0 mph WNW8.0 kmh WNW -- 29.69 in1005.4 mb 0.00 in0.0 mm 0.00 in0.0 mm 0.00 in0.0 mm
08:39 PM 30.5°F-0.8°C 25.4°F-3.7°C 81% 5.0 mph W8.0 kmh W -- 29.69 in1005.4 mb 0.00 in0.0 mm 0.00 in0.0 mm 0.00 in0.0 mm
08:40 PM 30.5°F-0.8°C 25.4°F-3.7°C 81% 6.0 mph WNW9.7 kmh WNW -- 29.69 in1005.4 mb 0.00 in0.0 mm 0.00 in0.0 mm 0.00 in0.0 mm
08:41 PM 30.5°F-0.8°C 25.4°F-3.7°C 81% 7.0 mph WNW11.3 kmh WNW -- 29.69 in1005.4 mb 0.00 in0.0 mm 0.00 in0.0 mm 0.00 in0.0 mm
08:42 PM 30.5°F-0.8°C 25.4°F-3.7°C 81% 5.0 mph W8.0 kmh W -- 29.69 in1005.4 mb 0.00 in0.0 mm 0.00 in0.0 mm 0.00 in0.0 mm
08:43 PM 30.5°F-0.8°C 25.4°F-3.7°C 81% 8.0 mph NW12.9 kmh NW -- 29.69 in1005.4 mb 0.00 in0.0 mm 0.00 in0.0 mm 0.00 in0.0 mm
08:44 PM 30.7°F-0.7°C 25.5°F-3.6°C 81% 5.0 mph NW8.0 kmh NW -- 29.69 in1005.4 mb 0.00 in0.0 mm 0.00 in0.0 mm 0.00 in0.0 mm
08:45 PM 30.8°F-0.7°C 25.5°F-3.6°C 81% 6.0 mph W9.7 kmh W -- 29.69 in1005.4 mb 0.00 in0.0 mm 0.00 in0.0 mm 0.00 in0.0 mm
08:46 PM 30.8°F-0.7°C 25.5°F-3.6°C 81% 7.0 mph WNW11.3 kmh WNW -- 29.69 in1005.4 mb 0.00 in0.0 mm 0.00 in0.0 mm 0.00 in0.0 mm
08:47 PM 30.8°F-0.7°C 25.5°F-3.6°C 81% 7.0 mph W11.3 kmh W -- 29.69 in1005.4 mb 0.00 in0.0 mm 0.00 in0.0 mm 0.00 in0.0 mm
08:48 PM 30.8°F-0.7°C 25.2°F-3.8°C 80% 6.0 mph W9.7 kmh W -- 29.69 in1005.4 mb 0.00 in0.0 mm 0.00 in0.0 mm 0.00 in0.0 mm
08:49 PM 30.8°F-0.7°C 25.2°F-3.8°C 80% 4.0 mph W6.4 kmh W -- 29.69 in1005.4 mb 0.00 in0.0 mm 0.00 in0.0 mm 0.00 in0.0 mm
08:50 PM 30.8°F-0.7°C 25.2°F-3.8°C 80% 5.0 mph WSW8.0 kmh WSW -- 29.69 in1005.4 mb 0.00 in0.0 mm 0.00 in0.0 mm 0.00 in0.0 mm
08:51 PM 30.8°F-0.7°C 25.2°F-3.8°C 80% 3.0 mph WNW4.8 kmh WNW -- 29.69 in1005.4 mb 0.00 in0.0 mm 0.00 in0.0 mm 0.00 in0.0 mm
08:52 PM 30.8°F-0.7°C 25.2°F-3.8°C 80% 5.0 mph W8.0 kmh W -- 29.69 in1005.4 mb 0.00 in0.0 mm 0.00 in0.0 mm 0.00 in0.0 mm
08:53 PM 30.8°F-0.7°C 25.2°F-3.8°C 80% 4.0 mph W6.4 kmh W -- 29.69 in1005.4 mb 0.00 in0.0 mm 0.00 in0.0 mm 0.00 in0.0 mm
08:54 PM 30.8°F-0.7°C 25.2°F-3.8°C 80% 5.0 mph W8.0 kmh W -- 29.69 in1005.4 mb 0.00 in0.0 mm 0.00 in0.0 mm 0.00 in0.0 mm
08:55 PM 30.8°F-0.7°C 25.2°F-3.8°C 80% 5.0 mph NNW8.0 kmh NNW -- 29.69 in1005.4 mb 0.00 in0.0 mm 0.00 in0.0 mm 0.00 in0.0 mm
08:56 PM 30.8°F-0.7°C 25.2°F-3.8°C 80% 6.0 mph W9.7 kmh W -- 29.69 in1005.4 mb 0.00 in0.0 mm 0.00 in0.0 mm 0.00 in0.0 mm
08:57 PM 30.8°F-0.7°C 25.2°F-3.8°C 80% 5.0 mph W8.0 kmh W -- 29.69 in1005.4 mb 0.00 in0.0 mm 0.00 in0.0 mm 0.00 in0.0 mm
08:58 PM 30.8°F-0.7°C 25.2°F-3.8°C 80% 6.0 mph W9.7 kmh W -- 29.69 in1005.4 mb 0.00 in0.0 mm 0.00 in0.0 mm 0.00 in0.0 mm
08:59 PM 30.8°F-0.7°C 25.2°F-3.8°C 80% 7.0 mph WNW11.3 kmh WNW -- 29.69 in1005.4 mb 0.00 in0.0 mm 0.00 in0.0 mm 0.00 in0.0 mm
09:00 PM 30.8°F-0.7°C 25.2°F-3.8°C 80% 5.0 mph W8.0 kmh W -- 29.69 in1005.4 mb 0.00 in0.0 mm 0.00 in0.0 mm 0.00 in0.0 mm
09:04 PM 30.8°F-0.7°C 25.2°F-3.8°C 80% 5.0 mph W8.0 kmh W -- 29.70 in1005.8 mb 0.00 in0.0 mm 0.00 in0.0 mm 0.00 in0.0 mm
09:05 PM 30.8°F-0.7°C 25.2°F-3.8°C 80% 8.0 mph W12.9 kmh W -- 29.70 in1005.8 mb 0.00 in0.0 mm 0.00 in0.0 mm 0.00 in0.0 mm
09:07 PM 30.9°F-0.6°C 25.1°F-3.8°C 79% 4.0 mph W6.4 kmh W -- 29.69 in1005.4 mb 0.00 in0.0 mm 0.00 in0.0 mm 0.00 in0.0 mm
09:09 PM 30.8°F-0.7°C 24.9°F-3.9°C 79% 6.0 mph WNW9.7 kmh WNW -- 29.70 in1005.8 mb 0.00 in0.0 mm 0.00 in0.0 mm 0.00 in0.0 mm
09:10 PM 30.8°F-0.7°C 24.9°F-3.9°C 79% 7.0 mph W11.3 kmh W -- 29.70 in1005.8 mb 0.00 in0.0 mm 0.00 in0.0 mm 0.00 in0.0 mm
09:11 PM 30.8°F-0.7°C 24.9°F-3.9°C 79% 5.0 mph W8.0 kmh W -- 29.70 in1005.8 mb 0.00 in0.0 mm 0.00 in0.0 mm 0.00 in0.0 mm
09:12 PM 30.8°F-0.7°C 24.9°F-3.9°C 79% 6.0 mph W9.7 kmh W -- 29.70 in1005.8 mb 0.00 in0.0 mm 0.00 in0.0 mm 0.00 in0.0 mm
09:13 PM 30.8°F-0.7°C 24.9°F-3.9°C 79% 7.0 mph W11.3 kmh W -- 29.70 in1005.8 mb 0.00 in0.0 mm 0.00 in0.0 mm 0.00 in0.0 mm
09:19 PM 30.8°F-0.7°C 24.9°F-3.9°C 79% 4.0 mph WNW6.4 kmh WNW -- 29.70 in1005.8 mb 0.00 in0.0 mm 0.00 in0.0 mm 0.00 in0.0 mm
09:20 PM 31.1°F-0.5°C 25.3°F-3.7°C 79% 4.0 mph WNW6.4 kmh WNW -- 29.70 in1005.8 mb 0.00 in0.0 mm 0.00 in0.0 mm 0.00 in0.0 mm
09:23 PM 31.1°F-0.5°C 25.3°F-3.7°C 79% 4.0 mph W6.4 kmh W -- 29.70 in1005.8 mb 0.00 in0.0 mm 0.00 in0.0 mm 0.00 in0.0 mm
09:26 PM 31.1°F-0.5°C 25.3°F-3.7°C 79% 5.0 mph W8.0 kmh W -- 29.71 in1006.1 mb 0.00 in0.0 mm 0.00 in0.0 mm 0.00 in0.0 mm
09:27 PM 30.9°F-0.6°C 25.4°F-3.7°C 80% 4.0 mph W6.4 kmh W -- 29.71 in1006.1 mb 0.00 in0.0 mm 0.00 in0.0 mm 0.00 in0.0 mm
09:28 PM 30.8°F-0.7°C 25.2°F-3.8°C 80% 4.0 mph W6.4 kmh W -- 29.70 in1005.8 mb 0.00 in0.0 mm 0.00 in0.0 mm 0.00 in0.0 mm
09:29 PM 30.8°F-0.7°C 25.2°F-3.8°C 80% 5.0 mph W8.0 kmh W -- 29.71 in1006.1 mb 0.00 in0.0 mm 0.00 in0.0 mm 0.00 in0.0 mm
09:30 PM 30.8°F-0.7°C 25.2°F-3.8°C 80% 6.0 mph W9.7 kmh W -- 29.71 in1006.1 mb 0.00 in0.0 mm 0.00 in0.0 mm 0.00 in0.0 mm
09:32 PM 30.7°F-0.7°C 25.2°F-3.8°C 80% 5.0 mph W8.0 kmh W -- 29.70 in1005.8 mb 0.00 in0.0 mm 0.00 in0.0 mm 0.00 in0.0 mm
09:33 PM 30.7°F-0.7°C 25.2°F-3.8°C 80% 4.0 mph W6.4 kmh W -- 29.70 in1005.8 mb 0.00 in0.0 mm 0.00 in0.0 mm 0.00 in0.0 mm
09:37 PM 30.6°F-0.8°C 25.1°F-3.8°C 80% 5.0 mph W8.0 kmh W -- 29.70 in1005.8 mb 0.00 in0.0 mm 0.00 in0.0 mm 0.00 in0.0 mm
09:39 PM 30.3°F-0.9°C 24.9°F-3.9°C 80% 4.0 mph W6.4 kmh W -- 29.71 in1006.1 mb 0.00 in0.0 mm 0.00 in0.0 mm 0.00 in0.0 mm
09:41 PM 30.1°F-1.1°C 24.5°F-4.2°C 80% 5.0 mph W8.0 kmh W -- 29.71 in1006.1 mb 0.00 in0.0 mm 0.00 in0.0 mm 0.00 in0.0 mm
09:42 PM 30.2°F-1.0°C 24.7°F-4.1°C 80% 6.0 mph W9.7 kmh W -- 29.71 in1006.1 mb 0.00 in0.0 mm 0.00 in0.0 mm 0.00 in0.0 mm
09:48 PM 29.8°F-1.2°C 24.3°F-4.3°C 80% 6.0 mph W9.7 kmh W -- 29.71 in1006.1 mb 0.00 in0.0 mm 0.00 in0.0 mm 0.00 in0.0 mm
09:49 PM 29.8°F-1.2°C 24.3°F-4.3°C 80% 7.0 mph W11.3 kmh W -- 29.71 in1006.1 mb 0.00 in0.0 mm 0.00 in0.0 mm 0.00 in0.0 mm
09:52 PM 29.8°F-1.2°C 24.3°F-4.3°C 80% 7.0 mph WSW11.3 kmh WSW -- 29.71 in1006.1 mb 0.00 in0.0 mm 0.00 in0.0 mm 0.00 in0.0 mm
09:53 PM 29.8°F-1.2°C 24.3°F-4.3°C 80% 9.0 mph WNW14.5 kmh WNW -- 29.71 in1006.1 mb 0.00 in0.0 mm 0.00 in0.0 mm 0.00 in0.0 mm
09:54 PM 29.6°F-1.3°C 24.2°F-4.3°C 80% 6.0 mph SW9.7 kmh SW -- 29.71 in1006.1 mb 0.00 in0.0 mm 0.00 in0.0 mm 0.00 in0.0 mm
09:55 PM 29.6°F-1.3°C 24.2°F-4.3°C 80% 9.0 mph SW14.5 kmh SW -- 29.71 in1006.1 mb 0.00 in0.0 mm 0.00 in0.0 mm 0.00 in0.0 mm
09:56 PM 29.6°F-1.3°C 24.2°F-4.3°C 80% 8.0 mph SW12.9 kmh SW -- 29.71 in1006.1 mb 0.00 in0.0 mm 0.00 in0.0 mm 0.00 in0.0 mm
09:57 PM 29.7°F-1.3°C 24.2°F-4.3°C 80% 9.0 mph W14.5 kmh W -- 29.71 in1006.1 mb 0.00 in0.0 mm 0.00 in0.0 mm 0.00 in0.0 mm
09:58 PM 29.6°F-1.3°C 24.2°F-4.3°C 80% 8.0 mph W12.9 kmh W -- 29.71 in1006.1 mb 0.00 in0.0 mm 0.00 in0.0 mm 0.00 in0.0 mm
10:03 PM 29.7°F-1.3°C 24.2°F-4.3°C 80% 8.0 mph W12.9 kmh W -- 29.72 in1006.4 mb 0.00 in0.0 mm 0.00 in0.0 mm 0.00 in0.0 mm
10:05 PM 29.6°F-1.3°C 23.9°F-4.5°C 79% 8.0 mph W12.9 kmh W -- 29.72 in1006.4 mb 0.00 in0.0 mm 0.00 in0.0 mm 0.00 in0.0 mm
10:06 PM 29.6°F-1.3°C 23.9°F-4.5°C 79% 9.0 mph W14.5 kmh W -- 29.72 in1006.4 mb 0.00 in0.0 mm 0.00 in0.0 mm 0.00 in0.0 mm
10:07 PM 29.6°F-1.3°C 23.9°F-4.5°C 79% 6.0 mph W9.7 kmh W -- 29.72 in1006.4 mb 0.00 in0.0 mm 0.00 in0.0 mm 0.00 in0.0 mm
10:08 PM 29.7°F-1.3°C 23.9°F-4.5°C 79% 6.0 mph W9.7 kmh W -- 29.72 in1006.4 mb 0.00 in0.0 mm 0.00 in0.0 mm 0.00 in0.0 mm
10:10 PM 29.6°F-1.3°C 23.9°F-4.5°C 79% 9.0 mph W14.5 kmh W -- 29.72 in1006.4 mb 0.00 in0.0 mm 0.00 in0.0 mm 0.00 in0.0 mm
10:13 PM 29.6°F-1.3°C 23.6°F-4.7°C 78% 8.0 mph W12.9 kmh W -- 29.73 in1006.8 mb 0.00 in0.0 mm 0.00 in0.0 mm 0.00 in0.0 mm
10:17 PM 30.0°F-1.1°C 23.9°F-4.5°C 78% 7.0 mph W11.3 kmh W -- 29.73 in1006.8 mb 0.00 in0.0 mm 0.00 in0.0 mm 0.00 in0.0 mm
10:18 PM 29.8°F-1.2°C 23.7°F-4.6°C 78% 8.0 mph W12.9 kmh W -- 29.73 in1006.8 mb 0.00 in0.0 mm 0.00 in0.0 mm 0.00 in0.0 mm
10:19 PM 29.8°F-1.2°C 23.7°F-4.6°C 78% 6.0 mph W9.7 kmh W -- 29.73 in1006.8 mb 0.00 in0.0 mm 0.00 in0.0 mm 0.00 in0.0 mm
10:21 PM 29.8°F-1.2°C 23.7°F-4.6°C 78% 8.0 mph W12.9 kmh W -- 29.73 in1006.8 mb 0.00 in0.0 mm 0.00 in0.0 mm 0.00 in0.0 mm
10:22 PM 29.6°F-1.3°C 23.6°F-4.7°C 78% 8.0 mph NW12.9 kmh NW -- 29.73 in1006.8 mb 0.00 in0.0 mm 0.00 in0.0 mm 0.00 in0.0 mm
10:23 PM 29.6°F-1.3°C 23.6°F-4.7°C 78% 8.0 mph W12.9 kmh W -- 29.73 in1006.8 mb 0.00 in0.0 mm 0.00 in0.0 mm 0.00 in0.0 mm
10:26 PM 29.6°F-1.3°C 23.6°F-4.7°C 78% 9.0 mph W14.5 kmh W -- 29.74 in1007.1 mb 0.00 in0.0 mm 0.00 in0.0 mm 0.00 in0.0 mm
10:27 PM 29.5°F-1.4°C 23.4°F-4.8°C 78% 8.0 mph W12.9 kmh W -- 29.74 in1007.1 mb 0.00 in0.0 mm 0.00 in0.0 mm 0.00 in0.0 mm
10:29 PM 29.5°F-1.4°C 23.4°F-4.8°C 78% 9.0 mph W14.5 kmh W -- 29.73 in1006.8 mb 0.00 in0.0 mm 0.00 in0.0 mm 0.00 in0.0 mm
10:32 PM 29.5°F-1.4°C 23.1°F-4.9°C 77% 9.0 mph W14.5 kmh W -- 29.74 in1007.1 mb 0.00 in0.0 mm 0.00 in0.0 mm 0.00 in0.0 mm
10:34 PM 29.5°F-1.4°C 23.1°F-4.9°C 77% 10.0 mph W16.1 kmh W -- 29.74 in1007.1 mb 0.00 in0.0 mm 0.00 in0.0 mm 0.00 in0.0 mm
10:35 PM 29.5°F-1.4°C 22.8°F-5.1°C 76% 10.0 mph WNW16.1 kmh WNW -- 29.74 in1007.1 mb 0.00 in0.0 mm 0.00 in0.0 mm 0.00 in0.0 mm
10:37 PM 29.5°F-1.4°C 23.1°F-4.9°C 77% 11.0 mph NW17.7 kmh NW -- 29.74 in1007.1 mb 0.00 in0.0 mm 0.00 in0.0 mm 0.00 in0.0 mm
10:38 PM 29.5°F-1.4°C 22.8°F-5.1°C 76% 8.0 mph NW12.9 kmh NW -- 29.74 in1007.1 mb 0.00 in0.0 mm 0.00 in0.0 mm 0.00 in0.0 mm
10:39 PM 29.5°F-1.4°C 22.8°F-5.1°C 76% 11.0 mph NW17.7 kmh NW -- 29.74 in1007.1 mb 0.00 in0.0 mm 0.00 in0.0 mm 0.00 in0.0 mm
10:40 PM 29.5°F-1.4°C 22.4°F-5.3°C 75% 8.0 mph NNW12.9 kmh NNW -- 29.74 in1007.1 mb 0.00 in0.0 mm 0.00 in0.0 mm 0.00 in0.0 mm
10:41 PM 29.5°F-1.4°C 22.4°F-5.3°C 75% 5.0 mph WNW8.0 kmh WNW -- 29.74 in1007.1 mb 0.00 in0.0 mm 0.00 in0.0 mm 0.00 in0.0 mm
10:42 PM 29.5°F-1.4°C 22.8°F-5.1°C 76% 8.0 mph W12.9 kmh W -- 29.74 in1007.1 mb 0.00 in0.0 mm 0.00 in0.0 mm 0.00 in0.0 mm
10:44 PM 29.2°F-1.6°C 22.1°F-5.5°C 75% 8.0 mph W12.9 kmh W -- 29.74 in1007.1 mb 0.00 in0.0 mm 0.00 in0.0 mm 0.00 in0.0 mm
10:45 PM 29.2°F-1.6°C 22.1°F-5.5°C 75% 6.0 mph WNW9.7 kmh WNW -- 29.74 in1007.1 mb 0.00 in0.0 mm 0.00 in0.0 mm 0.00 in0.0 mm
10:47 PM 29.1°F-1.6°C 22.1°F-5.5°C 75% 8.0 mph WNW12.9 kmh WNW -- 29.74 in1007.1 mb 0.00 in0.0 mm 0.00 in0.0 mm 0.00 in0.0 mm
10:50 PM 29.1°F-1.6°C 22.1°F-5.5°C 75% 7.0 mph W11.3 kmh W -- 29.74 in1007.1 mb 0.00 in0.0 mm 0.00 in0.0 mm 0.00 in0.0 mm
10:53 PM 29.1°F-1.6°C 22.1°F-5.5°C 75% 8.0 mph W12.9 kmh W -- 29.75 in1007.5 mb 0.00 in0.0 mm 0.00 in0.0 mm 0.00 in0.0 mm
10:54 PM 29.1°F-1.6°C 22.1°F-5.5°C 75% 7.0 mph W11.3 kmh W -- 29.75 in1007.5 mb 0.00 in0.0 mm 0.00 in0.0 mm 0.00 in0.0 mm
10:56 PM 29.1°F-1.6°C 22.1°F-5.5°C 75% 6.0 mph W9.7 kmh W -- 29.75 in1007.5 mb 0.00 in0.0 mm 0.00 in0.0 mm 0.00 in0.0 mm
10:57 PM 29.1°F-1.6°C 22.1°F-5.5°C 75% 7.0 mph WNW11.3 kmh WNW -